<?xml version="1.0" encoding="UTF-8"?>
<gpx xmlns="http://www.topografix.com/GPX/1/1" xmlns:dkl="http://www.gpsware.de/DKL/1/1" xmlns:rtx="http://www.bike-gps.de/RTX/1/1" version="1.1" creator="KOMPASS Digital Map" xmlns:xsi="http://www.w3.org/2001/XMLSchema-instance" xsi:schemaLocation="http://www.topografix.com/GPX/1/1 http://www.topografix.com/GPX/1/1/gpx.xsd">
 <metadata>
 <name>KOMPASS Digital Map Track</name>
 <desc> </desc>
 <time>2010-08-30T17:28:39Z</time>
 <bounds minlat="47.280434" minlon="12.794237" maxlat="47.421917" maxlon="13.226545"/>
 </metadata>
 <trk>
 <name>2010__Z_Bo</name>
 <cmt>Zell am See - Bo</cmt>
 <extensions>
 <dkl:dkl>
 <dkl:format_version>1.1</dkl:format_version>
 <dkl:format>
 <dkl:color>FF0000</dkl:color>
 <dkl:style>00000000</dkl:style>
 <dkl:strength>3</dkl:strength>
 <dkl:transparent>0</dkl:transparent>
 </dkl:format>
 </dkl:dkl>
 </extensions>
 <trkseg>
 <trkpt lat="47.319939" lon="12.796172">
 <ele>758.62</ele>
 <time>2009-08-06T06:50:48Z</time>
 </trkpt>
 <trkpt lat="47.319916" lon="12.796131">
 <ele>757.66</ele>
 <time>2009-08-06T06:50:49Z</time>
 </trkpt>
 <trkpt lat="47.319859" lon="12.795994">
 <ele>757.66</ele>
 <time>2009-08-06T06:50:53Z</time>
 </trkpt>
 <trkpt lat="47.319607" lon="12.795606">
 <ele>757.18</ele>
 <time>2009-08-06T06:51:02Z</time>
 </trkpt>
 <trkpt lat="47.319424" lon="12.795379">
 <ele>757.18</ele>
 <time>2009-08-06T06:51:08Z</time>
 </trkpt>
 <trkpt lat="47.319237" lon="12.795094">
 <ele>756.69</ele>
 <time>2009-08-06T06:51:14Z</time>
 </trkpt>
 <trkpt lat="47.319008" lon="12.794821">
 <ele>756.69</ele>
 <time>2009-08-06T06:51:20Z</time>
 </trkpt>
 <trkpt lat="47.318790" lon="12.794696">
 <ele>757.18</ele>
 <time>2009-08-06T06:51:25Z</time>
 </trkpt>
 <trkpt lat="47.318470" lon="12.794648">
 <ele>756.69</ele>
 <time>2009-08-06T06:51:32Z</time>
 </trkpt>
 <trkpt lat="47.318115" lon="12.794549">
 <ele>757.66</ele>
 <time>2009-08-06T06:51:40Z</time>
 </trkpt>
 <trkpt lat="47.317974" lon="12.794533">
 <ele>757.66</ele>
 <time>2009-08-06T06:51:43Z</time>
 </trkpt>
 <trkpt lat="47.317535" lon="12.794517">
 <ele>757.66</ele>
 <time>2009-08-06T06:51:52Z</time>
 </trkpt>
 <trkpt lat="47.317020" lon="12.794442">
 <ele>757.66</ele>
 <time>2009-08-06T06:52:02Z</time>
 </trkpt>
 <trkpt lat="47.316666" lon="12.794424">
 <ele>756.69</ele>
 <time>2009-08-06T06:52:09Z</time>
 </trkpt>
 <trkpt lat="47.316315" lon="12.794415">
 <ele>757.18</ele>
 <time>2009-08-06T06:52:16Z</time>
 </trkpt>
 <trkpt lat="47.315983" lon="12.794423">
 <ele>759.10</ele>
 <time>2009-08-06T06:52:23Z</time>
 </trkpt>
 <trkpt lat="47.315781" lon="12.794436">
 <ele>760.06</ele>
 <time>2009-08-06T06:52:29Z</time>
 </trkpt>
 <trkpt lat="47.315575" lon="12.794495">
 <ele>760.06</ele>
 <time>2009-08-06T06:52:35Z</time>
 </trkpt>
 <trkpt lat="47.315392" lon="12.794425">
 <ele>759.58</ele>
 <time>2009-08-06T06:52:39Z</time>
 </trkpt>
 <trkpt lat="47.314968" lon="12.794374">
 <ele>757.18</ele>
 <time>2009-08-06T06:52:46Z</time>
 </trkpt>
 <trkpt lat="47.314495" lon="12.794360">
 <ele>757.66</ele>
 <time>2009-08-06T06:52:54Z</time>
 </trkpt>
 <trkpt lat="47.314060" lon="12.794356">
 <ele>758.62</ele>
 <time>2009-08-06T06:53:02Z</time>
 </trkpt>
 <trkpt lat="47.313690" lon="12.794418">
 <ele>758.14</ele>
 <time>2009-08-06T06:53:09Z</time>
 </trkpt>
 <trkpt lat="47.313385" lon="12.794523">
 <ele>758.62</ele>
 <time>2009-08-06T06:53:15Z</time>
 </trkpt>
 <trkpt lat="47.313133" lon="12.794621">
 <ele>759.10</ele>
 <time>2009-08-06T06:53:20Z</time>
 </trkpt>
 <trkpt lat="47.312866" lon="12.794755">
 <ele>760.06</ele>
 <time>2009-08-06T06:53:26Z</time>
 </trkpt>
 <trkpt lat="47.312660" lon="12.794849">
 <ele>761.98</ele>
 <time>2009-08-06T06:53:32Z</time>
 </trkpt>
 <trkpt lat="47.312580" lon="12.794881">
 <ele>762.46</ele>
 <time>2009-08-06T06:53:34Z</time>
 </trkpt>
 <trkpt lat="47.312340" lon="12.794935">
 <ele>761.50</ele>
 <time>2009-08-06T06:53:39Z</time>
 </trkpt>
 <trkpt lat="47.312233" lon="12.794961">
 <ele>761.02</ele>
 <time>2009-08-06T06:53:41Z</time>
 </trkpt>
 <trkpt lat="47.312065" lon="12.795045">
 <ele>761.02</ele>
 <time>2009-08-06T06:53:44Z</time>
 </trkpt>
 <trkpt lat="47.311798" lon="12.795077">
 <ele>761.02</ele>
 <time>2009-08-06T06:53:49Z</time>
 </trkpt>
 <trkpt lat="47.311420" lon="12.795019">
 <ele>759.58</ele>
 <time>2009-08-06T06:53:56Z</time>
 </trkpt>
 <trkpt lat="47.310894" lon="12.794895">
 <ele>759.10</ele>
 <time>2009-08-06T06:54:06Z</time>
 </trkpt>
 <trkpt lat="47.310410" lon="12.794749">
 <ele>758.62</ele>
 <time>2009-08-06T06:54:15Z</time>
 </trkpt>
 <trkpt lat="47.309822" lon="12.794577">
 <ele>759.10</ele>
 <time>2009-08-06T06:54:26Z</time>
 </trkpt>
 <trkpt lat="47.309113" lon="12.794384">
 <ele>759.10</ele>
 <time>2009-08-06T06:54:39Z</time>
 </trkpt>
 <trkpt lat="47.308514" lon="12.794247">
 <ele>759.10</ele>
 <time>2009-08-06T06:54:50Z</time>
 </trkpt>
 <trkpt lat="47.308300" lon="12.794245">
 <ele>759.58</ele>
 <time>2009-08-06T06:54:55Z</time>
 </trkpt>
 <trkpt lat="47.308254" lon="12.794237">
 <ele>759.10</ele>
 <time>2009-08-06T06:54:58Z</time>
 </trkpt>
 <trkpt lat="47.308136" lon="12.794250">
 <ele>759.10</ele>
 <time>2009-08-06T06:55:03Z</time>
 </trkpt>
 <trkpt lat="47.308052" lon="12.794250">
 <ele>759.58</ele>
 <time>2009-08-06T06:55:05Z</time>
 </trkpt>
 <trkpt lat="47.307610" lon="12.794344">
 <ele>759.58</ele>
 <time>2009-08-06T06:55:14Z</time>
 </trkpt>
 <trkpt lat="47.307217" lon="12.794469">
 <ele>759.58</ele>
 <time>2009-08-06T06:55:22Z</time>
 </trkpt>
 <trkpt lat="47.306717" lon="12.794621">
 <ele>759.58</ele>
 <time>2009-08-06T06:55:32Z</time>
 </trkpt>
 <trkpt lat="47.306213" lon="12.794779">
 <ele>759.58</ele>
 <time>2009-08-06T06:55:42Z</time>
 </trkpt>
 <trkpt lat="47.305622" lon="12.794967">
 <ele>760.06</ele>
 <time>2009-08-06T06:55:54Z</time>
 </trkpt>
 <trkpt lat="47.305088" lon="12.795153">
 <ele>760.54</ele>
 <time>2009-08-06T06:56:05Z</time>
 </trkpt>
 <trkpt lat="47.304684" lon="12.795309">
 <ele>761.02</ele>
 <time>2009-08-06T06:56:13Z</time>
 </trkpt>
 <trkpt lat="47.304527" lon="12.795490">
 <ele>760.54</ele>
 <time>2009-08-06T06:56:17Z</time>
 </trkpt>
 <trkpt lat="47.304470" lon="12.795611">
 <ele>760.54</ele>
 <time>2009-08-06T06:56:19Z</time>
 </trkpt>
 <trkpt lat="47.304268" lon="12.795860">
 <ele>760.54</ele>
 <time>2009-08-06T06:56:24Z</time>
 </trkpt>
 <trkpt lat="47.304001" lon="12.796140">
 <ele>760.54</ele>
 <time>2009-08-06T06:56:30Z</time>
 </trkpt>
 <trkpt lat="47.303741" lon="12.796414">
 <ele>760.54</ele>
 <time>2009-08-06T06:56:36Z</time>
 </trkpt>
 <trkpt lat="47.303413" lon="12.796768">
 <ele>760.06</ele>
 <time>2009-08-06T06:56:43Z</time>
 </trkpt>
 <trkpt lat="47.303135" lon="12.797054">
 <ele>759.58</ele>
 <time>2009-08-06T06:56:49Z</time>
 </trkpt>
 <trkpt lat="47.302761" lon="12.797427">
 <ele>759.58</ele>
 <time>2009-08-06T06:56:57Z</time>
 </trkpt>
 <trkpt lat="47.302536" lon="12.797653">
 <ele>759.58</ele>
 <time>2009-08-06T06:57:02Z</time>
 </trkpt>
 <trkpt lat="47.302166" lon="12.798027">
 <ele>760.06</ele>
 <time>2009-08-06T06:57:10Z</time>
 </trkpt>
 <trkpt lat="47.301865" lon="12.798327">
 <ele>760.06</ele>
 <time>2009-08-06T06:57:17Z</time>
 </trkpt>
 <trkpt lat="47.301590" lon="12.798592">
 <ele>760.06</ele>
 <time>2009-08-06T06:57:23Z</time>
 </trkpt>
 <trkpt lat="47.301323" lon="12.798865">
 <ele>759.10</ele>
 <time>2009-08-06T06:57:29Z</time>
 </trkpt>
 <trkpt lat="47.301018" lon="12.799172">
 <ele>759.58</ele>
 <time>2009-08-06T06:57:36Z</time>
 </trkpt>
 <trkpt lat="47.300907" lon="12.799289">
 <ele>760.06</ele>
 <time>2009-08-06T06:57:40Z</time>
 </trkpt>
 <trkpt lat="47.300728" lon="12.799480">
 <ele>759.58</ele>
 <time>2009-08-06T06:57:45Z</time>
 </trkpt>
 <trkpt lat="47.300423" lon="12.799788">
 <ele>760.06</ele>
 <time>2009-08-06T06:57:52Z</time>
 </trkpt>
 <trkpt lat="47.300083" lon="12.800136">
 <ele>760.06</ele>
 <time>2009-08-06T06:58:00Z</time>
 </trkpt>
 <trkpt lat="47.299698" lon="12.800526">
 <ele>759.10</ele>
 <time>2009-08-06T06:58:09Z</time>
 </trkpt>
 <trkpt lat="47.299618" lon="12.800615">
 <ele>759.58</ele>
 <time>2009-08-06T06:58:11Z</time>
 </trkpt>
 <trkpt lat="47.299545" lon="12.800708">
 <ele>759.10</ele>
 <time>2009-08-06T06:58:13Z</time>
 </trkpt>
 <trkpt lat="47.299477" lon="12.800785">
 <ele>759.10</ele>
 <time>2009-08-06T06:58:15Z</time>
 </trkpt>
 <trkpt lat="47.299255" lon="12.800993">
 <ele>760.06</ele>
 <time>2009-08-06T06:58:21Z</time>
 </trkpt>
 <trkpt lat="47.298939" lon="12.801312">
 <ele>759.10</ele>
 <time>2009-08-06T06:58:29Z</time>
 </trkpt>
 <trkpt lat="47.298809" lon="12.801422">
 <ele>759.10</ele>
 <time>2009-08-06T06:58:33Z</time>
 </trkpt>
 <trkpt lat="47.298672" lon="12.801562">
 <ele>759.58</ele>
 <time>2009-08-06T06:58:37Z</time>
 </trkpt>
 <trkpt lat="47.298389" lon="12.801847">
 <ele>759.58</ele>
 <time>2009-08-06T06:58:44Z</time>
 </trkpt>
 <trkpt lat="47.298084" lon="12.802155">
 <ele>759.58</ele>
 <time>2009-08-06T06:58:51Z</time>
 </trkpt>
 <trkpt lat="47.297878" lon="12.802372">
 <ele>759.10</ele>
 <time>2009-08-06T06:58:56Z</time>
 </trkpt>
 <trkpt lat="47.297585" lon="12.802666">
 <ele>759.58</ele>
 <time>2009-08-06T06:59:03Z</time>
 </trkpt>
 <trkpt lat="47.297287" lon="12.802956">
 <ele>760.06</ele>
 <time>2009-08-06T06:59:10Z</time>
 </trkpt>
 <trkpt lat="47.296989" lon="12.803270">
 <ele>760.54</ele>
 <time>2009-08-06T06:59:17Z</time>
 </trkpt>
 <trkpt lat="47.296738" lon="12.803519">
 <ele>760.06</ele>
 <time>2009-08-06T06:59:23Z</time>
 </trkpt>
 <trkpt lat="47.296215" lon="12.804008">
 <ele>760.54</ele>
 <time>2009-08-06T06:59:35Z</time>
 </trkpt>
 <trkpt lat="47.295876" lon="12.804328">
 <ele>760.54</ele>
 <time>2009-08-06T06:59:43Z</time>
 </trkpt>
 <trkpt lat="47.295536" lon="12.804672">
 <ele>760.54</ele>
 <time>2009-08-06T06:59:51Z</time>
 </trkpt>
 <trkpt lat="47.295193" lon="12.805018">
 <ele>761.02</ele>
 <time>2009-08-06T06:59:59Z</time>
 </trkpt>
 <trkpt lat="47.294846" lon="12.805372">
 <ele>761.50</ele>
 <time>2009-08-06T07:00:07Z</time>
 </trkpt>
 <trkpt lat="47.294479" lon="12.805734">
 <ele>761.02</ele>
 <time>2009-08-06T07:00:15Z</time>
 </trkpt>
 <trkpt lat="47.294174" lon="12.806035">
 <ele>761.02</ele>
 <time>2009-08-06T07:00:22Z</time>
 </trkpt>
 <trkpt lat="47.293949" lon="12.806266">
 <ele>760.54</ele>
 <time>2009-08-06T07:00:27Z</time>
 </trkpt>
 <trkpt lat="47.293598" lon="12.806617">
 <ele>760.54</ele>
 <time>2009-08-06T07:00:35Z</time>
 </trkpt>
 <trkpt lat="47.293121" lon="12.807094">
 <ele>761.50</ele>
 <time>2009-08-06T07:00:46Z</time>
 </trkpt>
 <trkpt lat="47.292641" lon="12.807583">
 <ele>760.54</ele>
 <time>2009-08-06T07:00:57Z</time>
 </trkpt>
 <trkpt lat="47.292171" lon="12.808084">
 <ele>761.02</ele>
 <time>2009-08-06T07:01:08Z</time>
 </trkpt>
 <trkpt lat="47.291740" lon="12.808497">
 <ele>761.02</ele>
 <time>2009-08-06T07:01:18Z</time>
 </trkpt>
 <trkpt lat="47.291409" lon="12.808828">
 <ele>761.50</ele>
 <time>2009-08-06T07:01:26Z</time>
 </trkpt>
 <trkpt lat="47.291126" lon="12.809139">
 <ele>761.50</ele>
 <time>2009-08-06T07:01:33Z</time>
 </trkpt>
 <trkpt lat="47.290966" lon="12.809209">
 <ele>761.50</ele>
 <time>2009-08-06T07:01:37Z</time>
 </trkpt>
 <trkpt lat="47.290707" lon="12.809268">
 <ele>761.98</ele>
 <time>2009-08-06T07:01:43Z</time>
 </trkpt>
 <trkpt lat="47.290676" lon="12.809272">
 <ele>762.46</ele>
 <time>2009-08-06T07:01:44Z</time>
 </trkpt>
 <trkpt lat="47.290588" lon="12.809288">
 <ele>762.46</ele>
 <time>2009-08-06T07:01:47Z</time>
 </trkpt>
 <trkpt lat="47.290543" lon="12.809481">
 <ele>762.94</ele>
 <time>2009-08-06T07:01:51Z</time>
 </trkpt>
 <trkpt lat="47.290520" lon="12.809984">
 <ele>762.46</ele>
 <time>2009-08-06T07:01:58Z</time>
 </trkpt>
 <trkpt lat="47.290459" lon="12.810279">
 <ele>762.94</ele>
 <time>2009-08-06T07:02:02Z</time>
 </trkpt>
 <trkpt lat="47.290203" lon="12.810979">
 <ele>762.46</ele>
 <time>2009-08-06T07:02:12Z</time>
 </trkpt>
 <trkpt lat="47.289963" lon="12.811465">
 <ele>761.98</ele>
 <time>2009-08-06T07:02:20Z</time>
 </trkpt>
 <trkpt lat="47.289856" lon="12.811672">
 <ele>761.98</ele>
 <time>2009-08-06T07:02:25Z</time>
 </trkpt>
 <trkpt lat="47.289818" lon="12.811695">
 <ele>762.46</ele>
 <time>2009-08-06T07:02:31Z</time>
 </trkpt>
 <trkpt lat="47.289783" lon="12.811726">
 <ele>762.94</ele>
 <time>2009-08-06T07:02:50Z</time>
 </trkpt>
 <trkpt lat="47.289757" lon="12.811752">
 <ele>762.94</ele>
 <time>2009-08-06T07:02:51Z</time>
 </trkpt>
 <trkpt lat="47.289555" lon="12.812066">
 <ele>762.46</ele>
 <time>2009-08-06T07:02:57Z</time>
 </trkpt>
 <trkpt lat="47.289200" lon="12.812448">
 <ele>762.94</ele>
 <time>2009-08-06T07:03:05Z</time>
 </trkpt>
 <trkpt lat="47.288807" lon="12.812729">
 <ele>762.94</ele>
 <time>2009-08-06T07:03:13Z</time>
 </trkpt>
 <trkpt lat="47.288414" lon="12.813025">
 <ele>762.46</ele>
 <time>2009-08-06T07:03:21Z</time>
 </trkpt>
 <trkpt lat="47.288185" lon="12.813268">
 <ele>762.94</ele>
 <time>2009-08-06T07:03:26Z</time>
 </trkpt>
 <trkpt lat="47.288040" lon="12.813533">
 <ele>762.94</ele>
 <time>2009-08-06T07:03:30Z</time>
 </trkpt>
 <trkpt lat="47.287819" lon="12.814222">
 <ele>762.94</ele>
 <time>2009-08-06T07:03:39Z</time>
 </trkpt>
 <trkpt lat="47.287666" lon="12.814872">
 <ele>763.42</ele>
 <time>2009-08-06T07:03:47Z</time>
 </trkpt>
 <trkpt lat="47.287563" lon="12.815645">
 <ele>762.94</ele>
 <time>2009-08-06T07:03:56Z</time>
 </trkpt>
 <trkpt lat="47.287556" lon="12.816334">
 <ele>763.42</ele>
 <time>2009-08-06T07:04:04Z</time>
 </trkpt>
 <trkpt lat="47.287594" lon="12.817209">
 <ele>762.94</ele>
 <time>2009-08-06T07:04:14Z</time>
 </trkpt>
 <trkpt lat="47.287674" lon="12.817821">
 <ele>762.94</ele>
 <time>2009-08-06T07:04:21Z</time>
 </trkpt>
 <trkpt lat="47.287849" lon="12.818510">
 <ele>762.46</ele>
 <time>2009-08-06T07:04:29Z</time>
 </trkpt>
 <trkpt lat="47.288021" lon="12.819103">
 <ele>762.46</ele>
 <time>2009-08-06T07:04:36Z</time>
 </trkpt>
 <trkpt lat="47.288254" lon="12.819939">
 <ele>761.98</ele>
 <time>2009-08-06T07:04:46Z</time>
 </trkpt>
 <trkpt lat="47.288460" lon="12.820683">
 <ele>762.46</ele>
 <time>2009-08-06T07:04:55Z</time>
 </trkpt>
 <trkpt lat="47.288570" lon="12.821280">
 <ele>762.46</ele>
 <time>2009-08-06T07:05:02Z</time>
 </trkpt>
 <trkpt lat="47.288586" lon="12.821453">
 <ele>762.46</ele>
 <time>2009-08-06T07:05:04Z</time>
 </trkpt>
 <trkpt lat="47.288574" lon="12.822141">
 <ele>762.46</ele>
 <time>2009-08-06T07:05:12Z</time>
 </trkpt>
 <trkpt lat="47.288551" lon="12.822388">
 <ele>762.94</ele>
 <time>2009-08-06T07:05:15Z</time>
 </trkpt>
 <trkpt lat="47.288475" lon="12.822791">
 <ele>762.94</ele>
 <time>2009-08-06T07:05:20Z</time>
 </trkpt>
 <trkpt lat="47.288395" lon="12.823082">
 <ele>763.42</ele>
 <time>2009-08-06T07:05:24Z</time>
 </trkpt>
 <trkpt lat="47.288162" lon="12.823486">
 <ele>764.39</ele>
 <time>2009-08-06T07:05:31Z</time>
 </trkpt>
 <trkpt lat="47.287876" lon="12.823887">
 <ele>763.90</ele>
 <time>2009-08-06T07:05:39Z</time>
 </trkpt>
 <trkpt lat="47.287628" lon="12.824327">
 <ele>764.39</ele>
 <time>2009-08-06T07:05:47Z</time>
 </trkpt>
 <trkpt lat="47.287560" lon="12.824431">
 <ele>763.90</ele>
 <time>2009-08-06T07:05:49Z</time>
 </trkpt>
 <trkpt lat="47.287388" lon="12.824561">
 <ele>762.46</ele>
 <time>2009-08-06T07:05:53Z</time>
 </trkpt>
 <trkpt lat="47.287251" lon="12.824492">
 <ele>763.42</ele>
 <time>2009-08-06T07:05:56Z</time>
 </trkpt>
 <trkpt lat="47.287010" lon="12.824244">
 <ele>762.94</ele>
 <time>2009-08-06T07:06:02Z</time>
 </trkpt>
 <trkpt lat="47.286728" lon="12.823881">
 <ele>762.94</ele>
 <time>2009-08-06T07:06:09Z</time>
 </trkpt>
 <trkpt lat="47.286694" lon="12.823828">
 <ele>763.42</ele>
 <time>2009-08-06T07:06:10Z</time>
 </trkpt>
 <trkpt lat="47.286469" lon="12.823572">
 <ele>765.35</ele>
 <time>2009-08-06T07:06:16Z</time>
 </trkpt>
 <trkpt lat="47.286263" lon="12.823490">
 <ele>765.83</ele>
 <time>2009-08-06T07:06:21Z</time>
 </trkpt>
 <trkpt lat="47.285984" lon="12.823456">
 <ele>766.31</ele>
 <time>2009-08-06T07:06:27Z</time>
 </trkpt>
 <trkpt lat="47.285755" lon="12.823421">
 <ele>767.27</ele>
 <time>2009-08-06T07:06:32Z</time>
 </trkpt>
 <trkpt lat="47.285461" lon="12.823391">
 <ele>767.27</ele>
 <time>2009-08-06T07:06:38Z</time>
 </trkpt>
 <trkpt lat="47.285030" lon="12.823311">
 <ele>766.79</ele>
 <time>2009-08-06T07:06:46Z</time>
 </trkpt>
 <trkpt lat="47.284637" lon="12.823271">
 <ele>765.35</ele>
 <time>2009-08-06T07:06:53Z</time>
 </trkpt>
 <trkpt lat="47.284462" lon="12.823294">
 <ele>764.87</ele>
 <time>2009-08-06T07:06:56Z</time>
 </trkpt>
 <trkpt lat="47.284248" lon="12.823312">
 <ele>764.87</ele>
 <time>2009-08-06T07:07:00Z</time>
 </trkpt>
 <trkpt lat="47.283855" lon="12.823333">
 <ele>766.31</ele>
 <time>2009-08-06T07:07:08Z</time>
 </trkpt>
 <trkpt lat="47.283421" lon="12.823372">
 <ele>768.23</ele>
 <time>2009-08-06T07:07:17Z</time>
 </trkpt>
 <trkpt lat="47.282970" lon="12.823462">
 <ele>768.71</ele>
 <time>2009-08-06T07:07:26Z</time>
 </trkpt>
 <trkpt lat="47.282520" lon="12.823672">
 <ele>768.71</ele>
 <time>2009-08-06T07:07:35Z</time>
 </trkpt>
 <trkpt lat="47.282204" lon="12.823942">
 <ele>769.19</ele>
 <time>2009-08-06T07:07:42Z</time>
 </trkpt>
 <trkpt lat="47.281780" lon="12.824284">
 <ele>769.19</ele>
 <time>2009-08-06T07:07:51Z</time>
 </trkpt>
 <trkpt lat="47.281288" lon="12.824597">
 <ele>769.19</ele>
 <time>2009-08-06T07:08:01Z</time>
 </trkpt>
 <trkpt lat="47.281048" lon="12.824769">
 <ele>769.19</ele>
 <time>2009-08-06T07:08:07Z</time>
 </trkpt>
 <trkpt lat="47.280945" lon="12.824830">
 <ele>769.67</ele>
 <time>2009-08-06T07:08:12Z</time>
 </trkpt>
 <trkpt lat="47.280888" lon="12.824886">
 <ele>770.15</ele>
 <time>2009-08-06T07:08:15Z</time>
 </trkpt>
 <trkpt lat="47.280891" lon="12.825156">
 <ele>770.15</ele>
 <time>2009-08-06T07:08:20Z</time>
 </trkpt>
 <trkpt lat="47.280865" lon="12.825533">
 <ele>770.15</ele>
 <time>2009-08-06T07:08:25Z</time>
 </trkpt>
 <trkpt lat="47.280880" lon="12.826252">
 <ele>769.67</ele>
 <time>2009-08-06T07:08:34Z</time>
 </trkpt>
 <trkpt lat="47.280922" lon="12.826824">
 <ele>770.15</ele>
 <time>2009-08-06T07:08:41Z</time>
 </trkpt>
 <trkpt lat="47.280918" lon="12.827561">
 <ele>770.15</ele>
 <time>2009-08-06T07:08:50Z</time>
 </trkpt>
 <trkpt lat="47.280910" lon="12.828423">
 <ele>770.15</ele>
 <time>2009-08-06T07:09:01Z</time>
 </trkpt>
 <trkpt lat="47.280922" lon="12.829525">
 <ele>770.15</ele>
 <time>2009-08-06T07:09:14Z</time>
 </trkpt>
 <trkpt lat="47.280914" lon="12.830313">
 <ele>770.15</ele>
 <time>2009-08-06T07:09:23Z</time>
 </trkpt>
 <trkpt lat="47.280914" lon="12.830482">
 <ele>770.15</ele>
 <time>2009-08-06T07:09:25Z</time>
 </trkpt>
 <trkpt lat="47.281036" lon="12.830729">
 <ele>769.67</ele>
 <time>2009-08-06T07:09:29Z</time>
 </trkpt>
 <trkpt lat="47.281487" lon="12.831150">
 <ele>769.67</ele>
 <time>2009-08-06T07:09:38Z</time>
 </trkpt>
 <trkpt lat="47.281712" lon="12.831246">
 <ele>769.19</ele>
 <time>2009-08-06T07:09:42Z</time>
 </trkpt>
 <trkpt lat="47.282242" lon="12.831232">
 <ele>769.19</ele>
 <time>2009-08-06T07:09:51Z</time>
 </trkpt>
 <trkpt lat="47.282730" lon="12.831209">
 <ele>768.71</ele>
 <time>2009-08-06T07:10:00Z</time>
 </trkpt>
 <trkpt lat="47.282990" lon="12.831196">
 <ele>768.71</ele>
 <time>2009-08-06T07:10:05Z</time>
 </trkpt>
 <trkpt lat="47.283199" lon="12.831203">
 <ele>768.71</ele>
 <time>2009-08-06T07:10:09Z</time>
 </trkpt>
 <trkpt lat="47.283447" lon="12.831188">
 <ele>768.71</ele>
 <time>2009-08-06T07:10:14Z</time>
 </trkpt>
 <trkpt lat="47.283485" lon="12.831379">
 <ele>768.23</ele>
 <time>2009-08-06T07:10:18Z</time>
 </trkpt>
 <trkpt lat="47.283443" lon="12.831838">
 <ele>768.71</ele>
 <time>2009-08-06T07:10:24Z</time>
 </trkpt>
 <trkpt lat="47.283348" lon="12.832692">
 <ele>768.23</ele>
 <time>2009-08-06T07:10:34Z</time>
 </trkpt>
 <trkpt lat="47.283245" lon="12.833392">
 <ele>766.31</ele>
 <time>2009-08-06T07:10:42Z</time>
 </trkpt>
 <trkpt lat="47.283134" lon="12.833829">
 <ele>764.39</ele>
 <time>2009-08-06T07:10:46Z</time>
 </trkpt>
 <trkpt lat="47.282936" lon="12.834415">
 <ele>763.42</ele>
 <time>2009-08-06T07:10:52Z</time>
 </trkpt>
 <trkpt lat="47.282688" lon="12.835109">
 <ele>762.94</ele>
 <time>2009-08-06T07:11:00Z</time>
 </trkpt>
 <trkpt lat="47.282616" lon="12.835354">
 <ele>762.46</ele>
 <time>2009-08-06T07:11:03Z</time>
 </trkpt>
 <trkpt lat="47.282639" lon="12.835638">
 <ele>762.94</ele>
 <time>2009-08-06T07:11:07Z</time>
 </trkpt>
 <trkpt lat="47.282677" lon="12.835693">
 <ele>762.46</ele>
 <time>2009-08-06T07:11:08Z</time>
 </trkpt>
 <trkpt lat="47.282879" lon="12.836099">
 <ele>763.90</ele>
 <time>2009-08-06T07:11:15Z</time>
 </trkpt>
 <trkpt lat="47.283028" lon="12.836465">
 <ele>765.83</ele>
 <time>2009-08-06T07:11:22Z</time>
 </trkpt>
 <trkpt lat="47.283104" lon="12.836679">
 <ele>765.83</ele>
 <time>2009-08-06T07:11:26Z</time>
 </trkpt>
 <trkpt lat="47.283150" lon="12.836924">
 <ele>766.79</ele>
 <time>2009-08-06T07:11:30Z</time>
 </trkpt>
 <trkpt lat="47.283161" lon="12.837175">
 <ele>767.27</ele>
 <time>2009-08-06T07:11:34Z</time>
 </trkpt>
 <trkpt lat="47.283146" lon="12.837663">
 <ele>767.75</ele>
 <time>2009-08-06T07:11:41Z</time>
 </trkpt>
 <trkpt lat="47.283070" lon="12.838368">
 <ele>766.79</ele>
 <time>2009-08-06T07:11:50Z</time>
 </trkpt>
 <trkpt lat="47.283058" lon="12.838449">
 <ele>766.31</ele>
 <time>2009-08-06T07:11:51Z</time>
 </trkpt>
 <trkpt lat="47.282997" lon="12.838681">
 <ele>764.87</ele>
 <time>2009-08-06T07:11:54Z</time>
 </trkpt>
 <trkpt lat="47.282845" lon="12.838898">
 <ele>763.42</ele>
 <time>2009-08-06T07:11:57Z</time>
 </trkpt>
 <trkpt lat="47.282791" lon="12.838985">
 <ele>762.46</ele>
 <time>2009-08-06T07:11:58Z</time>
 </trkpt>
 <trkpt lat="47.282532" lon="12.839603">
 <ele>761.02</ele>
 <time>2009-08-06T07:12:05Z</time>
 </trkpt>
 <trkpt lat="47.282330" lon="12.840138">
 <ele>761.02</ele>
 <time>2009-08-06T07:12:12Z</time>
 </trkpt>
 <trkpt lat="47.282089" lon="12.840474">
 <ele>761.02</ele>
 <time>2009-08-06T07:12:18Z</time>
 </trkpt>
 <trkpt lat="47.281754" lon="12.840981">
 <ele>761.02</ele>
 <time>2009-08-06T07:12:26Z</time>
 </trkpt>
 <trkpt lat="47.281403" lon="12.841566">
 <ele>761.50</ele>
 <time>2009-08-06T07:12:35Z</time>
 </trkpt>
 <trkpt lat="47.281101" lon="12.842083">
 <ele>760.54</ele>
 <time>2009-08-06T07:12:43Z</time>
 </trkpt>
 <trkpt lat="47.280899" lon="12.842431">
 <ele>759.58</ele>
 <time>2009-08-06T07:12:49Z</time>
 </trkpt>
 <trkpt lat="47.280804" lon="12.842557">
 <ele>759.10</ele>
 <time>2009-08-06T07:12:53Z</time>
 </trkpt>
 <trkpt lat="47.280735" lon="12.842575">
 <ele>759.58</ele>
 <time>2009-08-06T07:12:56Z</time>
 </trkpt>
 <trkpt lat="47.280697" lon="12.842615">
 <ele>759.58</ele>
 <time>2009-08-06T07:13:02Z</time>
 </trkpt>
 <trkpt lat="47.280704" lon="12.842620">
 <ele>759.58</ele>
 <time>2009-08-06T07:13:05Z</time>
 </trkpt>
 <trkpt lat="47.280720" lon="12.842767">
 <ele>760.06</ele>
 <time>2009-08-06T07:13:10Z</time>
 </trkpt>
 <trkpt lat="47.280670" lon="12.843069">
 <ele>760.06</ele>
 <time>2009-08-06T07:13:16Z</time>
 </trkpt>
 <trkpt lat="47.280510" lon="12.843511">
 <ele>760.54</ele>
 <time>2009-08-06T07:13:24Z</time>
 </trkpt>
 <trkpt lat="47.280460" lon="12.843616">
 <ele>760.54</ele>
 <time>2009-08-06T07:13:26Z</time>
 </trkpt>
 <trkpt lat="47.280434" lon="12.843913">
 <ele>761.02</ele>
 <time>2009-08-06T07:13:31Z</time>
 </trkpt>
 <trkpt lat="47.280445" lon="12.844039">
 <ele>761.50</ele>
 <time>2009-08-06T07:13:33Z</time>
 </trkpt>
 <trkpt lat="47.280579" lon="12.844513">
 <ele>760.54</ele>
 <time>2009-08-06T07:13:40Z</time>
 </trkpt>
 <trkpt lat="47.280800" lon="12.845110">
 <ele>760.06</ele>
 <time>2009-08-06T07:13:48Z</time>
 </trkpt>
 <trkpt lat="47.281147" lon="12.845660">
 <ele>760.54</ele>
 <time>2009-08-06T07:13:57Z</time>
 </trkpt>
 <trkpt lat="47.281361" lon="12.846239">
 <ele>761.02</ele>
 <time>2009-08-06T07:14:05Z</time>
 </trkpt>
 <trkpt lat="47.281448" lon="12.846786">
 <ele>761.02</ele>
 <time>2009-08-06T07:14:12Z</time>
 </trkpt>
 <trkpt lat="47.281479" lon="12.847361">
 <ele>761.02</ele>
 <time>2009-08-06T07:14:19Z</time>
 </trkpt>
 <trkpt lat="47.281567" lon="12.847946">
 <ele>761.50</ele>
 <time>2009-08-06T07:14:26Z</time>
 </trkpt>
 <trkpt lat="47.281670" lon="12.848573">
 <ele>761.98</ele>
 <time>2009-08-06T07:14:34Z</time>
 </trkpt>
 <trkpt lat="47.281731" lon="12.848775">
 <ele>762.46</ele>
 <time>2009-08-06T07:14:37Z</time>
 </trkpt>
 <trkpt lat="47.281849" lon="12.849118">
 <ele>763.42</ele>
 <time>2009-08-06T07:14:44Z</time>
 </trkpt>
 <trkpt lat="47.281879" lon="12.849193">
 <ele>763.90</ele>
 <time>2009-08-06T07:14:46Z</time>
 </trkpt>
 <trkpt lat="47.281990" lon="12.849554">
 <ele>766.31</ele>
 <time>2009-08-06T07:14:54Z</time>
 </trkpt>
 <trkpt lat="47.281948" lon="12.849758">
 <ele>766.79</ele>
 <time>2009-08-06T07:14:59Z</time>
 </trkpt>
 <trkpt lat="47.281849" lon="12.850041">
 <ele>770.15</ele>
 <time>2009-08-06T07:15:07Z</time>
 </trkpt>
 <trkpt lat="47.281837" lon="12.850343">
 <ele>772.08</ele>
 <time>2009-08-06T07:15:15Z</time>
 </trkpt>
 <trkpt lat="47.281864" lon="12.850632">
 <ele>774.00</ele>
 <time>2009-08-06T07:15:23Z</time>
 </trkpt>
 <trkpt lat="47.281860" lon="12.850900">
 <ele>775.92</ele>
 <time>2009-08-06T07:15:31Z</time>
 </trkpt>
 <trkpt lat="47.281883" lon="12.851237">
 <ele>777.36</ele>
 <time>2009-08-06T07:15:41Z</time>
 </trkpt>
 <trkpt lat="47.281910" lon="12.851563">
 <ele>777.84</ele>
 <time>2009-08-06T07:15:49Z</time>
 </trkpt>
 <trkpt lat="47.281956" lon="12.851961">
 <ele>778.32</ele>
 <time>2009-08-06T07:15:58Z</time>
 </trkpt>
 <trkpt lat="47.282005" lon="12.852468">
 <ele>778.81</ele>
 <time>2009-08-06T07:16:08Z</time>
 </trkpt>
 <trkpt lat="47.282009" lon="12.852957">
 <ele>779.29</ele>
 <time>2009-08-06T07:16:16Z</time>
 </trkpt>
 <trkpt lat="47.282013" lon="12.853467">
 <ele>779.29</ele>
 <time>2009-08-06T07:16:24Z</time>
 </trkpt>
 <trkpt lat="47.282013" lon="12.853531">
 <ele>779.29</ele>
 <time>2009-08-06T07:16:25Z</time>
 </trkpt>
 <trkpt lat="47.282017" lon="12.854031">
 <ele>778.81</ele>
 <time>2009-08-06T07:16:32Z</time>
 </trkpt>
 <trkpt lat="47.282028" lon="12.854454">
 <ele>777.36</ele>
 <time>2009-08-06T07:16:37Z</time>
 </trkpt>
 <trkpt lat="47.282040" lon="12.855053">
 <ele>776.88</ele>
 <time>2009-08-06T07:16:44Z</time>
 </trkpt>
 <trkpt lat="47.282040" lon="12.855142">
 <ele>776.40</ele>
 <time>2009-08-06T07:16:45Z</time>
 </trkpt>
 <trkpt lat="47.281937" lon="12.855689">
 <ele>775.44</ele>
 <time>2009-08-06T07:16:51Z</time>
 </trkpt>
 <trkpt lat="47.281712" lon="12.856306">
 <ele>774.00</ele>
 <time>2009-08-06T07:16:58Z</time>
 </trkpt>
 <trkpt lat="47.281532" lon="12.856816">
 <ele>773.52</ele>
 <time>2009-08-06T07:17:03Z</time>
 </trkpt>
 <trkpt lat="47.281460" lon="12.857014">
 <ele>773.04</ele>
 <time>2009-08-06T07:17:05Z</time>
 </trkpt>
 <trkpt lat="47.281422" lon="12.857442">
 <ele>774.00</ele>
 <time>2009-08-06T07:17:10Z</time>
 </trkpt>
 <trkpt lat="47.281441" lon="12.858026">
 <ele>774.48</ele>
 <time>2009-08-06T07:17:17Z</time>
 </trkpt>
 <trkpt lat="47.281521" lon="12.858750">
 <ele>774.96</ele>
 <time>2009-08-06T07:17:26Z</time>
 </trkpt>
 <trkpt lat="47.281506" lon="12.858992">
 <ele>776.40</ele>
 <time>2009-08-06T07:17:30Z</time>
 </trkpt>
 <trkpt lat="47.281418" lon="12.859340">
 <ele>778.81</ele>
 <time>2009-08-06T07:17:37Z</time>
 </trkpt>
 <trkpt lat="47.281372" lon="12.859700">
 <ele>779.77</ele>
 <time>2009-08-06T07:17:44Z</time>
 </trkpt>
 <trkpt lat="47.281288" lon="12.859982">
 <ele>781.21</ele>
 <time>2009-08-06T07:17:50Z</time>
 </trkpt>
 <trkpt lat="47.281162" lon="12.860345">
 <ele>782.17</ele>
 <time>2009-08-06T07:17:58Z</time>
 </trkpt>
 <trkpt lat="47.281055" lon="12.860730">
 <ele>783.13</ele>
 <time>2009-08-06T07:18:05Z</time>
 </trkpt>
 <trkpt lat="47.281029" lon="12.861125">
 <ele>783.61</ele>
 <time>2009-08-06T07:18:12Z</time>
 </trkpt>
 <trkpt lat="47.281078" lon="12.861401">
 <ele>781.69</ele>
 <time>2009-08-06T07:18:16Z</time>
 </trkpt>
 <trkpt lat="47.281158" lon="12.861659">
 <ele>781.21</ele>
 <time>2009-08-06T07:18:19Z</time>
 </trkpt>
 <trkpt lat="47.281349" lon="12.861918">
 <ele>779.29</ele>
 <time>2009-08-06T07:18:23Z</time>
 </trkpt>
 <trkpt lat="47.281414" lon="12.861959">
 <ele>778.32</ele>
 <time>2009-08-06T07:18:24Z</time>
 </trkpt>
 <trkpt lat="47.281609" lon="12.862054">
 <ele>775.44</ele>
 <time>2009-08-06T07:18:27Z</time>
 </trkpt>
 <trkpt lat="47.281734" lon="12.862100">
 <ele>774.00</ele>
 <time>2009-08-06T07:18:29Z</time>
 </trkpt>
 <trkpt lat="47.281975" lon="12.862265">
 <ele>771.60</ele>
 <time>2009-08-06T07:18:33Z</time>
 </trkpt>
 <trkpt lat="47.282265" lon="12.862421">
 <ele>767.75</ele>
 <time>2009-08-06T07:18:38Z</time>
 </trkpt>
 <trkpt lat="47.282551" lon="12.862495">
 <ele>764.39</ele>
 <time>2009-08-06T07:18:43Z</time>
 </trkpt>
 <trkpt lat="47.282585" lon="12.862502">
 <ele>763.90</ele>
 <time>2009-08-06T07:18:44Z</time>
 </trkpt>
 <trkpt lat="47.282623" lon="12.862634">
 <ele>763.90</ele>
 <time>2009-08-06T07:18:48Z</time>
 </trkpt>
 <trkpt lat="47.282612" lon="12.862681">
 <ele>763.90</ele>
 <time>2009-08-06T07:18:49Z</time>
 </trkpt>
 <trkpt lat="47.282536" lon="12.862929">
 <ele>764.39</ele>
 <time>2009-08-06T07:18:54Z</time>
 </trkpt>
 <trkpt lat="47.282375" lon="12.863374">
 <ele>763.90</ele>
 <time>2009-08-06T07:19:01Z</time>
 </trkpt>
 <trkpt lat="47.282246" lon="12.863729">
 <ele>762.94</ele>
 <time>2009-08-06T07:19:06Z</time>
 </trkpt>
 <trkpt lat="47.281960" lon="12.864154">
 <ele>763.90</ele>
 <time>2009-08-06T07:19:14Z</time>
 </trkpt>
 <trkpt lat="47.281620" lon="12.864631">
 <ele>764.87</ele>
 <time>2009-08-06T07:19:24Z</time>
 </trkpt>
 <trkpt lat="47.281525" lon="12.864860">
 <ele>766.31</ele>
 <time>2009-08-06T07:19:29Z</time>
 </trkpt>
 <trkpt lat="47.281509" lon="12.865143">
 <ele>767.27</ele>
 <time>2009-08-06T07:19:35Z</time>
 </trkpt>
 <trkpt lat="47.281551" lon="12.865648">
 <ele>770.63</ele>
 <time>2009-08-06T07:19:46Z</time>
 </trkpt>
 <trkpt lat="47.281559" lon="12.865863">
 <ele>771.60</ele>
 <time>2009-08-06T07:19:51Z</time>
 </trkpt>
 <trkpt lat="47.281590" lon="12.866274">
 <ele>773.04</ele>
 <time>2009-08-06T07:20:01Z</time>
 </trkpt>
 <trkpt lat="47.281631" lon="12.866728">
 <ele>774.00</ele>
 <time>2009-08-06T07:20:12Z</time>
 </trkpt>
 <trkpt lat="47.281693" lon="12.867015">
 <ele>776.40</ele>
 <time>2009-08-06T07:20:20Z</time>
 </trkpt>
 <trkpt lat="47.281780" lon="12.867382">
 <ele>778.32</ele>
 <time>2009-08-06T07:20:31Z</time>
 </trkpt>
 <trkpt lat="47.281837" lon="12.867703">
 <ele>779.77</ele>
 <time>2009-08-06T07:20:40Z</time>
 </trkpt>
 <trkpt lat="47.281879" lon="12.867928">
 <ele>781.69</ele>
 <time>2009-08-06T07:20:46Z</time>
 </trkpt>
 <trkpt lat="47.281925" lon="12.868343">
 <ele>783.13</ele>
 <time>2009-08-06T07:20:57Z</time>
 </trkpt>
 <trkpt lat="47.281975" lon="12.868689">
 <ele>784.57</ele>
 <time>2009-08-06T07:21:06Z</time>
 </trkpt>
 <trkpt lat="47.282032" lon="12.869036">
 <ele>784.57</ele>
 <time>2009-08-06T07:21:14Z</time>
 </trkpt>
 <trkpt lat="47.282089" lon="12.869257">
 <ele>783.61</ele>
 <time>2009-08-06T07:21:18Z</time>
 </trkpt>
 <trkpt lat="47.282097" lon="12.869639">
 <ele>784.09</ele>
 <time>2009-08-06T07:21:24Z</time>
 </trkpt>
 <trkpt lat="47.282078" lon="12.869761">
 <ele>784.09</ele>
 <time>2009-08-06T07:21:26Z</time>
 </trkpt>
 <trkpt lat="47.282120" lon="12.870141">
 <ele>783.13</ele>
 <time>2009-08-06T07:21:31Z</time>
 </trkpt>
 <trkpt lat="47.282227" lon="12.870673">
 <ele>781.69</ele>
 <time>2009-08-06T07:21:36Z</time>
 </trkpt>
 <trkpt lat="47.282337" lon="12.871321">
 <ele>778.32</ele>
 <time>2009-08-06T07:21:41Z</time>
 </trkpt>
 <trkpt lat="47.282333" lon="12.871901">
 <ele>775.92</ele>
 <time>2009-08-06T07:21:45Z</time>
 </trkpt>
 <trkpt lat="47.282425" lon="12.872601">
 <ele>774.96</ele>
 <time>2009-08-06T07:21:50Z</time>
 </trkpt>
 <trkpt lat="47.282558" lon="12.873157">
 <ele>774.96</ele>
 <time>2009-08-06T07:21:55Z</time>
 </trkpt>
 <trkpt lat="47.282772" lon="12.873776">
 <ele>774.00</ele>
 <time>2009-08-06T07:22:01Z</time>
 </trkpt>
 <trkpt lat="47.282806" lon="12.873882">
 <ele>774.48</ele>
 <time>2009-08-06T07:22:02Z</time>
 </trkpt>
 <trkpt lat="47.282871" lon="12.874341">
 <ele>773.52</ele>
 <time>2009-08-06T07:22:06Z</time>
 </trkpt>
 <trkpt lat="47.282974" lon="12.874652">
 <ele>773.04</ele>
 <time>2009-08-06T07:22:09Z</time>
 </trkpt>
 <trkpt lat="47.283112" lon="12.874763">
 <ele>772.08</ele>
 <time>2009-08-06T07:22:11Z</time>
 </trkpt>
 <trkpt lat="47.283268" lon="12.874843">
 <ele>771.11</ele>
 <time>2009-08-06T07:22:13Z</time>
 </trkpt>
 <trkpt lat="47.283504" lon="12.875062">
 <ele>769.19</ele>
 <time>2009-08-06T07:22:17Z</time>
 </trkpt>
 <trkpt lat="47.283642" lon="12.875264">
 <ele>767.27</ele>
 <time>2009-08-06T07:22:20Z</time>
 </trkpt>
 <trkpt lat="47.283886" lon="12.875530">
 <ele>764.39</ele>
 <time>2009-08-06T07:22:24Z</time>
 </trkpt>
 <trkpt lat="47.284115" lon="12.875673">
 <ele>760.54</ele>
 <time>2009-08-06T07:22:27Z</time>
 </trkpt>
 <trkpt lat="47.284191" lon="12.875731">
 <ele>760.06</ele>
 <time>2009-08-06T07:22:28Z</time>
 </trkpt>
 <trkpt lat="47.284393" lon="12.875980">
 <ele>758.14</ele>
 <time>2009-08-06T07:22:31Z</time>
 </trkpt>
 <trkpt lat="47.284443" lon="12.876086">
 <ele>757.66</ele>
 <time>2009-08-06T07:22:32Z</time>
 </trkpt>
 <trkpt lat="47.284664" lon="12.876756">
 <ele>756.69</ele>
 <time>2009-08-06T07:22:38Z</time>
 </trkpt>
 <trkpt lat="47.284889" lon="12.877604">
 <ele>756.69</ele>
 <time>2009-08-06T07:22:46Z</time>
 </trkpt>
 <trkpt lat="47.284939" lon="12.877810">
 <ele>756.21</ele>
 <time>2009-08-06T07:22:48Z</time>
 </trkpt>
 <trkpt lat="47.284973" lon="12.878423">
 <ele>756.69</ele>
 <time>2009-08-06T07:22:54Z</time>
 </trkpt>
 <trkpt lat="47.285049" lon="12.878996">
 <ele>756.69</ele>
 <time>2009-08-06T07:23:00Z</time>
 </trkpt>
 <trkpt lat="47.285240" lon="12.879607">
 <ele>756.69</ele>
 <time>2009-08-06T07:23:07Z</time>
 </trkpt>
 <trkpt lat="47.285629" lon="12.880737">
 <ele>755.73</ele>
 <time>2009-08-06T07:23:20Z</time>
 </trkpt>
 <trkpt lat="47.285824" lon="12.881441">
 <ele>754.77</ele>
 <time>2009-08-06T07:23:28Z</time>
 </trkpt>
 <trkpt lat="47.285954" lon="12.882273">
 <ele>755.73</ele>
 <time>2009-08-06T07:23:37Z</time>
 </trkpt>
 <trkpt lat="47.286129" lon="12.882957">
 <ele>755.25</ele>
 <time>2009-08-06T07:23:45Z</time>
 </trkpt>
 <trkpt lat="47.286388" lon="12.883336">
 <ele>755.25</ele>
 <time>2009-08-06T07:23:51Z</time>
 </trkpt>
 <trkpt lat="47.286659" lon="12.883575">
 <ele>755.73</ele>
 <time>2009-08-06T07:23:56Z</time>
 </trkpt>
 <trkpt lat="47.286877" lon="12.883891">
 <ele>755.25</ele>
 <time>2009-08-06T07:24:01Z</time>
 </trkpt>
 <trkpt lat="47.287216" lon="12.884652">
 <ele>755.73</ele>
 <time>2009-08-06T07:24:11Z</time>
 </trkpt>
 <trkpt lat="47.287430" lon="12.885300">
 <ele>755.25</ele>
 <time>2009-08-06T07:24:19Z</time>
 </trkpt>
 <trkpt lat="47.287533" lon="12.886003">
 <ele>755.25</ele>
 <time>2009-08-06T07:24:27Z</time>
 </trkpt>
 <trkpt lat="47.287609" lon="12.886915">
 <ele>755.73</ele>
 <time>2009-08-06T07:24:37Z</time>
 </trkpt>
 <trkpt lat="47.287609" lon="12.887007">
 <ele>755.25</ele>
 <time>2009-08-06T07:24:38Z</time>
 </trkpt>
 <trkpt lat="47.287525" lon="12.887437">
 <ele>755.25</ele>
 <time>2009-08-06T07:24:43Z</time>
 </trkpt>
 <trkpt lat="47.287518" lon="12.887695">
 <ele>755.25</ele>
 <time>2009-08-06T07:24:46Z</time>
 </trkpt>
 <trkpt lat="47.287521" lon="12.888461">
 <ele>755.73</ele>
 <time>2009-08-06T07:24:55Z</time>
 </trkpt>
 <trkpt lat="47.287502" lon="12.889156">
 <ele>755.25</ele>
 <time>2009-08-06T07:25:03Z</time>
 </trkpt>
 <trkpt lat="47.287502" lon="12.889343">
 <ele>755.25</ele>
 <time>2009-08-06T07:25:05Z</time>
 </trkpt>
 <trkpt lat="47.287491" lon="12.889529">
 <ele>755.25</ele>
 <time>2009-08-06T07:25:07Z</time>
 </trkpt>
 <trkpt lat="47.287464" lon="12.889876">
 <ele>754.77</ele>
 <time>2009-08-06T07:25:11Z</time>
 </trkpt>
 <trkpt lat="47.287449" lon="12.890477">
 <ele>755.25</ele>
 <time>2009-08-06T07:25:19Z</time>
 </trkpt>
 <trkpt lat="47.287476" lon="12.890570">
 <ele>755.25</ele>
 <time>2009-08-06T07:25:23Z</time>
 </trkpt>
 <trkpt lat="47.287502" lon="12.890752">
 <ele>755.25</ele>
 <time>2009-08-06T07:25:28Z</time>
 </trkpt>
 <trkpt lat="47.287563" lon="12.891042">
 <ele>755.73</ele>
 <time>2009-08-06T07:25:33Z</time>
 </trkpt>
 <trkpt lat="47.287651" lon="12.891384">
 <ele>755.73</ele>
 <time>2009-08-06T07:25:39Z</time>
 </trkpt>
 <trkpt lat="47.287689" lon="12.891816">
 <ele>758.14</ele>
 <time>2009-08-06T07:25:47Z</time>
 </trkpt>
 <trkpt lat="47.287689" lon="12.892216">
 <ele>760.54</ele>
 <time>2009-08-06T07:25:55Z</time>
 </trkpt>
 <trkpt lat="47.287685" lon="12.892505">
 <ele>761.50</ele>
 <time>2009-08-06T07:26:01Z</time>
 </trkpt>
 <trkpt lat="47.287632" lon="12.892827">
 <ele>762.94</ele>
 <time>2009-08-06T07:26:09Z</time>
 </trkpt>
 <trkpt lat="47.287693" lon="12.892927">
 <ele>761.98</ele>
 <time>2009-08-06T07:26:12Z</time>
 </trkpt>
 <trkpt lat="47.287895" lon="12.893051">
 <ele>759.58</ele>
 <time>2009-08-06T07:26:18Z</time>
 </trkpt>
 <trkpt lat="47.288193" lon="12.893214">
 <ele>755.73</ele>
 <time>2009-08-06T07:26:25Z</time>
 </trkpt>
 <trkpt lat="47.288223" lon="12.893245">
 <ele>755.73</ele>
 <time>2009-08-06T07:26:26Z</time>
 </trkpt>
 <trkpt lat="47.288334" lon="12.893444">
 <ele>754.29</ele>
 <time>2009-08-06T07:26:30Z</time>
 </trkpt>
 <trkpt lat="47.288380" lon="12.893578">
 <ele>753.81</ele>
 <time>2009-08-06T07:26:32Z</time>
 </trkpt>
 <trkpt lat="47.288429" lon="12.893947">
 <ele>752.37</ele>
 <time>2009-08-06T07:26:37Z</time>
 </trkpt>
 <trkpt lat="47.288486" lon="12.894543">
 <ele>751.89</ele>
 <time>2009-08-06T07:26:45Z</time>
 </trkpt>
 <trkpt lat="47.288513" lon="12.895229">
 <ele>750.93</ele>
 <time>2009-08-06T07:26:53Z</time>
 </trkpt>
 <trkpt lat="47.288452" lon="12.895729">
 <ele>750.45</ele>
 <time>2009-08-06T07:26:59Z</time>
 </trkpt>
 <trkpt lat="47.288345" lon="12.896348">
 <ele>750.45</ele>
 <time>2009-08-06T07:27:07Z</time>
 </trkpt>
 <trkpt lat="47.288254" lon="12.896812">
 <ele>749.97</ele>
 <time>2009-08-06T07:27:13Z</time>
 </trkpt>
 <trkpt lat="47.288090" lon="12.897403">
 <ele>749.49</ele>
 <time>2009-08-06T07:27:21Z</time>
 </trkpt>
 <trkpt lat="47.287987" lon="12.897810">
 <ele>749.97</ele>
 <time>2009-08-06T07:27:27Z</time>
 </trkpt>
 <trkpt lat="47.287834" lon="12.898498">
 <ele>749.49</ele>
 <time>2009-08-06T07:27:36Z</time>
 </trkpt>
 <trkpt lat="47.287708" lon="12.899220">
 <ele>749.49</ele>
 <time>2009-08-06T07:27:45Z</time>
 </trkpt>
 <trkpt lat="47.287632" lon="12.899920">
 <ele>749.00</ele>
 <time>2009-08-06T07:27:54Z</time>
 </trkpt>
 <trkpt lat="47.287624" lon="12.900017">
 <ele>748.04</ele>
 <time>2009-08-06T07:27:57Z</time>
 </trkpt>
 <trkpt lat="47.287609" lon="12.900159">
 <ele>748.04</ele>
 <time>2009-08-06T07:28:02Z</time>
 </trkpt>
 <trkpt lat="47.287594" lon="12.900427">
 <ele>749.00</ele>
 <time>2009-08-06T07:28:07Z</time>
 </trkpt>
 <trkpt lat="47.287582" lon="12.900870">
 <ele>748.52</ele>
 <time>2009-08-06T07:28:14Z</time>
 </trkpt>
 <trkpt lat="47.287575" lon="12.901031">
 <ele>748.52</ele>
 <time>2009-08-06T07:28:19Z</time>
 </trkpt>
 <trkpt lat="47.287563" lon="12.901163">
 <ele>749.00</ele>
 <time>2009-08-06T07:28:24Z</time>
 </trkpt>
 <trkpt lat="47.287476" lon="12.901362">
 <ele>749.97</ele>
 <time>2009-08-06T07:28:29Z</time>
 </trkpt>
 <trkpt lat="47.287449" lon="12.901523">
 <ele>749.97</ele>
 <time>2009-08-06T07:28:33Z</time>
 </trkpt>
 <trkpt lat="47.287598" lon="12.901820">
 <ele>749.00</ele>
 <time>2009-08-06T07:28:38Z</time>
 </trkpt>
 <trkpt lat="47.287689" lon="12.902109">
 <ele>749.49</ele>
 <time>2009-08-06T07:28:42Z</time>
 </trkpt>
 <trkpt lat="47.287769" lon="12.902795">
 <ele>748.04</ele>
 <time>2009-08-06T07:28:51Z</time>
 </trkpt>
 <trkpt lat="47.287811" lon="12.903574">
 <ele>749.00</ele>
 <time>2009-08-06T07:29:01Z</time>
 </trkpt>
 <trkpt lat="47.287811" lon="12.903652">
 <ele>748.52</ele>
 <time>2009-08-06T07:29:02Z</time>
 </trkpt>
 <trkpt lat="47.287876" lon="12.904099">
 <ele>748.04</ele>
 <time>2009-08-06T07:29:08Z</time>
 </trkpt>
 <trkpt lat="47.287964" lon="12.904859">
 <ele>748.52</ele>
 <time>2009-08-06T07:29:18Z</time>
 </trkpt>
 <trkpt lat="47.288021" lon="12.905551">
 <ele>748.52</ele>
 <time>2009-08-06T07:29:27Z</time>
 </trkpt>
 <trkpt lat="47.288097" lon="12.906312">
 <ele>748.04</ele>
 <time>2009-08-06T07:29:37Z</time>
 </trkpt>
 <trkpt lat="47.288139" lon="12.906786">
 <ele>748.52</ele>
 <time>2009-08-06T07:29:44Z</time>
 </trkpt>
 <trkpt lat="47.288151" lon="12.906960">
 <ele>748.04</ele>
 <time>2009-08-06T07:29:48Z</time>
 </trkpt>
 <trkpt lat="47.288170" lon="12.907260">
 <ele>748.52</ele>
 <time>2009-08-06T07:29:53Z</time>
 </trkpt>
 <trkpt lat="47.288212" lon="12.907773">
 <ele>749.00</ele>
 <time>2009-08-06T07:30:00Z</time>
 </trkpt>
 <trkpt lat="47.288181" lon="12.908320">
 <ele>748.04</ele>
 <time>2009-08-06T07:30:07Z</time>
 </trkpt>
 <trkpt lat="47.288086" lon="12.909035">
 <ele>748.52</ele>
 <time>2009-08-06T07:30:16Z</time>
 </trkpt>
 <trkpt lat="47.287975" lon="12.909737">
 <ele>749.49</ele>
 <time>2009-08-06T07:30:26Z</time>
 </trkpt>
 <trkpt lat="47.287930" lon="12.910002">
 <ele>749.00</ele>
 <time>2009-08-06T07:30:31Z</time>
 </trkpt>
 <trkpt lat="47.287876" lon="12.910378">
 <ele>749.49</ele>
 <time>2009-08-06T07:30:37Z</time>
 </trkpt>
 <trkpt lat="47.287781" lon="12.910984">
 <ele>749.49</ele>
 <time>2009-08-06T07:30:45Z</time>
 </trkpt>
 <trkpt lat="47.287643" lon="12.911880">
 <ele>749.97</ele>
 <time>2009-08-06T07:30:56Z</time>
 </trkpt>
 <trkpt lat="47.287617" lon="12.912602">
 <ele>749.97</ele>
 <time>2009-08-06T07:31:05Z</time>
 </trkpt>
 <trkpt lat="47.287674" lon="12.913182">
 <ele>749.00</ele>
 <time>2009-08-06T07:31:12Z</time>
 </trkpt>
 <trkpt lat="47.287704" lon="12.913759">
 <ele>749.49</ele>
 <time>2009-08-06T07:31:19Z</time>
 </trkpt>
 <trkpt lat="47.287720" lon="12.914341">
 <ele>749.00</ele>
 <time>2009-08-06T07:31:26Z</time>
 </trkpt>
 <trkpt lat="47.287704" lon="12.915001">
 <ele>749.97</ele>
 <time>2009-08-06T07:31:34Z</time>
 </trkpt>
 <trkpt lat="47.287697" lon="12.915082">
 <ele>749.49</ele>
 <time>2009-08-06T07:31:35Z</time>
 </trkpt>
 <trkpt lat="47.287529" lon="12.915727">
 <ele>750.45</ele>
 <time>2009-08-06T07:31:43Z</time>
 </trkpt>
 <trkpt lat="47.287453" lon="12.916049">
 <ele>752.37</ele>
 <time>2009-08-06T07:31:48Z</time>
 </trkpt>
 <trkpt lat="47.287334" lon="12.916444">
 <ele>752.85</ele>
 <time>2009-08-06T07:31:54Z</time>
 </trkpt>
 <trkpt lat="47.287270" lon="12.916879">
 <ele>750.45</ele>
 <time>2009-08-06T07:31:59Z</time>
 </trkpt>
 <trkpt lat="47.287201" lon="12.917649">
 <ele>749.97</ele>
 <time>2009-08-06T07:32:07Z</time>
 </trkpt>
 <trkpt lat="47.287193" lon="12.918422">
 <ele>749.97</ele>
 <time>2009-08-06T07:32:16Z</time>
 </trkpt>
 <trkpt lat="47.287216" lon="12.918836">
 <ele>749.97</ele>
 <time>2009-08-06T07:32:21Z</time>
 </trkpt>
 <trkpt lat="47.287182" lon="12.919404">
 <ele>749.49</ele>
 <time>2009-08-06T07:32:28Z</time>
 </trkpt>
 <trkpt lat="47.287136" lon="12.919873">
 <ele>749.97</ele>
 <time>2009-08-06T07:32:34Z</time>
 </trkpt>
 <trkpt lat="47.287113" lon="12.920172">
 <ele>749.49</ele>
 <time>2009-08-06T07:32:38Z</time>
 </trkpt>
 <trkpt lat="47.287083" lon="12.920582">
 <ele>749.97</ele>
 <time>2009-08-06T07:32:43Z</time>
 </trkpt>
 <trkpt lat="47.287121" lon="12.920896">
 <ele>749.00</ele>
 <time>2009-08-06T07:32:48Z</time>
 </trkpt>
 <trkpt lat="47.287189" lon="12.921088">
 <ele>747.56</ele>
 <time>2009-08-06T07:32:51Z</time>
 </trkpt>
 <trkpt lat="47.287254" lon="12.921396">
 <ele>745.64</ele>
 <time>2009-08-06T07:32:55Z</time>
 </trkpt>
 <trkpt lat="47.287251" lon="12.921564">
 <ele>745.16</ele>
 <time>2009-08-06T07:32:57Z</time>
 </trkpt>
 <trkpt lat="47.287155" lon="12.922099">
 <ele>745.64</ele>
 <time>2009-08-06T07:33:04Z</time>
 </trkpt>
 <trkpt lat="47.287121" lon="12.922225">
 <ele>745.64</ele>
 <time>2009-08-06T07:33:06Z</time>
 </trkpt>
 <trkpt lat="47.287083" lon="12.922509">
 <ele>745.64</ele>
 <time>2009-08-06T07:33:11Z</time>
 </trkpt>
 <trkpt lat="47.287075" lon="12.922620">
 <ele>745.64</ele>
 <time>2009-08-06T07:33:13Z</time>
 </trkpt>
 <trkpt lat="47.287052" lon="12.922935">
 <ele>747.56</ele>
 <time>2009-08-06T07:33:20Z</time>
 </trkpt>
 <trkpt lat="47.287010" lon="12.923124">
 <ele>748.52</ele>
 <time>2009-08-06T07:33:26Z</time>
 </trkpt>
 <trkpt lat="47.286930" lon="12.923320">
 <ele>750.45</ele>
 <time>2009-08-06T07:33:34Z</time>
 </trkpt>
 <trkpt lat="47.286884" lon="12.923473">
 <ele>752.37</ele>
 <time>2009-08-06T07:33:42Z</time>
 </trkpt>
 <trkpt lat="47.286835" lon="12.923628">
 <ele>753.33</ele>
 <time>2009-08-06T07:33:49Z</time>
 </trkpt>
 <trkpt lat="47.286812" lon="12.923798">
 <ele>755.73</ele>
 <time>2009-08-06T07:33:56Z</time>
 </trkpt>
 <trkpt lat="47.286781" lon="12.923973">
 <ele>757.18</ele>
 <time>2009-08-06T07:34:03Z</time>
 </trkpt>
 <trkpt lat="47.286793" lon="12.924186">
 <ele>758.62</ele>
 <time>2009-08-06T07:34:12Z</time>
 </trkpt>
 <trkpt lat="47.286839" lon="12.924360">
 <ele>760.54</ele>
 <time>2009-08-06T07:34:20Z</time>
 </trkpt>
 <trkpt lat="47.286835" lon="12.924506">
 <ele>761.98</ele>
 <time>2009-08-06T07:34:27Z</time>
 </trkpt>
 <trkpt lat="47.286827" lon="12.924696">
 <ele>763.42</ele>
 <time>2009-08-06T07:34:36Z</time>
 </trkpt>
 <trkpt lat="47.286850" lon="12.924928">
 <ele>764.39</ele>
 <time>2009-08-06T07:34:47Z</time>
 </trkpt>
 <trkpt lat="47.286854" lon="12.925061">
 <ele>765.83</ele>
 <time>2009-08-06T07:34:53Z</time>
 </trkpt>
 <trkpt lat="47.286873" lon="12.925192">
 <ele>767.27</ele>
 <time>2009-08-06T07:34:59Z</time>
 </trkpt>
 <trkpt lat="47.287010" lon="12.925396">
 <ele>767.27</ele>
 <time>2009-08-06T07:35:09Z</time>
 </trkpt>
 <trkpt lat="47.287098" lon="12.925603">
 <ele>767.75</ele>
 <time>2009-08-06T07:35:16Z</time>
 </trkpt>
 <trkpt lat="47.287109" lon="12.925797">
 <ele>767.75</ele>
 <time>2009-08-06T07:35:23Z</time>
 </trkpt>
 <trkpt lat="47.287052" lon="12.925881">
 <ele>768.23</ele>
 <time>2009-08-06T07:35:28Z</time>
 </trkpt>
 <trkpt lat="47.286896" lon="12.925899">
 <ele>769.19</ele>
 <time>2009-08-06T07:35:36Z</time>
 </trkpt>
 <trkpt lat="47.286793" lon="12.925943">
 <ele>769.67</ele>
 <time>2009-08-06T07:35:41Z</time>
 </trkpt>
 <trkpt lat="47.286770" lon="12.926050">
 <ele>770.15</ele>
 <time>2009-08-06T07:35:45Z</time>
 </trkpt>
 <trkpt lat="47.286732" lon="12.926336">
 <ele>772.08</ele>
 <time>2009-08-06T07:35:55Z</time>
 </trkpt>
 <trkpt lat="47.286709" lon="12.926634">
 <ele>773.52</ele>
 <time>2009-08-06T07:36:05Z</time>
 </trkpt>
 <trkpt lat="47.286690" lon="12.926905">
 <ele>774.00</ele>
 <time>2009-08-06T07:36:13Z</time>
 </trkpt>
 <trkpt lat="47.286648" lon="12.927326">
 <ele>774.48</ele>
 <time>2009-08-06T07:36:24Z</time>
 </trkpt>
 <trkpt lat="47.286617" lon="12.927750">
 <ele>775.92</ele>
 <time>2009-08-06T07:36:35Z</time>
 </trkpt>
 <trkpt lat="47.286602" lon="12.928109">
 <ele>777.84</ele>
 <time>2009-08-06T07:36:45Z</time>
 </trkpt>
 <trkpt lat="47.286579" lon="12.928541">
 <ele>778.32</ele>
 <time>2009-08-06T07:36:56Z</time>
 </trkpt>
 <trkpt lat="47.286564" lon="12.928944">
 <ele>779.29</ele>
 <time>2009-08-06T07:37:07Z</time>
 </trkpt>
 <trkpt lat="47.286568" lon="12.929237">
 <ele>779.29</ele>
 <time>2009-08-06T07:37:16Z</time>
 </trkpt>
 <trkpt lat="47.286564" lon="12.929340">
 <ele>778.32</ele>
 <time>2009-08-06T07:37:20Z</time>
 </trkpt>
 <trkpt lat="47.286518" lon="12.929390">
 <ele>776.88</ele>
 <time>2009-08-06T07:37:22Z</time>
 </trkpt>
 <trkpt lat="47.286381" lon="12.929463">
 <ele>776.40</ele>
 <time>2009-08-06T07:37:26Z</time>
 </trkpt>
 <trkpt lat="47.286163" lon="12.929562">
 <ele>773.52</ele>
 <time>2009-08-06T07:37:33Z</time>
 </trkpt>
 <trkpt lat="47.286049" lon="12.929652">
 <ele>772.56</ele>
 <time>2009-08-06T07:37:37Z</time>
 </trkpt>
 <trkpt lat="47.285870" lon="12.929954">
 <ele>771.11</ele>
 <time>2009-08-06T07:37:43Z</time>
 </trkpt>
 <trkpt lat="47.285858" lon="12.930066">
 <ele>771.11</ele>
 <time>2009-08-06T07:37:45Z</time>
 </trkpt>
 <trkpt lat="47.285973" lon="12.930154">
 <ele>770.15</ele>
 <time>2009-08-06T07:37:50Z</time>
 </trkpt>
 <trkpt lat="47.286255" lon="12.930077">
 <ele>766.79</ele>
 <time>2009-08-06T07:37:56Z</time>
 </trkpt>
 <trkpt lat="47.286518" lon="12.930084">
 <ele>765.35</ele>
 <time>2009-08-06T07:38:00Z</time>
 </trkpt>
 <trkpt lat="47.286671" lon="12.930135">
 <ele>764.87</ele>
 <time>2009-08-06T07:38:03Z</time>
 </trkpt>
 <trkpt lat="47.286827" lon="12.930240">
 <ele>763.90</ele>
 <time>2009-08-06T07:38:06Z</time>
 </trkpt>
 <trkpt lat="47.287155" lon="12.930497">
 <ele>760.54</ele>
 <time>2009-08-06T07:38:11Z</time>
 </trkpt>
 <trkpt lat="47.287216" lon="12.930546">
 <ele>760.54</ele>
 <time>2009-08-06T07:38:12Z</time>
 </trkpt>
 <trkpt lat="47.287483" lon="12.930736">
 <ele>757.18</ele>
 <time>2009-08-06T07:38:16Z</time>
 </trkpt>
 <trkpt lat="47.287624" lon="12.931032">
 <ele>754.29</ele>
 <time>2009-08-06T07:38:20Z</time>
 </trkpt>
 <trkpt lat="47.287746" lon="12.931302">
 <ele>751.89</ele>
 <time>2009-08-06T07:38:23Z</time>
 </trkpt>
 <trkpt lat="47.287907" lon="12.931571">
 <ele>749.00</ele>
 <time>2009-08-06T07:38:27Z</time>
 </trkpt>
 <trkpt lat="47.287949" lon="12.931635">
 <ele>748.52</ele>
 <time>2009-08-06T07:38:28Z</time>
 </trkpt>
 <trkpt lat="47.288025" lon="12.931821">
 <ele>747.08</ele>
 <time>2009-08-06T07:38:31Z</time>
 </trkpt>
 <trkpt lat="47.288036" lon="12.931959">
 <ele>746.12</ele>
 <time>2009-08-06T07:38:33Z</time>
 </trkpt>
 <trkpt lat="47.288033" lon="12.932040">
 <ele>745.64</ele>
 <time>2009-08-06T07:38:34Z</time>
 </trkpt>
 <trkpt lat="47.287998" lon="12.932318">
 <ele>744.20</ele>
 <time>2009-08-06T07:38:37Z</time>
 </trkpt>
 <trkpt lat="47.287891" lon="12.932962">
 <ele>742.76</ele>
 <time>2009-08-06T07:38:43Z</time>
 </trkpt>
 <trkpt lat="47.287849" lon="12.933162">
 <ele>741.79</ele>
 <time>2009-08-06T07:38:45Z</time>
 </trkpt>
 <trkpt lat="47.287876" lon="12.933632">
 <ele>740.35</ele>
 <time>2009-08-06T07:38:50Z</time>
 </trkpt>
 <trkpt lat="47.287933" lon="12.933823">
 <ele>738.91</ele>
 <time>2009-08-06T07:38:52Z</time>
 </trkpt>
 <trkpt lat="47.288101" lon="12.934277">
 <ele>737.47</ele>
 <time>2009-08-06T07:38:57Z</time>
 </trkpt>
 <trkpt lat="47.288387" lon="12.934694">
 <ele>736.51</ele>
 <time>2009-08-06T07:39:03Z</time>
 </trkpt>
 <trkpt lat="47.288719" lon="12.935087">
 <ele>735.55</ele>
 <time>2009-08-06T07:39:09Z</time>
 </trkpt>
 <trkpt lat="47.288921" lon="12.935397">
 <ele>735.07</ele>
 <time>2009-08-06T07:39:13Z</time>
 </trkpt>
 <trkpt lat="47.289360" lon="12.935840">
 <ele>735.07</ele>
 <time>2009-08-06T07:39:21Z</time>
 </trkpt>
 <trkpt lat="47.289860" lon="12.936254">
 <ele>734.58</ele>
 <time>2009-08-06T07:39:30Z</time>
 </trkpt>
 <trkpt lat="47.289921" lon="12.936282">
 <ele>734.58</ele>
 <time>2009-08-06T07:39:31Z</time>
 </trkpt>
 <trkpt lat="47.290127" lon="12.936532">
 <ele>733.62</ele>
 <time>2009-08-06T07:39:36Z</time>
 </trkpt>
 <trkpt lat="47.290310" lon="12.936657">
 <ele>734.10</ele>
 <time>2009-08-06T07:39:39Z</time>
 </trkpt>
 <trkpt lat="47.290497" lon="12.936952">
 <ele>733.62</ele>
 <time>2009-08-06T07:39:45Z</time>
 </trkpt>
 <trkpt lat="47.290733" lon="12.937544">
 <ele>732.66</ele>
 <time>2009-08-06T07:39:52Z</time>
 </trkpt>
 <trkpt lat="47.290966" lon="12.938328">
 <ele>731.22</ele>
 <time>2009-08-06T07:40:00Z</time>
 </trkpt>
 <trkpt lat="47.291290" lon="12.939172">
 <ele>730.26</ele>
 <time>2009-08-06T07:40:09Z</time>
 </trkpt>
 <trkpt lat="47.291569" lon="12.940018">
 <ele>728.82</ele>
 <time>2009-08-06T07:40:18Z</time>
 </trkpt>
 <trkpt lat="47.291656" lon="12.940723">
 <ele>727.86</ele>
 <time>2009-08-06T07:40:25Z</time>
 </trkpt>
 <trkpt lat="47.291687" lon="12.941642">
 <ele>726.89</ele>
 <time>2009-08-06T07:40:34Z</time>
 </trkpt>
 <trkpt lat="47.291679" lon="12.942126">
 <ele>726.41</ele>
 <time>2009-08-06T07:40:39Z</time>
 </trkpt>
 <trkpt lat="47.291660" lon="12.942665">
 <ele>726.41</ele>
 <time>2009-08-06T07:40:45Z</time>
 </trkpt>
 <trkpt lat="47.291637" lon="12.943165">
 <ele>726.89</ele>
 <time>2009-08-06T07:40:52Z</time>
 </trkpt>
 <trkpt lat="47.291519" lon="12.943542">
 <ele>728.34</ele>
 <time>2009-08-06T07:40:59Z</time>
 </trkpt>
 <trkpt lat="47.291344" lon="12.944005">
 <ele>728.82</ele>
 <time>2009-08-06T07:41:08Z</time>
 </trkpt>
 <trkpt lat="47.291279" lon="12.944441">
 <ele>729.78</ele>
 <time>2009-08-06T07:41:16Z</time>
 </trkpt>
 <trkpt lat="47.291279" lon="12.944876">
 <ele>730.74</ele>
 <time>2009-08-06T07:41:24Z</time>
 </trkpt>
 <trkpt lat="47.291317" lon="12.945268">
 <ele>731.70</ele>
 <time>2009-08-06T07:41:32Z</time>
 </trkpt>
 <trkpt lat="47.291359" lon="12.945542">
 <ele>733.62</ele>
 <time>2009-08-06T07:41:39Z</time>
 </trkpt>
 <trkpt lat="47.291439" lon="12.945830">
 <ele>735.55</ele>
 <time>2009-08-06T07:41:49Z</time>
 </trkpt>
 <trkpt lat="47.291378" lon="12.946087">
 <ele>736.99</ele>
 <time>2009-08-06T07:41:57Z</time>
 </trkpt>
 <trkpt lat="47.291355" lon="12.946327">
 <ele>737.95</ele>
 <time>2009-08-06T07:42:06Z</time>
 </trkpt>
 <trkpt lat="47.291348" lon="12.946581">
 <ele>740.83</ele>
 <time>2009-08-06T07:42:16Z</time>
 </trkpt>
 <trkpt lat="47.291348" lon="12.946784">
 <ele>741.79</ele>
 <time>2009-08-06T07:42:24Z</time>
 </trkpt>
 <trkpt lat="47.291313" lon="12.947027">
 <ele>743.72</ele>
 <time>2009-08-06T07:42:34Z</time>
 </trkpt>
 <trkpt lat="47.291241" lon="12.947195">
 <ele>745.64</ele>
 <time>2009-08-06T07:42:42Z</time>
 </trkpt>
 <trkpt lat="47.291126" lon="12.947335">
 <ele>747.56</ele>
 <time>2009-08-06T07:42:51Z</time>
 </trkpt>
 <trkpt lat="47.291016" lon="12.947425">
 <ele>748.04</ele>
 <time>2009-08-06T07:42:59Z</time>
 </trkpt>
 <trkpt lat="47.290890" lon="12.947544">
 <ele>750.45</ele>
 <time>2009-08-06T07:43:09Z</time>
 </trkpt>
 <trkpt lat="47.290787" lon="12.947700">
 <ele>751.41</ele>
 <time>2009-08-06T07:43:19Z</time>
 </trkpt>
 <trkpt lat="47.290741" lon="12.947805">
 <ele>752.85</ele>
 <time>2009-08-06T07:43:25Z</time>
 </trkpt>
 <trkpt lat="47.290649" lon="12.947973">
 <ele>755.25</ele>
 <time>2009-08-06T07:43:35Z</time>
 </trkpt>
 <trkpt lat="47.290577" lon="12.948113">
 <ele>756.69</ele>
 <time>2009-08-06T07:43:43Z</time>
 </trkpt>
 <trkpt lat="47.290489" lon="12.948227">
 <ele>758.14</ele>
 <time>2009-08-06T07:43:51Z</time>
 </trkpt>
 <trkpt lat="47.290405" lon="12.948343">
 <ele>759.10</ele>
 <time>2009-08-06T07:43:59Z</time>
 </trkpt>
 <trkpt lat="47.290310" lon="12.948436">
 <ele>760.54</ele>
 <time>2009-08-06T07:44:07Z</time>
 </trkpt>
 <trkpt lat="47.290283" lon="12.948466">
 <ele>761.50</ele>
 <time>2009-08-06T07:44:09Z</time>
 </trkpt>
 <trkpt lat="47.290226" lon="12.948625">
 <ele>762.94</ele>
 <time>2009-08-06T07:44:17Z</time>
 </trkpt>
 <trkpt lat="47.290203" lon="12.948771">
 <ele>763.42</ele>
 <time>2009-08-06T07:44:24Z</time>
 </trkpt>
 <trkpt lat="47.290192" lon="12.948923">
 <ele>764.39</ele>
 <time>2009-08-06T07:44:31Z</time>
 </trkpt>
 <trkpt lat="47.290169" lon="12.949117">
 <ele>765.83</ele>
 <time>2009-08-06T07:44:40Z</time>
 </trkpt>
 <trkpt lat="47.290142" lon="12.949337">
 <ele>767.27</ele>
 <time>2009-08-06T07:44:50Z</time>
 </trkpt>
 <trkpt lat="47.290100" lon="12.949485">
 <ele>769.19</ele>
 <time>2009-08-06T07:44:57Z</time>
 </trkpt>
 <trkpt lat="47.290051" lon="12.949667">
 <ele>770.15</ele>
 <time>2009-08-06T07:45:06Z</time>
 </trkpt>
 <trkpt lat="47.289978" lon="12.949890">
 <ele>772.08</ele>
 <time>2009-08-06T07:45:17Z</time>
 </trkpt>
 <trkpt lat="47.289909" lon="12.950093">
 <ele>772.56</ele>
 <time>2009-08-06T07:45:27Z</time>
 </trkpt>
 <trkpt lat="47.289837" lon="12.950274">
 <ele>774.48</ele>
 <time>2009-08-06T07:45:36Z</time>
 </trkpt>
 <trkpt lat="47.289787" lon="12.950419">
 <ele>775.92</ele>
 <time>2009-08-06T07:45:43Z</time>
 </trkpt>
 <trkpt lat="47.289738" lon="12.950496">
 <ele>776.88</ele>
 <time>2009-08-06T07:45:49Z</time>
 </trkpt>
 <trkpt lat="47.289764" lon="12.950569">
 <ele>775.92</ele>
 <time>2009-08-06T07:45:54Z</time>
 </trkpt>
 <trkpt lat="47.289768" lon="12.950578">
 <ele>776.40</ele>
 <time>2009-08-06T07:45:59Z</time>
 </trkpt>
 <trkpt lat="47.289772" lon="12.950731">
 <ele>775.92</ele>
 <time>2009-08-06T07:46:04Z</time>
 </trkpt>
 <trkpt lat="47.289799" lon="12.950844">
 <ele>775.44</ele>
 <time>2009-08-06T07:46:06Z</time>
 </trkpt>
 <trkpt lat="47.289963" lon="12.951325">
 <ele>774.00</ele>
 <time>2009-08-06T07:46:12Z</time>
 </trkpt>
 <trkpt lat="47.290089" lon="12.951760">
 <ele>770.63</ele>
 <time>2009-08-06T07:46:16Z</time>
 </trkpt>
 <trkpt lat="47.290123" lon="12.951880">
 <ele>770.63</ele>
 <time>2009-08-06T07:46:17Z</time>
 </trkpt>
 <trkpt lat="47.290337" lon="12.952673">
 <ele>766.79</ele>
 <time>2009-08-06T07:46:23Z</time>
 </trkpt>
 <trkpt lat="47.290489" lon="12.953253">
 <ele>764.87</ele>
 <time>2009-08-06T07:46:27Z</time>
 </trkpt>
 <trkpt lat="47.290638" lon="12.953680">
 <ele>762.46</ele>
 <time>2009-08-06T07:46:30Z</time>
 </trkpt>
 <trkpt lat="47.290699" lon="12.953814">
 <ele>762.94</ele>
 <time>2009-08-06T07:46:31Z</time>
 </trkpt>
 <trkpt lat="47.291130" lon="12.954348">
 <ele>759.10</ele>
 <time>2009-08-06T07:46:36Z</time>
 </trkpt>
 <trkpt lat="47.291443" lon="12.954555">
 <ele>755.73</ele>
 <time>2009-08-06T07:46:39Z</time>
 </trkpt>
 <trkpt lat="47.292030" lon="12.954837">
 <ele>755.25</ele>
 <time>2009-08-06T07:46:45Z</time>
 </trkpt>
 <trkpt lat="47.292191" lon="12.954923">
 <ele>755.73</ele>
 <time>2009-08-06T07:46:47Z</time>
 </trkpt>
 <trkpt lat="47.292465" lon="12.955197">
 <ele>756.21</ele>
 <time>2009-08-06T07:46:52Z</time>
 </trkpt>
 <trkpt lat="47.292500" lon="12.955258">
 <ele>756.21</ele>
 <time>2009-08-06T07:46:53Z</time>
 </trkpt>
 <trkpt lat="47.292572" lon="12.955401">
 <ele>755.73</ele>
 <time>2009-08-06T07:46:55Z</time>
 </trkpt>
 <trkpt lat="47.292721" lon="12.955926">
 <ele>755.25</ele>
 <time>2009-08-06T07:47:01Z</time>
 </trkpt>
 <trkpt lat="47.292747" lon="12.956326">
 <ele>756.69</ele>
 <time>2009-08-06T07:47:07Z</time>
 </trkpt>
 <trkpt lat="47.292709" lon="12.956833">
 <ele>759.10</ele>
 <time>2009-08-06T07:47:16Z</time>
 </trkpt>
 <trkpt lat="47.292645" lon="12.957088">
 <ele>760.06</ele>
 <time>2009-08-06T07:47:21Z</time>
 </trkpt>
 <trkpt lat="47.292526" lon="12.957530">
 <ele>760.06</ele>
 <time>2009-08-06T07:47:30Z</time>
 </trkpt>
 <trkpt lat="47.292370" lon="12.958038">
 <ele>761.02</ele>
 <time>2009-08-06T07:47:40Z</time>
 </trkpt>
 <trkpt lat="47.292206" lon="12.958504">
 <ele>761.50</ele>
 <time>2009-08-06T07:47:49Z</time>
 </trkpt>
 <trkpt lat="47.292034" lon="12.959062">
 <ele>761.98</ele>
 <time>2009-08-06T07:47:59Z</time>
 </trkpt>
 <trkpt lat="47.292403" lon="12.959125">
 <ele>762.46</ele>
 <time>2009-08-06T07:48:10Z</time>
 </trkpt>
 <trkpt lat="47.292369" lon="12.959722">
 <ele>762.46</ele>
 <time>2009-08-06T07:48:21Z</time>
 </trkpt>
 <trkpt lat="47.292526" lon="12.960972">
 <ele>763.90</ele>
 <time>2009-08-06T07:48:32Z</time>
 </trkpt>
 <trkpt lat="47.292659" lon="12.962108">
 <ele>763.90</ele>
 <time>2009-08-06T07:48:41Z</time>
 </trkpt>
 <trkpt lat="47.292908" lon="12.962842">
 <ele>764.87</ele>
 <time>2009-08-06T07:48:52Z</time>
 </trkpt>
 <trkpt lat="47.292975" lon="12.963452">
 <ele>765.83</ele>
 <time>2009-08-06T07:49:05Z</time>
 </trkpt>
 <trkpt lat="47.293047" lon="12.963730">
 <ele>767.27</ele>
 <time>2009-08-06T07:49:15Z</time>
 </trkpt>
 <trkpt lat="47.293178" lon="12.964105">
 <ele>767.75</ele>
 <time>2009-08-06T07:49:26Z</time>
 </trkpt>
 <trkpt lat="47.293285" lon="12.964415">
 <ele>769.19</ele>
 <time>2009-08-06T07:49:33Z</time>
 </trkpt>
 <trkpt lat="47.293380" lon="12.964726">
 <ele>768.71</ele>
 <time>2009-08-06T07:49:41Z</time>
 </trkpt>
 <trkpt lat="47.293443" lon="12.965103">
 <ele>769.67</ele>
 <time>2009-08-06T07:49:49Z</time>
 </trkpt>
 <trkpt lat="47.293488" lon="12.965713">
 <ele>769.67</ele>
 <time>2009-08-06T07:49:56Z</time>
 </trkpt>
 <trkpt lat="47.293488" lon="12.966375">
 <ele>770.15</ele>
 <time>2009-08-06T07:50:04Z</time>
 </trkpt>
 <trkpt lat="47.293495" lon="12.966771">
 <ele>770.63</ele>
 <time>2009-08-06T07:50:12Z</time>
 </trkpt>
 <trkpt lat="47.293529" lon="12.967431">
 <ele>771.11</ele>
 <time>2009-08-06T07:50:21Z</time>
 </trkpt>
 <trkpt lat="47.293547" lon="12.968406">
 <ele>771.60</ele>
 <time>2009-08-06T07:50:31Z</time>
 </trkpt>
 <trkpt lat="47.293583" lon="12.969182">
 <ele>770.63</ele>
 <time>2009-08-06T07:50:40Z</time>
 </trkpt>
 <trkpt lat="47.293682" lon="12.969926">
 <ele>770.15</ele>
 <time>2009-08-06T07:50:48Z</time>
 </trkpt>
 <trkpt lat="47.293930" lon="12.970572">
 <ele>768.71</ele>
 <time>2009-08-06T07:50:55Z</time>
 </trkpt>
 <trkpt lat="47.293995" lon="12.970782">
 <ele>767.75</ele>
 <time>2009-08-06T07:50:57Z</time>
 </trkpt>
 <trkpt lat="47.294147" lon="12.971477">
 <ele>765.83</ele>
 <time>2009-08-06T07:51:03Z</time>
 </trkpt>
 <trkpt lat="47.294273" lon="12.972615">
 <ele>762.46</ele>
 <time>2009-08-06T07:51:12Z</time>
 </trkpt>
 <trkpt lat="47.294296" lon="12.973148">
 <ele>760.54</ele>
 <time>2009-08-06T07:51:16Z</time>
 </trkpt>
 <trkpt lat="47.294277" lon="12.974115">
 <ele>758.62</ele>
 <time>2009-08-06T07:51:23Z</time>
 </trkpt>
 <trkpt lat="47.294273" lon="12.974890">
 <ele>756.21</ele>
 <time>2009-08-06T07:51:29Z</time>
 </trkpt>
 <trkpt lat="47.294384" lon="12.975543">
 <ele>754.77</ele>
 <time>2009-08-06T07:51:35Z</time>
 </trkpt>
 <trkpt lat="47.294548" lon="12.975991">
 <ele>753.33</ele>
 <time>2009-08-06T07:51:39Z</time>
 </trkpt>
 <trkpt lat="47.294594" lon="12.976107">
 <ele>753.33</ele>
 <time>2009-08-06T07:51:40Z</time>
 </trkpt>
 <trkpt lat="47.294804" lon="12.976836">
 <ele>751.41</ele>
 <time>2009-08-06T07:51:46Z</time>
 </trkpt>
 <trkpt lat="47.294937" lon="12.977318">
 <ele>749.97</ele>
 <time>2009-08-06T07:51:50Z</time>
 </trkpt>
 <trkpt lat="47.295036" lon="12.978099">
 <ele>748.04</ele>
 <time>2009-08-06T07:51:56Z</time>
 </trkpt>
 <trkpt lat="47.295044" lon="12.978932">
 <ele>746.12</ele>
 <time>2009-08-06T07:52:02Z</time>
 </trkpt>
 <trkpt lat="47.295071" lon="12.980018">
 <ele>743.72</ele>
 <time>2009-08-06T07:52:10Z</time>
 </trkpt>
 <trkpt lat="47.295101" lon="12.980277">
 <ele>742.76</ele>
 <time>2009-08-06T07:52:12Z</time>
 </trkpt>
 <trkpt lat="47.295147" lon="12.980533">
 <ele>743.24</ele>
 <time>2009-08-06T07:52:14Z</time>
 </trkpt>
 <trkpt lat="47.295319" lon="12.981110">
 <ele>742.28</ele>
 <time>2009-08-06T07:52:19Z</time>
 </trkpt>
 <trkpt lat="47.295502" lon="12.981582">
 <ele>739.87</ele>
 <time>2009-08-06T07:52:24Z</time>
 </trkpt>
 <trkpt lat="47.295719" lon="12.982113">
 <ele>738.43</ele>
 <time>2009-08-06T07:52:30Z</time>
 </trkpt>
 <trkpt lat="47.295921" lon="12.982807">
 <ele>737.95</ele>
 <time>2009-08-06T07:52:37Z</time>
 </trkpt>
 <trkpt lat="47.296066" lon="12.983597">
 <ele>736.99</ele>
 <time>2009-08-06T07:52:45Z</time>
 </trkpt>
 <trkpt lat="47.296215" lon="12.984464">
 <ele>735.55</ele>
 <time>2009-08-06T07:52:54Z</time>
 </trkpt>
 <trkpt lat="47.296127" lon="12.984860">
 <ele>735.55</ele>
 <time>2009-08-06T07:52:59Z</time>
 </trkpt>
 <trkpt lat="47.296021" lon="12.985101">
 <ele>736.03</ele>
 <time>2009-08-06T07:53:02Z</time>
 </trkpt>
 <trkpt lat="47.295967" lon="12.985641">
 <ele>735.55</ele>
 <time>2009-08-06T07:53:08Z</time>
 </trkpt>
 <trkpt lat="47.295975" lon="12.985818">
 <ele>735.55</ele>
 <time>2009-08-06T07:53:10Z</time>
 </trkpt>
 <trkpt lat="47.296120" lon="12.986248">
 <ele>734.58</ele>
 <time>2009-08-06T07:53:15Z</time>
 </trkpt>
 <trkpt lat="47.296299" lon="12.986651">
 <ele>734.58</ele>
 <time>2009-08-06T07:53:20Z</time>
 </trkpt>
 <trkpt lat="47.296310" lon="12.987121">
 <ele>734.10</ele>
 <time>2009-08-06T07:53:25Z</time>
 </trkpt>
 <trkpt lat="47.296284" lon="12.987313">
 <ele>734.58</ele>
 <time>2009-08-06T07:53:27Z</time>
 </trkpt>
 <trkpt lat="47.296337" lon="12.987687">
 <ele>734.10</ele>
 <time>2009-08-06T07:53:31Z</time>
 </trkpt>
 <trkpt lat="47.296425" lon="12.987838">
 <ele>733.62</ele>
 <time>2009-08-06T07:53:33Z</time>
 </trkpt>
 <trkpt lat="47.296623" lon="12.988324">
 <ele>732.66</ele>
 <time>2009-08-06T07:53:39Z</time>
 </trkpt>
 <trkpt lat="47.296795" lon="12.988599">
 <ele>731.70</ele>
 <time>2009-08-06T07:53:43Z</time>
 </trkpt>
 <trkpt lat="47.296982" lon="12.988646">
 <ele>731.22</ele>
 <time>2009-08-06T07:53:46Z</time>
 </trkpt>
 <trkpt lat="47.297192" lon="12.988611">
 <ele>729.78</ele>
 <time>2009-08-06T07:53:49Z</time>
 </trkpt>
 <trkpt lat="47.297386" lon="12.988750">
 <ele>729.30</ele>
 <time>2009-08-06T07:53:52Z</time>
 </trkpt>
 <trkpt lat="47.297482" lon="12.988905">
 <ele>729.30</ele>
 <time>2009-08-06T07:53:54Z</time>
 </trkpt>
 <trkpt lat="47.297752" lon="12.989404">
 <ele>727.86</ele>
 <time>2009-08-06T07:54:00Z</time>
 </trkpt>
 <trkpt lat="47.297806" lon="12.989482">
 <ele>727.86</ele>
 <time>2009-08-06T07:54:01Z</time>
 </trkpt>
 <trkpt lat="47.298077" lon="12.989896">
 <ele>725.93</ele>
 <time>2009-08-06T07:54:06Z</time>
 </trkpt>
 <trkpt lat="47.298306" lon="12.990360">
 <ele>722.57</ele>
 <time>2009-08-06T07:54:11Z</time>
 </trkpt>
 <trkpt lat="47.298374" lon="12.990520">
 <ele>720.65</ele>
 <time>2009-08-06T07:54:13Z</time>
 </trkpt>
 <trkpt lat="47.298504" lon="12.990661">
 <ele>720.16</ele>
 <time>2009-08-06T07:54:17Z</time>
 </trkpt>
 <trkpt lat="47.298592" lon="12.990647">
 <ele>720.16</ele>
 <time>2009-08-06T07:54:20Z</time>
 </trkpt>
 <trkpt lat="47.298649" lon="12.990716">
 <ele>721.13</ele>
 <time>2009-08-06T07:54:22Z</time>
 </trkpt>
 <trkpt lat="47.298771" lon="12.990960">
 <ele>722.09</ele>
 <time>2009-08-06T07:54:28Z</time>
 </trkpt>
 <trkpt lat="47.298870" lon="12.991156">
 <ele>722.09</ele>
 <time>2009-08-06T07:54:32Z</time>
 </trkpt>
 <trkpt lat="47.298901" lon="12.991212">
 <ele>721.61</ele>
 <time>2009-08-06T07:54:33Z</time>
 </trkpt>
 <trkpt lat="47.299145" lon="12.991721">
 <ele>721.13</ele>
 <time>2009-08-06T07:54:41Z</time>
 </trkpt>
 <trkpt lat="47.299351" lon="12.992132">
 <ele>720.65</ele>
 <time>2009-08-06T07:54:47Z</time>
 </trkpt>
 <trkpt lat="47.299549" lon="12.992571">
 <ele>719.20</ele>
 <time>2009-08-06T07:54:53Z</time>
 </trkpt>
 <trkpt lat="47.299828" lon="12.993053">
 <ele>717.76</ele>
 <time>2009-08-06T07:55:00Z</time>
 </trkpt>
 <trkpt lat="47.299976" lon="12.993237">
 <ele>716.80</ele>
 <time>2009-08-06T07:55:03Z</time>
 </trkpt>
 <trkpt lat="47.300381" lon="12.993816">
 <ele>713.92</ele>
 <time>2009-08-06T07:55:11Z</time>
 </trkpt>
 <trkpt lat="47.300823" lon="12.994480">
 <ele>711.99</ele>
 <time>2009-08-06T07:55:19Z</time>
 </trkpt>
 <trkpt lat="47.301109" lon="12.994990">
 <ele>711.03</ele>
 <time>2009-08-06T07:55:25Z</time>
 </trkpt>
 <trkpt lat="47.301338" lon="12.995408">
 <ele>709.11</ele>
 <time>2009-08-06T07:55:30Z</time>
 </trkpt>
 <trkpt lat="47.301567" lon="12.995834">
 <ele>708.15</ele>
 <time>2009-08-06T07:55:35Z</time>
 </trkpt>
 <trkpt lat="47.301632" lon="12.996027">
 <ele>708.63</ele>
 <time>2009-08-06T07:55:37Z</time>
 </trkpt>
 <trkpt lat="47.301640" lon="12.996392">
 <ele>708.15</ele>
 <time>2009-08-06T07:55:41Z</time>
 </trkpt>
 <trkpt lat="47.301506" lon="12.996738">
 <ele>708.15</ele>
 <time>2009-08-06T07:55:45Z</time>
 </trkpt>
 <trkpt lat="47.301441" lon="12.997055">
 <ele>708.15</ele>
 <time>2009-08-06T07:55:50Z</time>
 </trkpt>
 <trkpt lat="47.301392" lon="12.997262">
 <ele>706.23</ele>
 <time>2009-08-06T07:55:53Z</time>
 </trkpt>
 <trkpt lat="47.301334" lon="12.997579">
 <ele>702.86</ele>
 <time>2009-08-06T07:55:56Z</time>
 </trkpt>
 <trkpt lat="47.301384" lon="12.997939">
 <ele>700.94</ele>
 <time>2009-08-06T07:55:59Z</time>
 </trkpt>
 <trkpt lat="47.301270" lon="12.998381">
 <ele>700.46</ele>
 <time>2009-08-06T07:56:02Z</time>
 </trkpt>
 <trkpt lat="47.301426" lon="12.998815">
 <ele>700.94</ele>
 <time>2009-08-06T07:56:07Z</time>
 </trkpt>
 <trkpt lat="47.301510" lon="12.998983">
 <ele>702.86</ele>
 <time>2009-08-06T07:56:11Z</time>
 </trkpt>
 <trkpt lat="47.301548" lon="12.999064">
 <ele>704.30</ele>
 <time>2009-08-06T07:56:13Z</time>
 </trkpt>
 <trkpt lat="47.301590" lon="12.999143">
 <ele>705.26</ele>
 <time>2009-08-06T07:56:15Z</time>
 </trkpt>
 <trkpt lat="47.301712" lon="12.999286">
 <ele>705.26</ele>
 <time>2009-08-06T07:56:19Z</time>
 </trkpt>
 <trkpt lat="47.301895" lon="12.999532">
 <ele>705.75</ele>
 <time>2009-08-06T07:56:24Z</time>
 </trkpt>
 <trkpt lat="47.301979" lon="12.999651">
 <ele>704.78</ele>
 <time>2009-08-06T07:56:26Z</time>
 </trkpt>
 <trkpt lat="47.302444" lon="13.000160">
 <ele>703.82</ele>
 <time>2009-08-06T07:56:35Z</time>
 </trkpt>
 <trkpt lat="47.302780" lon="13.000646">
 <ele>703.34</ele>
 <time>2009-08-06T07:56:42Z</time>
 </trkpt>
 <trkpt lat="47.303093" lon="13.001302">
 <ele>702.86</ele>
 <time>2009-08-06T07:56:50Z</time>
 </trkpt>
 <trkpt lat="47.303291" lon="13.001935">
 <ele>702.38</ele>
 <time>2009-08-06T07:56:57Z</time>
 </trkpt>
 <trkpt lat="47.303474" lon="13.002653">
 <ele>702.38</ele>
 <time>2009-08-06T07:57:05Z</time>
 </trkpt>
 <trkpt lat="47.303608" lon="13.003058">
 <ele>701.90</ele>
 <time>2009-08-06T07:57:10Z</time>
 </trkpt>
 <trkpt lat="47.303883" lon="13.003671">
 <ele>701.42</ele>
 <time>2009-08-06T07:57:18Z</time>
 </trkpt>
 <trkpt lat="47.304253" lon="13.004203">
 <ele>701.42</ele>
 <time>2009-08-06T07:57:26Z</time>
 </trkpt>
 <trkpt lat="47.304798" lon="13.004741">
 <ele>700.46</ele>
 <time>2009-08-06T07:57:36Z</time>
 </trkpt>
 <trkpt lat="47.305317" lon="13.005248">
 <ele>699.02</ele>
 <time>2009-08-06T07:57:45Z</time>
 </trkpt>
 <trkpt lat="47.305664" lon="13.005757">
 <ele>698.05</ele>
 <time>2009-08-06T07:57:52Z</time>
 </trkpt>
 <trkpt lat="47.305874" lon="13.006278">
 <ele>699.50</ele>
 <time>2009-08-06T07:57:58Z</time>
 </trkpt>
 <trkpt lat="47.305958" lon="13.006521">
 <ele>698.05</ele>
 <time>2009-08-06T07:58:01Z</time>
 </trkpt>
 <trkpt lat="47.306133" lon="13.006980">
 <ele>695.65</ele>
 <time>2009-08-06T07:58:06Z</time>
 </trkpt>
 <trkpt lat="47.306488" lon="13.007656">
 <ele>690.84</ele>
 <time>2009-08-06T07:58:13Z</time>
 </trkpt>
 <trkpt lat="47.306545" lon="13.007752">
 <ele>690.84</ele>
 <time>2009-08-06T07:58:14Z</time>
 </trkpt>
 <trkpt lat="47.306828" lon="13.008209">
 <ele>689.40</ele>
 <time>2009-08-06T07:58:19Z</time>
 </trkpt>
 <trkpt lat="47.306953" lon="13.008542">
 <ele>689.40</ele>
 <time>2009-08-06T07:58:23Z</time>
 </trkpt>
 <trkpt lat="47.307095" lon="13.009207">
 <ele>691.81</ele>
 <time>2009-08-06T07:58:31Z</time>
 </trkpt>
 <trkpt lat="47.307144" lon="13.009518">
 <ele>694.69</ele>
 <time>2009-08-06T07:58:36Z</time>
 </trkpt>
 <trkpt lat="47.307156" lon="13.009746">
 <ele>695.65</ele>
 <time>2009-08-06T07:58:40Z</time>
 </trkpt>
 <trkpt lat="47.307167" lon="13.009942">
 <ele>696.13</ele>
 <time>2009-08-06T07:58:45Z</time>
 </trkpt>
 <trkpt lat="47.307156" lon="13.010021">
 <ele>695.17</ele>
 <time>2009-08-06T07:58:49Z</time>
 </trkpt>
 <trkpt lat="47.307137" lon="13.010071">
 <ele>695.65</ele>
 <time>2009-08-06T07:58:55Z</time>
 </trkpt>
 <trkpt lat="47.307106" lon="13.010303">
 <ele>696.13</ele>
 <time>2009-08-06T07:59:15Z</time>
 </trkpt>
 <trkpt lat="47.307114" lon="13.010301">
 <ele>695.65</ele>
 <time>2009-08-06T07:59:28Z</time>
 </trkpt>
 <trkpt lat="47.307129" lon="13.010248">
 <ele>695.17</ele>
 <time>2009-08-06T07:59:37Z</time>
 </trkpt>
 <trkpt lat="47.307133" lon="13.010267">
 <ele>695.17</ele>
 <time>2009-08-06T07:59:40Z</time>
 </trkpt>
 <trkpt lat="47.307121" lon="13.010524">
 <ele>693.73</ele>
 <time>2009-08-06T07:59:45Z</time>
 </trkpt>
 <trkpt lat="47.307068" lon="13.010962">
 <ele>692.29</ele>
 <time>2009-08-06T07:59:49Z</time>
 </trkpt>
 <trkpt lat="47.306969" lon="13.011370">
 <ele>689.88</ele>
 <time>2009-08-06T07:59:52Z</time>
 </trkpt>
 <trkpt lat="47.306816" lon="13.011785">
 <ele>686.52</ele>
 <time>2009-08-06T07:59:55Z</time>
 </trkpt>
 <trkpt lat="47.306610" lon="13.012294">
 <ele>684.60</ele>
 <time>2009-08-06T07:59:59Z</time>
 </trkpt>
 <trkpt lat="47.306572" lon="13.012420">
 <ele>684.60</ele>
 <time>2009-08-06T08:00:00Z</time>
 </trkpt>
 <trkpt lat="47.306473" lon="13.012789">
 <ele>683.63</ele>
 <time>2009-08-06T08:00:03Z</time>
 </trkpt>
 <trkpt lat="47.306454" lon="13.013316">
 <ele>682.67</ele>
 <time>2009-08-06T08:00:07Z</time>
 </trkpt>
 <trkpt lat="47.306492" lon="13.014368">
 <ele>681.71</ele>
 <time>2009-08-06T08:00:15Z</time>
 </trkpt>
 <trkpt lat="47.306499" lon="13.015176">
 <ele>680.27</ele>
 <time>2009-08-06T08:00:22Z</time>
 </trkpt>
 <trkpt lat="47.306419" lon="13.015578">
 <ele>679.79</ele>
 <time>2009-08-06T08:00:26Z</time>
 </trkpt>
 <trkpt lat="47.306377" lon="13.015663">
 <ele>680.27</ele>
 <time>2009-08-06T08:00:27Z</time>
 </trkpt>
 <trkpt lat="47.306072" lon="13.016222">
 <ele>680.75</ele>
 <time>2009-08-06T08:00:34Z</time>
 </trkpt>
 <trkpt lat="47.306038" lon="13.016605">
 <ele>680.27</ele>
 <time>2009-08-06T08:00:38Z</time>
 </trkpt>
 <trkpt lat="47.306293" lon="13.017552">
 <ele>678.83</ele>
 <time>2009-08-06T08:00:47Z</time>
 </trkpt>
 <trkpt lat="47.306442" lon="13.018425">
 <ele>676.91</ele>
 <time>2009-08-06T08:00:55Z</time>
 </trkpt>
 <trkpt lat="47.306648" lon="13.019151">
 <ele>675.46</ele>
 <time>2009-08-06T08:01:02Z</time>
 </trkpt>
 <trkpt lat="47.306915" lon="13.019801">
 <ele>674.98</ele>
 <time>2009-08-06T08:01:09Z</time>
 </trkpt>
 <trkpt lat="47.307289" lon="13.020316">
 <ele>674.98</ele>
 <time>2009-08-06T08:01:15Z</time>
 </trkpt>
 <trkpt lat="47.307442" lon="13.020632">
 <ele>675.94</ele>
 <time>2009-08-06T08:01:19Z</time>
 </trkpt>
 <trkpt lat="47.307491" lon="13.020987">
 <ele>675.46</ele>
 <time>2009-08-06T08:01:23Z</time>
 </trkpt>
 <trkpt lat="47.307579" lon="13.021549">
 <ele>674.02</ele>
 <time>2009-08-06T08:01:29Z</time>
 </trkpt>
 <trkpt lat="47.307732" lon="13.022550">
 <ele>673.54</ele>
 <time>2009-08-06T08:01:39Z</time>
 </trkpt>
 <trkpt lat="47.307713" lon="13.023050">
 <ele>673.54</ele>
 <time>2009-08-06T08:01:44Z</time>
 </trkpt>
 <trkpt lat="47.307606" lon="13.023522">
 <ele>673.54</ele>
 <time>2009-08-06T08:01:49Z</time>
 </trkpt>
 <trkpt lat="47.307457" lon="13.024156">
 <ele>673.06</ele>
 <time>2009-08-06T08:01:56Z</time>
 </trkpt>
 <trkpt lat="47.307297" lon="13.024869">
 <ele>673.06</ele>
 <time>2009-08-06T08:02:04Z</time>
 </trkpt>
 <trkpt lat="47.307186" lon="13.025496">
 <ele>672.10</ele>
 <time>2009-08-06T08:02:11Z</time>
 </trkpt>
 <trkpt lat="47.307121" lon="13.026138">
 <ele>671.14</ele>
 <time>2009-08-06T08:02:18Z</time>
 </trkpt>
 <trkpt lat="47.307079" lon="13.026697">
 <ele>670.66</ele>
 <time>2009-08-06T08:02:24Z</time>
 </trkpt>
 <trkpt lat="47.306976" lon="13.027360">
 <ele>670.18</ele>
 <time>2009-08-06T08:02:31Z</time>
 </trkpt>
 <trkpt lat="47.306892" lon="13.028105">
 <ele>670.18</ele>
 <time>2009-08-06T08:02:39Z</time>
 </trkpt>
 <trkpt lat="47.306881" lon="13.028470">
 <ele>670.18</ele>
 <time>2009-08-06T08:02:43Z</time>
 </trkpt>
 <trkpt lat="47.306934" lon="13.028976">
 <ele>669.70</ele>
 <time>2009-08-06T08:02:49Z</time>
 </trkpt>
 <trkpt lat="47.306839" lon="13.029321">
 <ele>669.70</ele>
 <time>2009-08-06T08:02:53Z</time>
 </trkpt>
 <trkpt lat="47.306458" lon="13.029986">
 <ele>668.73</ele>
 <time>2009-08-06T08:03:01Z</time>
 </trkpt>
 <trkpt lat="47.306107" lon="13.030420">
 <ele>668.73</ele>
 <time>2009-08-06T08:03:07Z</time>
 </trkpt>
 <trkpt lat="47.305557" lon="13.030970">
 <ele>669.22</ele>
 <time>2009-08-06T08:03:16Z</time>
 </trkpt>
 <trkpt lat="47.305363" lon="13.031274">
 <ele>668.73</ele>
 <time>2009-08-06T08:03:21Z</time>
 </trkpt>
 <trkpt lat="47.305252" lon="13.031470">
 <ele>668.73</ele>
 <time>2009-08-06T08:03:24Z</time>
 </trkpt>
 <trkpt lat="47.305058" lon="13.031941">
 <ele>670.18</ele>
 <time>2009-08-06T08:03:32Z</time>
 </trkpt>
 <trkpt lat="47.304951" lon="13.032271">
 <ele>673.06</ele>
 <time>2009-08-06T08:03:38Z</time>
 </trkpt>
 <trkpt lat="47.304852" lon="13.032535">
 <ele>674.98</ele>
 <time>2009-08-06T08:03:43Z</time>
 </trkpt>
 <trkpt lat="47.304703" lon="13.032805">
 <ele>676.42</ele>
 <time>2009-08-06T08:03:49Z</time>
 </trkpt>
 <trkpt lat="47.304607" lon="13.033022">
 <ele>676.91</ele>
 <time>2009-08-06T08:03:55Z</time>
 </trkpt>
 <trkpt lat="47.304535" lon="13.033161">
 <ele>676.91</ele>
 <time>2009-08-06T08:04:00Z</time>
 </trkpt>
 <trkpt lat="47.304443" lon="13.033510">
 <ele>676.91</ele>
 <time>2009-08-06T08:04:06Z</time>
 </trkpt>
 <trkpt lat="47.304371" lon="13.033960">
 <ele>676.42</ele>
 <time>2009-08-06T08:04:12Z</time>
 </trkpt>
 <trkpt lat="47.304306" lon="13.034270">
 <ele>674.98</ele>
 <time>2009-08-06T08:04:15Z</time>
 </trkpt>
 <trkpt lat="47.304070" lon="13.034693">
 <ele>672.58</ele>
 <time>2009-08-06T08:04:19Z</time>
 </trkpt>
 <trkpt lat="47.303982" lon="13.034787">
 <ele>669.70</ele>
 <time>2009-08-06T08:04:20Z</time>
 </trkpt>
 <trkpt lat="47.303799" lon="13.034945">
 <ele>669.22</ele>
 <time>2009-08-06T08:04:22Z</time>
 </trkpt>
 <trkpt lat="47.303616" lon="13.035100">
 <ele>667.77</ele>
 <time>2009-08-06T08:04:24Z</time>
 </trkpt>
 <trkpt lat="47.303436" lon="13.035250">
 <ele>666.81</ele>
 <time>2009-08-06T08:04:26Z</time>
 </trkpt>
 <trkpt lat="47.303093" lon="13.035375">
 <ele>666.81</ele>
 <time>2009-08-06T08:04:30Z</time>
 </trkpt>
 <trkpt lat="47.302628" lon="13.035408">
 <ele>665.85</ele>
 <time>2009-08-06T08:04:36Z</time>
 </trkpt>
 <trkpt lat="47.302227" lon="13.035615">
 <ele>665.37</ele>
 <time>2009-08-06T08:04:42Z</time>
 </trkpt>
 <trkpt lat="47.301918" lon="13.035789">
 <ele>665.37</ele>
 <time>2009-08-06T08:04:47Z</time>
 </trkpt>
 <trkpt lat="47.301540" lon="13.036147">
 <ele>664.89</ele>
 <time>2009-08-06T08:04:54Z</time>
 </trkpt>
 <trkpt lat="47.301338" lon="13.036488">
 <ele>664.89</ele>
 <time>2009-08-06T08:04:59Z</time>
 </trkpt>
 <trkpt lat="47.301212" lon="13.036932">
 <ele>664.89</ele>
 <time>2009-08-06T08:05:04Z</time>
 </trkpt>
 <trkpt lat="47.301144" lon="13.037754">
 <ele>664.89</ele>
 <time>2009-08-06T08:05:12Z</time>
 </trkpt>
 <trkpt lat="47.301167" lon="13.038138">
 <ele>663.93</ele>
 <time>2009-08-06T08:05:16Z</time>
 </trkpt>
 <trkpt lat="47.301144" lon="13.038951">
 <ele>662.97</ele>
 <time>2009-08-06T08:05:24Z</time>
 </trkpt>
 <trkpt lat="47.301094" lon="13.039349">
 <ele>663.45</ele>
 <time>2009-08-06T08:05:28Z</time>
 </trkpt>
 <trkpt lat="47.300991" lon="13.040118">
 <ele>662.49</ele>
 <time>2009-08-06T08:05:36Z</time>
 </trkpt>
 <trkpt lat="47.300880" lon="13.040796">
 <ele>662.01</ele>
 <time>2009-08-06T08:05:43Z</time>
 </trkpt>
 <trkpt lat="47.300682" lon="13.041465">
 <ele>661.52</ele>
 <time>2009-08-06T08:05:50Z</time>
 </trkpt>
 <trkpt lat="47.300514" lon="13.041884">
 <ele>661.52</ele>
 <time>2009-08-06T08:05:55Z</time>
 </trkpt>
 <trkpt lat="47.300308" lon="13.042324">
 <ele>661.52</ele>
 <time>2009-08-06T08:06:01Z</time>
 </trkpt>
 <trkpt lat="47.300045" lon="13.042866">
 <ele>661.04</ele>
 <time>2009-08-06T08:06:08Z</time>
 </trkpt>
 <trkpt lat="47.299919" lon="13.043388">
 <ele>660.08</ele>
 <time>2009-08-06T08:06:14Z</time>
 </trkpt>
 <trkpt lat="47.299801" lon="13.044038">
 <ele>659.12</ele>
 <time>2009-08-06T08:06:21Z</time>
 </trkpt>
 <trkpt lat="47.299725" lon="13.044303">
 <ele>659.60</ele>
 <time>2009-08-06T08:06:24Z</time>
 </trkpt>
 <trkpt lat="47.299583" lon="13.044609">
 <ele>659.12</ele>
 <time>2009-08-06T08:06:28Z</time>
 </trkpt>
 <trkpt lat="47.299271" lon="13.044985">
 <ele>658.16</ele>
 <time>2009-08-06T08:06:34Z</time>
 </trkpt>
 <trkpt lat="47.298973" lon="13.045218">
 <ele>657.68</ele>
 <time>2009-08-06T08:06:39Z</time>
 </trkpt>
 <trkpt lat="47.298653" lon="13.045461">
 <ele>657.68</ele>
 <time>2009-08-06T08:06:44Z</time>
 </trkpt>
 <trkpt lat="47.298477" lon="13.045588">
 <ele>657.20</ele>
 <time>2009-08-06T08:06:47Z</time>
 </trkpt>
 <trkpt lat="47.298275" lon="13.045819">
 <ele>657.20</ele>
 <time>2009-08-06T08:06:51Z</time>
 </trkpt>
 <trkpt lat="47.298244" lon="13.045892">
 <ele>656.72</ele>
 <time>2009-08-06T08:06:52Z</time>
 </trkpt>
 <trkpt lat="47.298069" lon="13.046334">
 <ele>656.24</ele>
 <time>2009-08-06T08:06:58Z</time>
 </trkpt>
 <trkpt lat="47.297901" lon="13.046738">
 <ele>656.24</ele>
 <time>2009-08-06T08:07:03Z</time>
 </trkpt>
 <trkpt lat="47.297794" lon="13.047245">
 <ele>656.24</ele>
 <time>2009-08-06T08:07:09Z</time>
 </trkpt>
 <trkpt lat="47.297775" lon="13.047334">
 <ele>655.76</ele>
 <time>2009-08-06T08:07:10Z</time>
 </trkpt>
 <trkpt lat="47.297733" lon="13.047677">
 <ele>656.72</ele>
 <time>2009-08-06T08:07:14Z</time>
 </trkpt>
 <trkpt lat="47.297665" lon="13.048119">
 <ele>656.72</ele>
 <time>2009-08-06T08:07:19Z</time>
 </trkpt>
 <trkpt lat="47.297615" lon="13.048873">
 <ele>657.20</ele>
 <time>2009-08-06T08:07:28Z</time>
 </trkpt>
 <trkpt lat="47.297565" lon="13.049359">
 <ele>656.72</ele>
 <time>2009-08-06T08:07:34Z</time>
 </trkpt>
 <trkpt lat="47.297550" lon="13.049531">
 <ele>656.24</ele>
 <time>2009-08-06T08:07:36Z</time>
 </trkpt>
 <trkpt lat="47.297462" lon="13.049859">
 <ele>655.76</ele>
 <time>2009-08-06T08:07:40Z</time>
 </trkpt>
 <trkpt lat="47.297131" lon="13.050571">
 <ele>653.83</ele>
 <time>2009-08-06T08:07:50Z</time>
 </trkpt>
 <trkpt lat="47.297020" lon="13.050860">
 <ele>654.31</ele>
 <time>2009-08-06T08:07:54Z</time>
 </trkpt>
 <trkpt lat="47.296914" lon="13.051153">
 <ele>653.35</ele>
 <time>2009-08-06T08:07:58Z</time>
 </trkpt>
 <trkpt lat="47.296850" lon="13.051403">
 <ele>653.35</ele>
 <time>2009-08-06T08:08:00Z</time>
 </trkpt>
 <trkpt lat="47.296754" lon="13.051654">
 <ele>652.39</ele>
 <time>2009-08-06T08:08:10Z</time>
 </trkpt>
 <trkpt lat="47.296714" lon="13.051987">
 <ele>652.39</ele>
 <time>2009-08-06T08:08:13Z</time>
 </trkpt>
 <trkpt lat="47.296674" lon="13.052286">
 <ele>652.39</ele>
 <time>2009-08-06T08:08:15Z</time>
 </trkpt>
 <trkpt lat="47.296702" lon="13.052582">
 <ele>652.87</ele>
 <time>2009-08-06T08:08:19Z</time>
 </trkpt>
 <trkpt lat="47.296695" lon="13.052864">
 <ele>653.35</ele>
 <time>2009-08-06T08:08:21Z</time>
 </trkpt>
 <trkpt lat="47.296723" lon="13.053160">
 <ele>651.91</ele>
 <time>2009-08-06T08:08:30Z</time>
 </trkpt>
 <trkpt lat="47.296704" lon="13.053359">
 <ele>651.43</ele>
 <time>2009-08-06T08:08:32Z</time>
 </trkpt>
 <trkpt lat="47.296684" lon="13.053509">
 <ele>649.99</ele>
 <time>2009-08-06T08:08:37Z</time>
 </trkpt>
 <trkpt lat="47.296664" lon="13.053642">
 <ele>649.51</ele>
 <time>2009-08-06T08:08:38Z</time>
 </trkpt>
 <trkpt lat="47.296646" lon="13.053907">
 <ele>650.47</ele>
 <time>2009-08-06T08:09:34Z</time>
 </trkpt>
 <trkpt lat="47.296638" lon="13.054122">
 <ele>650.95</ele>
 <time>2009-08-06T08:09:40Z</time>
 </trkpt>
 <trkpt lat="47.296619" lon="13.054338">
 <ele>650.95</ele>
 <time>2009-08-06T08:09:48Z</time>
 </trkpt>
 <trkpt lat="47.296611" lon="13.054504">
 <ele>649.99</ele>
 <time>2009-08-06T08:09:54Z</time>
 </trkpt>
 <trkpt lat="47.296619" lon="13.054639">
 <ele>649.03</ele>
 <time>2009-08-06T08:10:07Z</time>
 </trkpt>
 <trkpt lat="47.296600" lon="13.054791">
 <ele>649.03</ele>
 <time>2009-08-06T08:10:09Z</time>
 </trkpt>
 <trkpt lat="47.296589" lon="13.054955">
 <ele>649.03</ele>
 <time>2009-08-06T08:10:11Z</time>
 </trkpt>
 <trkpt lat="47.296566" lon="13.055491">
 <ele>648.55</ele>
 <time>2009-08-06T08:10:17Z</time>
 </trkpt>
 <trkpt lat="47.296547" lon="13.056355">
 <ele>647.10</ele>
 <time>2009-08-06T08:10:26Z</time>
 </trkpt>
 <trkpt lat="47.296566" lon="13.056941">
 <ele>647.59</ele>
 <time>2009-08-06T08:10:32Z</time>
 </trkpt>
 <trkpt lat="47.296577" lon="13.057857">
 <ele>647.10</ele>
 <time>2009-08-06T08:10:41Z</time>
 </trkpt>
 <trkpt lat="47.296524" lon="13.058444">
 <ele>645.66</ele>
 <time>2009-08-06T08:10:47Z</time>
 </trkpt>
 <trkpt lat="47.296440" lon="13.059307">
 <ele>645.18</ele>
 <time>2009-08-06T08:10:56Z</time>
 </trkpt>
 <trkpt lat="47.296276" lon="13.059874">
 <ele>645.18</ele>
 <time>2009-08-06T08:11:02Z</time>
 </trkpt>
 <trkpt lat="47.296288" lon="13.060350">
 <ele>645.18</ele>
 <time>2009-08-06T08:11:07Z</time>
 </trkpt>
 <trkpt lat="47.296303" lon="13.060442">
 <ele>644.70</ele>
 <time>2009-08-06T08:11:08Z</time>
 </trkpt>
 <trkpt lat="47.296558" lon="13.061077">
 <ele>644.70</ele>
 <time>2009-08-06T08:11:15Z</time>
 </trkpt>
 <trkpt lat="47.296665" lon="13.061336">
 <ele>643.74</ele>
 <time>2009-08-06T08:11:18Z</time>
 </trkpt>
 <trkpt lat="47.296741" lon="13.061738">
 <ele>643.74</ele>
 <time>2009-08-06T08:11:22Z</time>
 </trkpt>
 <trkpt lat="47.296783" lon="13.062692">
 <ele>644.22</ele>
 <time>2009-08-06T08:11:32Z</time>
 </trkpt>
 <trkpt lat="47.296822" lon="13.063468">
 <ele>644.70</ele>
 <time>2009-08-06T08:11:40Z</time>
 </trkpt>
 <trkpt lat="47.296894" lon="13.064045">
 <ele>643.74</ele>
 <time>2009-08-06T08:11:46Z</time>
 </trkpt>
 <trkpt lat="47.297031" lon="13.064754">
 <ele>644.70</ele>
 <time>2009-08-06T08:11:54Z</time>
 </trkpt>
 <trkpt lat="47.297195" lon="13.065574">
 <ele>643.74</ele>
 <time>2009-08-06T08:12:03Z</time>
 </trkpt>
 <trkpt lat="47.297276" lon="13.066370">
 <ele>642.30</ele>
 <time>2009-08-06T08:12:11Z</time>
 </trkpt>
 <trkpt lat="47.297321" lon="13.067379">
 <ele>641.34</ele>
 <time>2009-08-06T08:12:21Z</time>
 </trkpt>
 <trkpt lat="47.297409" lon="13.068256">
 <ele>641.82</ele>
 <time>2009-08-06T08:12:30Z</time>
 </trkpt>
 <trkpt lat="47.297546" lon="13.069198">
 <ele>641.82</ele>
 <time>2009-08-06T08:12:40Z</time>
 </trkpt>
 <trkpt lat="47.297718" lon="13.069939">
 <ele>640.38</ele>
 <time>2009-08-06T08:12:48Z</time>
 </trkpt>
 <trkpt lat="47.298004" lon="13.070842">
 <ele>639.89</ele>
 <time>2009-08-06T08:12:58Z</time>
 </trkpt>
 <trkpt lat="47.298141" lon="13.071467">
 <ele>639.89</ele>
 <time>2009-08-06T08:13:05Z</time>
 </trkpt>
 <trkpt lat="47.298336" lon="13.072360">
 <ele>639.89</ele>
 <time>2009-08-06T08:13:15Z</time>
 </trkpt>
 <trkpt lat="47.298595" lon="13.073257">
 <ele>639.89</ele>
 <time>2009-08-06T08:13:25Z</time>
 </trkpt>
 <trkpt lat="47.298782" lon="13.073955">
 <ele>639.41</ele>
 <time>2009-08-06T08:13:33Z</time>
 </trkpt>
 <trkpt lat="47.298843" lon="13.074697">
 <ele>638.45</ele>
 <time>2009-08-06T08:13:41Z</time>
 </trkpt>
 <trkpt lat="47.298729" lon="13.075526">
 <ele>638.45</ele>
 <time>2009-08-06T08:13:50Z</time>
 </trkpt>
 <trkpt lat="47.298584" lon="13.076352">
 <ele>638.45</ele>
 <time>2009-08-06T08:13:59Z</time>
 </trkpt>
 <trkpt lat="47.298546" lon="13.076623">
 <ele>637.97</ele>
 <time>2009-08-06T08:14:02Z</time>
 </trkpt>
 <trkpt lat="47.298542" lon="13.077360">
 <ele>637.49</ele>
 <time>2009-08-06T08:14:10Z</time>
 </trkpt>
 <trkpt lat="47.298595" lon="13.078399">
 <ele>637.01</ele>
 <time>2009-08-06T08:14:21Z</time>
 </trkpt>
 <trkpt lat="47.298656" lon="13.079258">
 <ele>637.01</ele>
 <time>2009-08-06T08:14:30Z</time>
 </trkpt>
 <trkpt lat="47.298782" lon="13.079987">
 <ele>636.53</ele>
 <time>2009-08-06T08:14:38Z</time>
 </trkpt>
 <trkpt lat="47.298950" lon="13.080866">
 <ele>637.01</ele>
 <time>2009-08-06T08:14:48Z</time>
 </trkpt>
 <trkpt lat="47.298969" lon="13.080956">
 <ele>636.05</ele>
 <time>2009-08-06T08:14:49Z</time>
 </trkpt>
 <trkpt lat="47.299046" lon="13.081593">
 <ele>636.53</ele>
 <time>2009-08-06T08:14:56Z</time>
 </trkpt>
 <trkpt lat="47.299152" lon="13.082426">
 <ele>635.09</ele>
 <time>2009-08-06T08:15:05Z</time>
 </trkpt>
 <trkpt lat="47.299282" lon="13.083250">
 <ele>635.09</ele>
 <time>2009-08-06T08:15:14Z</time>
 </trkpt>
 <trkpt lat="47.299381" lon="13.083949">
 <ele>635.09</ele>
 <time>2009-08-06T08:15:22Z</time>
 </trkpt>
 <trkpt lat="47.299416" lon="13.084579">
 <ele>635.09</ele>
 <time>2009-08-06T08:15:29Z</time>
 </trkpt>
 <trkpt lat="47.299423" lon="13.085454">
 <ele>636.05</ele>
 <time>2009-08-06T08:15:39Z</time>
 </trkpt>
 <trkpt lat="47.299458" lon="13.086306">
 <ele>635.09</ele>
 <time>2009-08-06T08:15:48Z</time>
 </trkpt>
 <trkpt lat="47.299572" lon="13.086973">
 <ele>634.61</ele>
 <time>2009-08-06T08:15:55Z</time>
 </trkpt>
 <trkpt lat="47.299812" lon="13.087678">
 <ele>633.65</ele>
 <time>2009-08-06T08:16:03Z</time>
 </trkpt>
 <trkpt lat="47.300159" lon="13.088540">
 <ele>633.17</ele>
 <time>2009-08-06T08:16:13Z</time>
 </trkpt>
 <trkpt lat="47.300446" lon="13.089320">
 <ele>633.17</ele>
 <time>2009-08-06T08:16:22Z</time>
 </trkpt>
 <trkpt lat="47.300671" lon="13.090097">
 <ele>632.68</ele>
 <time>2009-08-06T08:16:31Z</time>
 </trkpt>
 <trkpt lat="47.300728" lon="13.090711">
 <ele>633.17</ele>
 <time>2009-08-06T08:16:38Z</time>
 </trkpt>
 <trkpt lat="47.300705" lon="13.091429">
 <ele>633.17</ele>
 <time>2009-08-06T08:16:46Z</time>
 </trkpt>
 <trkpt lat="47.300739" lon="13.092048">
 <ele>632.68</ele>
 <time>2009-08-06T08:16:53Z</time>
 </trkpt>
 <trkpt lat="47.300854" lon="13.092670">
 <ele>632.20</ele>
 <time>2009-08-06T08:17:00Z</time>
 </trkpt>
 <trkpt lat="47.300968" lon="13.093470">
 <ele>632.68</ele>
 <time>2009-08-06T08:17:09Z</time>
 </trkpt>
 <trkpt lat="47.301083" lon="13.094323">
 <ele>633.65</ele>
 <time>2009-08-06T08:17:19Z</time>
 </trkpt>
 <trkpt lat="47.301266" lon="13.095159">
 <ele>633.65</ele>
 <time>2009-08-06T08:17:29Z</time>
 </trkpt>
 <trkpt lat="47.301346" lon="13.095769">
 <ele>633.17</ele>
 <time>2009-08-06T08:17:36Z</time>
 </trkpt>
 <trkpt lat="47.301388" lon="13.096613">
 <ele>632.20</ele>
 <time>2009-08-06T08:17:45Z</time>
 </trkpt>
 <trkpt lat="47.301449" lon="13.097485">
 <ele>632.20</ele>
 <time>2009-08-06T08:17:54Z</time>
 </trkpt>
 <trkpt lat="47.301605" lon="13.098466">
 <ele>629.80</ele>
 <time>2009-08-06T08:18:04Z</time>
 </trkpt>
 <trkpt lat="47.301739" lon="13.099249">
 <ele>629.32</ele>
 <time>2009-08-06T08:18:12Z</time>
 </trkpt>
 <trkpt lat="47.301819" lon="13.100006">
 <ele>629.32</ele>
 <time>2009-08-06T08:18:20Z</time>
 </trkpt>
 <trkpt lat="47.301807" lon="13.100185">
 <ele>628.36</ele>
 <time>2009-08-06T08:18:22Z</time>
 </trkpt>
 <trkpt lat="47.301693" lon="13.100762">
 <ele>629.32</ele>
 <time>2009-08-06T08:18:29Z</time>
 </trkpt>
 <trkpt lat="47.301533" lon="13.101005">
 <ele>628.84</ele>
 <time>2009-08-06T08:18:33Z</time>
 </trkpt>
 <trkpt lat="47.301384" lon="13.101223">
 <ele>629.32</ele>
 <time>2009-08-06T08:18:37Z</time>
 </trkpt>
 <trkpt lat="47.301357" lon="13.101787">
 <ele>631.72</ele>
 <time>2009-08-06T08:18:46Z</time>
 </trkpt>
 <trkpt lat="47.301342" lon="13.102405">
 <ele>633.17</ele>
 <time>2009-08-06T08:18:57Z</time>
 </trkpt>
 <trkpt lat="47.301430" lon="13.102736">
 <ele>633.65</ele>
 <time>2009-08-06T08:19:03Z</time>
 </trkpt>
 <trkpt lat="47.301567" lon="13.103197">
 <ele>633.65</ele>
 <time>2009-08-06T08:19:11Z</time>
 </trkpt>
 <trkpt lat="47.301819" lon="13.103705">
 <ele>635.09</ele>
 <time>2009-08-06T08:19:21Z</time>
 </trkpt>
 <trkpt lat="47.302017" lon="13.104169">
 <ele>636.53</ele>
 <time>2009-08-06T08:19:30Z</time>
 </trkpt>
 <trkpt lat="47.302166" lon="13.104676">
 <ele>637.01</ele>
 <time>2009-08-06T08:19:39Z</time>
 </trkpt>
 <trkpt lat="47.302273" lon="13.105221">
 <ele>636.05</ele>
 <time>2009-08-06T08:19:47Z</time>
 </trkpt>
 <trkpt lat="47.302280" lon="13.105339">
 <ele>635.57</ele>
 <time>2009-08-06T08:19:49Z</time>
 </trkpt>
 <trkpt lat="47.302219" lon="13.105433">
 <ele>635.57</ele>
 <time>2009-08-06T08:19:51Z</time>
 </trkpt>
 <trkpt lat="47.302212" lon="13.105866">
 <ele>637.97</ele>
 <time>2009-08-06T08:19:57Z</time>
 </trkpt>
 <trkpt lat="47.302219" lon="13.106120">
 <ele>638.93</ele>
 <time>2009-08-06T08:20:03Z</time>
 </trkpt>
 <trkpt lat="47.302223" lon="13.106173">
 <ele>638.45</ele>
 <time>2009-08-06T08:20:06Z</time>
 </trkpt>
 <trkpt lat="47.302315" lon="13.106266">
 <ele>636.53</ele>
 <time>2009-08-06T08:26:25Z</time>
 </trkpt>
 <trkpt lat="47.302322" lon="13.106296">
 <ele>636.05</ele>
 <time>2009-08-06T08:26:26Z</time>
 </trkpt>
 <trkpt lat="47.302315" lon="13.106332">
 <ele>635.09</ele>
 <time>2009-08-06T08:26:27Z</time>
 </trkpt>
 <trkpt lat="47.302315" lon="13.106378">
 <ele>635.09</ele>
 <time>2009-08-06T08:26:28Z</time>
 </trkpt>
 <trkpt lat="47.302311" lon="13.106497">
 <ele>635.57</ele>
 <time>2009-08-06T08:26:29Z</time>
 </trkpt>
 <trkpt lat="47.302383" lon="13.106977">
 <ele>634.61</ele>
 <time>2009-08-06T08:26:35Z</time>
 </trkpt>
 <trkpt lat="47.302505" lon="13.107686">
 <ele>632.20</ele>
 <time>2009-08-06T08:26:42Z</time>
 </trkpt>
 <trkpt lat="47.302528" lon="13.107906">
 <ele>631.24</ele>
 <time>2009-08-06T08:26:44Z</time>
 </trkpt>
 <trkpt lat="47.302628" lon="13.108627">
 <ele>629.32</ele>
 <time>2009-08-06T08:26:50Z</time>
 </trkpt>
 <trkpt lat="47.302685" lon="13.108967">
 <ele>629.80</ele>
 <time>2009-08-06T08:26:53Z</time>
 </trkpt>
 <trkpt lat="47.302738" lon="13.109215">
 <ele>630.28</ele>
 <time>2009-08-06T08:26:57Z</time>
 </trkpt>
 <trkpt lat="47.302765" lon="13.109459">
 <ele>632.20</ele>
 <time>2009-08-06T08:27:04Z</time>
 </trkpt>
 <trkpt lat="47.302814" lon="13.109669">
 <ele>634.13</ele>
 <time>2009-08-06T08:27:12Z</time>
 </trkpt>
 <trkpt lat="47.302849" lon="13.109797">
 <ele>635.57</ele>
 <time>2009-08-06T08:27:17Z</time>
 </trkpt>
 <trkpt lat="47.302933" lon="13.109933">
 <ele>637.01</ele>
 <time>2009-08-06T08:27:24Z</time>
 </trkpt>
 <trkpt lat="47.302979" lon="13.110040">
 <ele>638.45</ele>
 <time>2009-08-06T08:27:29Z</time>
 </trkpt>
 <trkpt lat="47.303047" lon="13.110190">
 <ele>640.38</ele>
 <time>2009-08-06T08:27:36Z</time>
 </trkpt>
 <trkpt lat="47.303074" lon="13.110318">
 <ele>641.82</ele>
 <time>2009-08-06T08:27:41Z</time>
 </trkpt>
 <trkpt lat="47.303127" lon="13.110481">
 <ele>643.26</ele>
 <time>2009-08-06T08:27:48Z</time>
 </trkpt>
 <trkpt lat="47.303207" lon="13.110636">
 <ele>645.18</ele>
 <time>2009-08-06T08:27:57Z</time>
 </trkpt>
 <trkpt lat="47.303284" lon="13.110821">
 <ele>647.10</ele>
 <time>2009-08-06T08:28:07Z</time>
 </trkpt>
 <trkpt lat="47.303345" lon="13.110975">
 <ele>649.03</ele>
 <time>2009-08-06T08:28:16Z</time>
 </trkpt>
 <trkpt lat="47.303364" lon="13.111067">
 <ele>650.47</ele>
 <time>2009-08-06T08:28:21Z</time>
 </trkpt>
 <trkpt lat="47.303387" lon="13.111215">
 <ele>651.91</ele>
 <time>2009-08-06T08:28:29Z</time>
 </trkpt>
 <trkpt lat="47.303383" lon="13.111428">
 <ele>654.80</ele>
 <time>2009-08-06T08:28:39Z</time>
 </trkpt>
 <trkpt lat="47.303375" lon="13.111594">
 <ele>654.80</ele>
 <time>2009-08-06T08:28:47Z</time>
 </trkpt>
 <trkpt lat="47.303379" lon="13.111794">
 <ele>656.24</ele>
 <time>2009-08-06T08:28:56Z</time>
 </trkpt>
 <trkpt lat="47.303364" lon="13.111977">
 <ele>657.68</ele>
 <time>2009-08-06T08:29:04Z</time>
 </trkpt>
 <trkpt lat="47.303371" lon="13.112245">
 <ele>658.64</ele>
 <time>2009-08-06T08:29:16Z</time>
 </trkpt>
 <trkpt lat="47.303360" lon="13.112437">
 <ele>660.08</ele>
 <time>2009-08-06T08:29:25Z</time>
 </trkpt>
 <trkpt lat="47.303360" lon="13.112618">
 <ele>661.04</ele>
 <time>2009-08-06T08:29:33Z</time>
 </trkpt>
 <trkpt lat="47.303371" lon="13.112850">
 <ele>662.49</ele>
 <time>2009-08-06T08:29:43Z</time>
 </trkpt>
 <trkpt lat="47.303398" lon="13.113118">
 <ele>664.41</ele>
 <time>2009-08-06T08:29:55Z</time>
 </trkpt>
 <trkpt lat="47.303490" lon="13.113374">
 <ele>666.33</ele>
 <time>2009-08-06T08:30:08Z</time>
 </trkpt>
 <trkpt lat="47.303604" lon="13.113525">
 <ele>667.29</ele>
 <time>2009-08-06T08:30:18Z</time>
 </trkpt>
 <trkpt lat="47.303715" lon="13.113634">
 <ele>669.22</ele>
 <time>2009-08-06T08:30:27Z</time>
 </trkpt>
 <trkpt lat="47.303841" lon="13.113745">
 <ele>671.14</ele>
 <time>2009-08-06T08:30:37Z</time>
 </trkpt>
 <trkpt lat="47.303959" lon="13.113900">
 <ele>673.06</ele>
 <time>2009-08-06T08:30:48Z</time>
 </trkpt>
 <trkpt lat="47.304050" lon="13.114009">
 <ele>674.98</ele>
 <time>2009-08-06T08:30:56Z</time>
 </trkpt>
 <trkpt lat="47.304092" lon="13.114134">
 <ele>676.91</ele>
 <time>2009-08-06T08:31:03Z</time>
 </trkpt>
 <trkpt lat="47.304104" lon="13.114290">
 <ele>678.83</ele>
 <time>2009-08-06T08:31:11Z</time>
 </trkpt>
 <trkpt lat="47.304100" lon="13.114459">
 <ele>680.27</ele>
 <time>2009-08-06T08:31:19Z</time>
 </trkpt>
 <trkpt lat="47.304066" lon="13.114640">
 <ele>681.71</ele>
 <time>2009-08-06T08:31:27Z</time>
 </trkpt>
 <trkpt lat="47.304062" lon="13.114826">
 <ele>681.71</ele>
 <time>2009-08-06T08:31:34Z</time>
 </trkpt>
 <trkpt lat="47.304043" lon="13.115062">
 <ele>682.67</ele>
 <time>2009-08-06T08:31:42Z</time>
 </trkpt>
 <trkpt lat="47.303989" lon="13.115317">
 <ele>683.63</ele>
 <time>2009-08-06T08:31:49Z</time>
 </trkpt>
 <trkpt lat="47.303932" lon="13.115585">
 <ele>683.63</ele>
 <time>2009-08-06T08:31:57Z</time>
 </trkpt>
 <trkpt lat="47.303902" lon="13.115842">
 <ele>684.12</ele>
 <time>2009-08-06T08:32:04Z</time>
 </trkpt>
 <trkpt lat="47.303913" lon="13.116131">
 <ele>686.04</ele>
 <time>2009-08-06T08:32:12Z</time>
 </trkpt>
 <trkpt lat="47.303917" lon="13.116334">
 <ele>686.04</ele>
 <time>2009-08-06T08:32:19Z</time>
 </trkpt>
 <trkpt lat="47.303925" lon="13.116575">
 <ele>688.44</ele>
 <time>2009-08-06T08:32:28Z</time>
 </trkpt>
 <trkpt lat="47.303921" lon="13.116776">
 <ele>690.84</ele>
 <time>2009-08-06T08:32:36Z</time>
 </trkpt>
 <trkpt lat="47.303936" lon="13.117035">
 <ele>693.25</ele>
 <time>2009-08-06T08:32:46Z</time>
 </trkpt>
 <trkpt lat="47.303940" lon="13.117292">
 <ele>693.25</ele>
 <time>2009-08-06T08:32:56Z</time>
 </trkpt>
 <trkpt lat="47.303970" lon="13.117535">
 <ele>694.69</ele>
 <time>2009-08-06T08:33:05Z</time>
 </trkpt>
 <trkpt lat="47.304043" lon="13.117834">
 <ele>696.13</ele>
 <time>2009-08-06T08:33:16Z</time>
 </trkpt>
 <trkpt lat="47.304142" lon="13.118140">
 <ele>698.53</ele>
 <time>2009-08-06T08:33:28Z</time>
 </trkpt>
 <trkpt lat="47.304195" lon="13.118329">
 <ele>700.46</ele>
 <time>2009-08-06T08:33:37Z</time>
 </trkpt>
 <trkpt lat="47.304241" lon="13.118582">
 <ele>702.86</ele>
 <time>2009-08-06T08:33:49Z</time>
 </trkpt>
 <trkpt lat="47.304283" lon="13.118823">
 <ele>705.26</ele>
 <time>2009-08-06T08:34:00Z</time>
 </trkpt>
 <trkpt lat="47.304325" lon="13.119033">
 <ele>707.19</ele>
 <time>2009-08-06T08:34:10Z</time>
 </trkpt>
 <trkpt lat="47.304337" lon="13.119187">
 <ele>708.63</ele>
 <time>2009-08-06T08:34:17Z</time>
 </trkpt>
 <trkpt lat="47.304359" lon="13.119384">
 <ele>710.55</ele>
 <time>2009-08-06T08:34:26Z</time>
 </trkpt>
 <trkpt lat="47.304386" lon="13.119534">
 <ele>712.47</ele>
 <time>2009-08-06T08:34:33Z</time>
 </trkpt>
 <trkpt lat="47.304398" lon="13.119684">
 <ele>713.92</ele>
 <time>2009-08-06T08:34:40Z</time>
 </trkpt>
 <trkpt lat="47.304424" lon="13.119831">
 <ele>715.36</ele>
 <time>2009-08-06T08:34:47Z</time>
 </trkpt>
 <trkpt lat="47.304462" lon="13.120016">
 <ele>716.80</ele>
 <time>2009-08-06T08:34:56Z</time>
 </trkpt>
 <trkpt lat="47.304527" lon="13.120243">
 <ele>718.24</ele>
 <time>2009-08-06T08:35:07Z</time>
 </trkpt>
 <trkpt lat="47.304581" lon="13.120462">
 <ele>719.68</ele>
 <time>2009-08-06T08:35:17Z</time>
 </trkpt>
 <trkpt lat="47.304630" lon="13.120686">
 <ele>720.65</ele>
 <time>2009-08-06T08:35:27Z</time>
 </trkpt>
 <trkpt lat="47.304665" lon="13.120918">
 <ele>722.09</ele>
 <time>2009-08-06T08:35:38Z</time>
 </trkpt>
 <trkpt lat="47.304718" lon="13.121180">
 <ele>723.05</ele>
 <time>2009-08-06T08:35:49Z</time>
 </trkpt>
 <trkpt lat="47.304676" lon="13.121378">
 <ele>723.53</ele>
 <time>2009-08-06T08:35:56Z</time>
 </trkpt>
 <trkpt lat="47.304558" lon="13.121481">
 <ele>723.53</ele>
 <time>2009-08-06T08:36:02Z</time>
 </trkpt>
 <trkpt lat="47.304401" lon="13.121590">
 <ele>723.05</ele>
 <time>2009-08-06T08:36:09Z</time>
 </trkpt>
 <trkpt lat="47.304245" lon="13.121704">
 <ele>723.05</ele>
 <time>2009-08-06T08:36:16Z</time>
 </trkpt>
 <trkpt lat="47.304138" lon="13.121789">
 <ele>723.53</ele>
 <time>2009-08-06T08:36:22Z</time>
 </trkpt>
 <trkpt lat="47.304157" lon="13.121941">
 <ele>723.05</ele>
 <time>2009-08-06T08:36:27Z</time>
 </trkpt>
 <trkpt lat="47.304188" lon="13.122264">
 <ele>724.49</ele>
 <time>2009-08-06T08:36:36Z</time>
 </trkpt>
 <trkpt lat="47.304161" lon="13.122439">
 <ele>725.45</ele>
 <time>2009-08-06T08:36:42Z</time>
 </trkpt>
 <trkpt lat="47.304146" lon="13.122629">
 <ele>725.93</ele>
 <time>2009-08-06T08:36:49Z</time>
 </trkpt>
 <trkpt lat="47.304153" lon="13.122834">
 <ele>727.37</ele>
 <time>2009-08-06T08:36:57Z</time>
 </trkpt>
 <trkpt lat="47.304150" lon="13.122993">
 <ele>728.82</ele>
 <time>2009-08-06T08:37:03Z</time>
 </trkpt>
 <trkpt lat="47.304192" lon="13.123219">
 <ele>729.78</ele>
 <time>2009-08-06T08:37:11Z</time>
 </trkpt>
 <trkpt lat="47.304237" lon="13.123413">
 <ele>731.70</ele>
 <time>2009-08-06T08:37:19Z</time>
 </trkpt>
 <trkpt lat="47.304253" lon="13.123466">
 <ele>732.66</ele>
 <time>2009-08-06T08:37:21Z</time>
 </trkpt>
 <trkpt lat="47.304310" lon="13.123667">
 <ele>734.58</ele>
 <time>2009-08-06T08:37:29Z</time>
 </trkpt>
 <trkpt lat="47.304386" lon="13.123861">
 <ele>736.03</ele>
 <time>2009-08-06T08:37:37Z</time>
 </trkpt>
 <trkpt lat="47.304493" lon="13.124061">
 <ele>737.95</ele>
 <time>2009-08-06T08:37:46Z</time>
 </trkpt>
 <trkpt lat="47.304607" lon="13.124235">
 <ele>738.91</ele>
 <time>2009-08-06T08:37:55Z</time>
 </trkpt>
 <trkpt lat="47.304729" lon="13.124451">
 <ele>739.87</ele>
 <time>2009-08-06T08:38:05Z</time>
 </trkpt>
 <trkpt lat="47.304848" lon="13.124639">
 <ele>741.31</ele>
 <time>2009-08-06T08:38:14Z</time>
 </trkpt>
 <trkpt lat="47.304970" lon="13.124880">
 <ele>743.24</ele>
 <time>2009-08-06T08:38:25Z</time>
 </trkpt>
 <trkpt lat="47.305046" lon="13.125188">
 <ele>744.20</ele>
 <time>2009-08-06T08:38:37Z</time>
 </trkpt>
 <trkpt lat="47.305077" lon="13.125490">
 <ele>746.60</ele>
 <time>2009-08-06T08:38:48Z</time>
 </trkpt>
 <trkpt lat="47.305099" lon="13.125702">
 <ele>747.56</ele>
 <time>2009-08-06T08:38:55Z</time>
 </trkpt>
 <trkpt lat="47.305153" lon="13.125865">
 <ele>746.60</ele>
 <time>2009-08-06T08:38:59Z</time>
 </trkpt>
 <trkpt lat="47.305359" lon="13.126155">
 <ele>744.20</ele>
 <time>2009-08-06T08:39:04Z</time>
 </trkpt>
 <trkpt lat="47.305622" lon="13.126345">
 <ele>741.31</ele>
 <time>2009-08-06T08:39:08Z</time>
 </trkpt>
 <trkpt lat="47.305885" lon="13.126658">
 <ele>738.43</ele>
 <time>2009-08-06T08:39:13Z</time>
 </trkpt>
 <trkpt lat="47.305923" lon="13.126729">
 <ele>738.43</ele>
 <time>2009-08-06T08:39:14Z</time>
 </trkpt>
 <trkpt lat="47.306011" lon="13.127041">
 <ele>740.35</ele>
 <time>2009-08-06T08:39:19Z</time>
 </trkpt>
 <trkpt lat="47.306000" lon="13.127201">
 <ele>741.31</ele>
 <time>2009-08-06T08:39:24Z</time>
 </trkpt>
 <trkpt lat="47.305943" lon="13.127418">
 <ele>742.76</ele>
 <time>2009-08-06T08:39:33Z</time>
 </trkpt>
 <trkpt lat="47.305912" lon="13.127610">
 <ele>745.16</ele>
 <time>2009-08-06T08:39:41Z</time>
 </trkpt>
 <trkpt lat="47.305981" lon="13.127788">
 <ele>747.08</ele>
 <time>2009-08-06T08:39:49Z</time>
 </trkpt>
 <trkpt lat="47.306049" lon="13.127935">
 <ele>749.97</ele>
 <time>2009-08-06T08:39:56Z</time>
 </trkpt>
 <trkpt lat="47.306137" lon="13.128022">
 <ele>749.97</ele>
 <time>2009-08-06T08:40:01Z</time>
 </trkpt>
 <trkpt lat="47.306305" lon="13.128164">
 <ele>749.97</ele>
 <time>2009-08-06T08:40:08Z</time>
 </trkpt>
 <trkpt lat="47.306557" lon="13.128352">
 <ele>749.97</ele>
 <time>2009-08-06T08:40:16Z</time>
 </trkpt>
 <trkpt lat="47.306786" lon="13.128565">
 <ele>749.97</ele>
 <time>2009-08-06T08:40:23Z</time>
 </trkpt>
 <trkpt lat="47.306889" lon="13.128765">
 <ele>749.97</ele>
 <time>2009-08-06T08:40:27Z</time>
 </trkpt>
 <trkpt lat="47.306995" lon="13.129343">
 <ele>750.45</ele>
 <time>2009-08-06T08:40:36Z</time>
 </trkpt>
 <trkpt lat="47.307083" lon="13.129902">
 <ele>750.45</ele>
 <time>2009-08-06T08:40:44Z</time>
 </trkpt>
 <trkpt lat="47.307095" lon="13.129971">
 <ele>750.45</ele>
 <time>2009-08-06T08:40:45Z</time>
 </trkpt>
 <trkpt lat="47.307201" lon="13.130199">
 <ele>750.93</ele>
 <time>2009-08-06T08:40:49Z</time>
 </trkpt>
 <trkpt lat="47.307285" lon="13.130529">
 <ele>750.45</ele>
 <time>2009-08-06T08:40:54Z</time>
 </trkpt>
 <trkpt lat="47.307281" lon="13.130601">
 <ele>750.45</ele>
 <time>2009-08-06T08:40:55Z</time>
 </trkpt>
 <trkpt lat="47.307270" lon="13.130745">
 <ele>750.45</ele>
 <time>2009-08-06T08:40:57Z</time>
 </trkpt>
 <trkpt lat="47.307320" lon="13.131093">
 <ele>750.93</ele>
 <time>2009-08-06T08:41:02Z</time>
 </trkpt>
 <trkpt lat="47.307438" lon="13.131506">
 <ele>750.45</ele>
 <time>2009-08-06T08:41:08Z</time>
 </trkpt>
 <trkpt lat="47.307514" lon="13.131946">
 <ele>750.45</ele>
 <time>2009-08-06T08:41:14Z</time>
 </trkpt>
 <trkpt lat="47.307598" lon="13.132628">
 <ele>750.93</ele>
 <time>2009-08-06T08:41:23Z</time>
 </trkpt>
 <trkpt lat="47.307663" lon="13.133148">
 <ele>750.93</ele>
 <time>2009-08-06T08:41:30Z</time>
 </trkpt>
 <trkpt lat="47.307663" lon="13.133760">
 <ele>750.93</ele>
 <time>2009-08-06T08:41:38Z</time>
 </trkpt>
 <trkpt lat="47.307652" lon="13.134062">
 <ele>750.45</ele>
 <time>2009-08-06T08:41:42Z</time>
 </trkpt>
 <trkpt lat="47.307583" lon="13.134315">
 <ele>750.45</ele>
 <time>2009-08-06T08:41:46Z</time>
 </trkpt>
 <trkpt lat="47.307388" lon="13.134629">
 <ele>750.45</ele>
 <time>2009-08-06T08:41:52Z</time>
 </trkpt>
 <trkpt lat="47.307320" lon="13.134871">
 <ele>750.45</ele>
 <time>2009-08-06T08:41:56Z</time>
 </trkpt>
 <trkpt lat="47.307388" lon="13.135080">
 <ele>747.56</ele>
 <time>2009-08-06T08:41:59Z</time>
 </trkpt>
 <trkpt lat="47.307442" lon="13.135153">
 <ele>747.56</ele>
 <time>2009-08-06T08:42:00Z</time>
 </trkpt>
 <trkpt lat="47.307648" lon="13.135392">
 <ele>744.20</ele>
 <time>2009-08-06T08:42:03Z</time>
 </trkpt>
 <trkpt lat="47.307800" lon="13.135571">
 <ele>743.24</ele>
 <time>2009-08-06T08:42:05Z</time>
 </trkpt>
 <trkpt lat="47.308254" lon="13.136051">
 <ele>742.28</ele>
 <time>2009-08-06T08:42:11Z</time>
 </trkpt>
 <trkpt lat="47.308399" lon="13.136173">
 <ele>741.31</ele>
 <time>2009-08-06T08:42:13Z</time>
 </trkpt>
 <trkpt lat="47.308689" lon="13.136243">
 <ele>740.35</ele>
 <time>2009-08-06T08:42:17Z</time>
 </trkpt>
 <trkpt lat="47.308842" lon="13.136053">
 <ele>740.83</ele>
 <time>2009-08-06T08:42:20Z</time>
 </trkpt>
 <trkpt lat="47.308884" lon="13.135872">
 <ele>741.31</ele>
 <time>2009-08-06T08:42:22Z</time>
 </trkpt>
 <trkpt lat="47.308918" lon="13.135591">
 <ele>740.35</ele>
 <time>2009-08-06T08:42:25Z</time>
 </trkpt>
 <trkpt lat="47.309128" lon="13.135097">
 <ele>739.87</ele>
 <time>2009-08-06T08:42:31Z</time>
 </trkpt>
 <trkpt lat="47.309307" lon="13.134818">
 <ele>739.87</ele>
 <time>2009-08-06T08:42:35Z</time>
 </trkpt>
 <trkpt lat="47.309460" lon="13.134382">
 <ele>738.91</ele>
 <time>2009-08-06T08:42:40Z</time>
 </trkpt>
 <trkpt lat="47.309673" lon="13.133657">
 <ele>738.91</ele>
 <time>2009-08-06T08:42:48Z</time>
 </trkpt>
 <trkpt lat="47.309868" lon="13.133041">
 <ele>738.91</ele>
 <time>2009-08-06T08:42:55Z</time>
 </trkpt>
 <trkpt lat="47.310005" lon="13.132759">
 <ele>737.47</ele>
 <time>2009-08-06T08:42:59Z</time>
 </trkpt>
 <trkpt lat="47.310169" lon="13.132762">
 <ele>736.99</ele>
 <time>2009-08-06T08:43:02Z</time>
 </trkpt>
 <trkpt lat="47.310303" lon="13.132950">
 <ele>737.47</ele>
 <time>2009-08-06T08:43:05Z</time>
 </trkpt>
 <trkpt lat="47.310333" lon="13.133032">
 <ele>736.51</ele>
 <time>2009-08-06T08:43:06Z</time>
 </trkpt>
 <trkpt lat="47.310562" lon="13.133497">
 <ele>735.55</ele>
 <time>2009-08-06T08:43:12Z</time>
 </trkpt>
 <trkpt lat="47.310860" lon="13.133897">
 <ele>735.07</ele>
 <time>2009-08-06T08:43:18Z</time>
 </trkpt>
 <trkpt lat="47.311005" lon="13.134325">
 <ele>733.62</ele>
 <time>2009-08-06T08:43:23Z</time>
 </trkpt>
 <trkpt lat="47.311016" lon="13.134419">
 <ele>734.10</ele>
 <time>2009-08-06T08:43:24Z</time>
 </trkpt>
 <trkpt lat="47.311073" lon="13.135076">
 <ele>733.62</ele>
 <time>2009-08-06T08:43:31Z</time>
 </trkpt>
 <trkpt lat="47.311295" lon="13.135741">
 <ele>732.66</ele>
 <time>2009-08-06T08:43:39Z</time>
 </trkpt>
 <trkpt lat="47.311363" lon="13.136015">
 <ele>731.22</ele>
 <time>2009-08-06T08:43:42Z</time>
 </trkpt>
 <trkpt lat="47.311512" lon="13.136511">
 <ele>727.37</ele>
 <time>2009-08-06T08:43:47Z</time>
 </trkpt>
 <trkpt lat="47.311634" lon="13.136780">
 <ele>723.53</ele>
 <time>2009-08-06T08:43:50Z</time>
 </trkpt>
 <trkpt lat="47.311844" lon="13.137227">
 <ele>719.68</ele>
 <time>2009-08-06T08:43:55Z</time>
 </trkpt>
 <trkpt lat="47.311886" lon="13.137321">
 <ele>719.68</ele>
 <time>2009-08-06T08:43:56Z</time>
 </trkpt>
 <trkpt lat="47.311974" lon="13.137588">
 <ele>717.28</ele>
 <time>2009-08-06T08:43:59Z</time>
 </trkpt>
 <trkpt lat="47.312126" lon="13.138239">
 <ele>713.92</ele>
 <time>2009-08-06T08:44:05Z</time>
 </trkpt>
 <trkpt lat="47.312172" lon="13.138593">
 <ele>711.99</ele>
 <time>2009-08-06T08:44:08Z</time>
 </trkpt>
 <trkpt lat="47.312180" lon="13.138901">
 <ele>710.07</ele>
 <time>2009-08-06T08:44:11Z</time>
 </trkpt>
 <trkpt lat="47.312183" lon="13.138998">
 <ele>710.07</ele>
 <time>2009-08-06T08:44:12Z</time>
 </trkpt>
 <trkpt lat="47.312180" lon="13.139667">
 <ele>707.67</ele>
 <time>2009-08-06T08:44:19Z</time>
 </trkpt>
 <trkpt lat="47.312107" lon="13.140063">
 <ele>706.71</ele>
 <time>2009-08-06T08:44:23Z</time>
 </trkpt>
 <trkpt lat="47.312080" lon="13.140172">
 <ele>706.71</ele>
 <time>2009-08-06T08:44:24Z</time>
 </trkpt>
 <trkpt lat="47.312073" lon="13.140464">
 <ele>704.30</ele>
 <time>2009-08-06T08:44:27Z</time>
 </trkpt>
 <trkpt lat="47.312187" lon="13.140653">
 <ele>704.30</ele>
 <time>2009-08-06T08:44:30Z</time>
 </trkpt>
 <trkpt lat="47.312237" lon="13.140697">
 <ele>704.30</ele>
 <time>2009-08-06T08:44:31Z</time>
 </trkpt>
 <trkpt lat="47.312538" lon="13.141113">
 <ele>703.82</ele>
 <time>2009-08-06T08:44:38Z</time>
 </trkpt>
 <trkpt lat="47.312630" lon="13.141255">
 <ele>703.34</ele>
 <time>2009-08-06T08:44:40Z</time>
 </trkpt>
 <trkpt lat="47.312866" lon="13.141454">
 <ele>701.90</ele>
 <time>2009-08-06T08:44:44Z</time>
 </trkpt>
 <trkpt lat="47.313095" lon="13.141647">
 <ele>699.98</ele>
 <time>2009-08-06T08:44:48Z</time>
 </trkpt>
 <trkpt lat="47.313137" lon="13.141903">
 <ele>699.50</ele>
 <time>2009-08-06T08:44:51Z</time>
 </trkpt>
 <trkpt lat="47.313133" lon="13.141993">
 <ele>699.98</ele>
 <time>2009-08-06T08:44:52Z</time>
 </trkpt>
 <trkpt lat="47.313114" lon="13.142472">
 <ele>697.09</ele>
 <time>2009-08-06T08:44:57Z</time>
 </trkpt>
 <trkpt lat="47.313114" lon="13.142576">
 <ele>697.09</ele>
 <time>2009-08-06T08:44:58Z</time>
 </trkpt>
 <trkpt lat="47.313164" lon="13.142879">
 <ele>696.61</ele>
 <time>2009-08-06T08:45:01Z</time>
 </trkpt>
 <trkpt lat="47.313412" lon="13.143345">
 <ele>695.17</ele>
 <time>2009-08-06T08:45:07Z</time>
 </trkpt>
 <trkpt lat="47.313614" lon="13.143925">
 <ele>693.73</ele>
 <time>2009-08-06T08:45:14Z</time>
 </trkpt>
 <trkpt lat="47.313721" lon="13.144315">
 <ele>692.77</ele>
 <time>2009-08-06T08:45:18Z</time>
 </trkpt>
 <trkpt lat="47.313801" lon="13.144647">
 <ele>690.36</ele>
 <time>2009-08-06T08:45:21Z</time>
 </trkpt>
 <trkpt lat="47.313927" lon="13.145192">
 <ele>688.44</ele>
 <time>2009-08-06T08:45:26Z</time>
 </trkpt>
 <trkpt lat="47.313976" lon="13.145407">
 <ele>686.04</ele>
 <time>2009-08-06T08:45:28Z</time>
 </trkpt>
 <trkpt lat="47.314117" lon="13.145885">
 <ele>682.67</ele>
 <time>2009-08-06T08:45:33Z</time>
 </trkpt>
 <trkpt lat="47.314167" lon="13.146077">
 <ele>681.23</ele>
 <time>2009-08-06T08:45:35Z</time>
 </trkpt>
 <trkpt lat="47.314198" lon="13.146174">
 <ele>681.23</ele>
 <time>2009-08-06T08:45:36Z</time>
 </trkpt>
 <trkpt lat="47.314384" lon="13.146489">
 <ele>676.42</ele>
 <time>2009-08-06T08:45:40Z</time>
 </trkpt>
 <trkpt lat="47.314442" lon="13.146544">
 <ele>675.94</ele>
 <time>2009-08-06T08:45:41Z</time>
 </trkpt>
 <trkpt lat="47.314556" lon="13.146641">
 <ele>673.54</ele>
 <time>2009-08-06T08:45:43Z</time>
 </trkpt>
 <trkpt lat="47.314743" lon="13.146978">
 <ele>670.66</ele>
 <time>2009-08-06T08:45:47Z</time>
 </trkpt>
 <trkpt lat="47.314770" lon="13.147097">
 <ele>668.73</ele>
 <time>2009-08-06T08:45:48Z</time>
 </trkpt>
 <trkpt lat="47.314854" lon="13.147539">
 <ele>663.93</ele>
 <time>2009-08-06T08:45:52Z</time>
 </trkpt>
 <trkpt lat="47.314896" lon="13.147723">
 <ele>661.52</ele>
 <time>2009-08-06T08:45:54Z</time>
 </trkpt>
 <trkpt lat="47.315044" lon="13.147986">
 <ele>659.12</ele>
 <time>2009-08-06T08:45:58Z</time>
 </trkpt>
 <trkpt lat="47.315102" lon="13.148029">
 <ele>658.64</ele>
 <time>2009-08-06T08:45:59Z</time>
 </trkpt>
 <trkpt lat="47.315315" lon="13.148144">
 <ele>657.20</ele>
 <time>2009-08-06T08:46:02Z</time>
 </trkpt>
 <trkpt lat="47.315544" lon="13.148248">
 <ele>654.31</ele>
 <time>2009-08-06T08:46:05Z</time>
 </trkpt>
 <trkpt lat="47.315678" lon="13.148296">
 <ele>652.87</ele>
 <time>2009-08-06T08:46:07Z</time>
 </trkpt>
 <trkpt lat="47.315868" lon="13.148370">
 <ele>649.03</ele>
 <time>2009-08-06T08:46:10Z</time>
 </trkpt>
 <trkpt lat="47.316113" lon="13.148483">
 <ele>646.62</ele>
 <time>2009-08-06T08:46:14Z</time>
 </trkpt>
 <trkpt lat="47.316383" lon="13.148632">
 <ele>642.78</ele>
 <time>2009-08-06T08:46:19Z</time>
 </trkpt>
 <trkpt lat="47.316540" lon="13.148711">
 <ele>638.93</ele>
 <time>2009-08-06T08:46:22Z</time>
 </trkpt>
 <trkpt lat="47.316711" lon="13.148965">
 <ele>636.53</ele>
 <time>2009-08-06T08:46:27Z</time>
 </trkpt>
 <trkpt lat="47.316719" lon="13.149035">
 <ele>635.57</ele>
 <time>2009-08-06T08:46:28Z</time>
 </trkpt>
 <trkpt lat="47.316738" lon="13.149232">
 <ele>633.65</ele>
 <time>2009-08-06T08:46:31Z</time>
 </trkpt>
 <trkpt lat="47.316811" lon="13.149369">
 <ele>632.20</ele>
 <time>2009-08-06T08:46:34Z</time>
 </trkpt>
 <trkpt lat="47.316875" lon="13.149409">
 <ele>631.24</ele>
 <time>2009-08-06T08:46:36Z</time>
 </trkpt>
 <trkpt lat="47.317009" lon="13.149400">
 <ele>630.28</ele>
 <time>2009-08-06T08:46:39Z</time>
 </trkpt>
 <trkpt lat="47.317062" lon="13.149377">
 <ele>629.32</ele>
 <time>2009-08-06T08:46:40Z</time>
 </trkpt>
 <trkpt lat="47.317310" lon="13.149255">
 <ele>624.03</ele>
 <time>2009-08-06T08:46:45Z</time>
 </trkpt>
 <trkpt lat="47.317360" lon="13.149232">
 <ele>624.03</ele>
 <time>2009-08-06T08:46:46Z</time>
 </trkpt>
 <trkpt lat="47.317497" lon="13.149165">
 <ele>621.63</ele>
 <time>2009-08-06T08:46:49Z</time>
 </trkpt>
 <trkpt lat="47.317688" lon="13.149092">
 <ele>618.75</ele>
 <time>2009-08-06T08:46:53Z</time>
 </trkpt>
 <trkpt lat="47.317890" lon="13.149136">
 <ele>614.90</ele>
 <time>2009-08-06T08:46:58Z</time>
 </trkpt>
 <trkpt lat="47.317921" lon="13.149180">
 <ele>614.42</ele>
 <time>2009-08-06T08:46:59Z</time>
 </trkpt>
 <trkpt lat="47.317947" lon="13.149239">
 <ele>613.94</ele>
 <time>2009-08-06T08:47:00Z</time>
 </trkpt>
 <trkpt lat="47.318016" lon="13.149473">
 <ele>612.02</ele>
 <time>2009-08-06T08:47:03Z</time>
 </trkpt>
 <trkpt lat="47.318043" lon="13.149656">
 <ele>611.54</ele>
 <time>2009-08-06T08:47:05Z</time>
 </trkpt>
 <trkpt lat="47.318062" lon="13.149986">
 <ele>611.54</ele>
 <time>2009-08-06T08:47:09Z</time>
 </trkpt>
 <trkpt lat="47.318119" lon="13.150247">
 <ele>611.06</ele>
 <time>2009-08-06T08:47:12Z</time>
 </trkpt>
 <trkpt lat="47.318237" lon="13.150558">
 <ele>611.06</ele>
 <time>2009-08-06T08:47:16Z</time>
 </trkpt>
 <trkpt lat="47.318275" lon="13.150906">
 <ele>610.57</ele>
 <time>2009-08-06T08:47:20Z</time>
 </trkpt>
 <trkpt lat="47.318214" lon="13.151483">
 <ele>609.61</ele>
 <time>2009-08-06T08:47:26Z</time>
 </trkpt>
 <trkpt lat="47.318138" lon="13.152232">
 <ele>607.69</ele>
 <time>2009-08-06T08:47:33Z</time>
 </trkpt>
 <trkpt lat="47.318058" lon="13.153156">
 <ele>604.81</ele>
 <time>2009-08-06T08:47:41Z</time>
 </trkpt>
 <trkpt lat="47.318012" lon="13.153961">
 <ele>603.36</ele>
 <time>2009-08-06T08:47:48Z</time>
 </trkpt>
 <trkpt lat="47.317924" lon="13.154556">
 <ele>603.36</ele>
 <time>2009-08-06T08:47:54Z</time>
 </trkpt>
 <trkpt lat="47.317753" lon="13.155274">
 <ele>603.36</ele>
 <time>2009-08-06T08:48:02Z</time>
 </trkpt>
 <trkpt lat="47.317673" lon="13.155808">
 <ele>602.88</ele>
 <time>2009-08-06T08:48:08Z</time>
 </trkpt>
 <trkpt lat="47.317638" lon="13.156751">
 <ele>601.92</ele>
 <time>2009-08-06T08:48:18Z</time>
 </trkpt>
 <trkpt lat="47.317638" lon="13.157144">
 <ele>601.92</ele>
 <time>2009-08-06T08:48:22Z</time>
 </trkpt>
 <trkpt lat="47.317749" lon="13.157596">
 <ele>600.96</ele>
 <time>2009-08-06T08:48:27Z</time>
 </trkpt>
 <trkpt lat="47.317867" lon="13.158043">
 <ele>600.96</ele>
 <time>2009-08-06T08:48:32Z</time>
 </trkpt>
 <trkpt lat="47.317883" lon="13.158228">
 <ele>601.44</ele>
 <time>2009-08-06T08:48:34Z</time>
 </trkpt>
 <trkpt lat="47.317902" lon="13.159315">
 <ele>600.96</ele>
 <time>2009-08-06T08:48:46Z</time>
 </trkpt>
 <trkpt lat="47.317875" lon="13.159769">
 <ele>602.40</ele>
 <time>2009-08-06T08:48:52Z</time>
 </trkpt>
 <trkpt lat="47.317879" lon="13.160139">
 <ele>603.85</ele>
 <time>2009-08-06T08:48:58Z</time>
 </trkpt>
 <trkpt lat="47.317963" lon="13.160391">
 <ele>603.36</ele>
 <time>2009-08-06T08:49:03Z</time>
 </trkpt>
 <trkpt lat="47.317993" lon="13.160428">
 <ele>602.88</ele>
 <time>2009-08-06T08:49:04Z</time>
 </trkpt>
 <trkpt lat="47.318233" lon="13.160577">
 <ele>601.92</ele>
 <time>2009-08-06T08:49:10Z</time>
 </trkpt>
 <trkpt lat="47.318333" lon="13.160623">
 <ele>600.48</ele>
 <time>2009-08-06T08:49:14Z</time>
 </trkpt>
 <trkpt lat="47.318478" lon="13.160565">
 <ele>600.00</ele>
 <time>2009-08-06T08:49:19Z</time>
 </trkpt>
 <trkpt lat="47.318504" lon="13.160525">
 <ele>600.00</ele>
 <time>2009-08-06T08:49:20Z</time>
 </trkpt>
 <trkpt lat="47.318634" lon="13.160221">
 <ele>599.04</ele>
 <time>2009-08-06T08:49:26Z</time>
 </trkpt>
 <trkpt lat="47.318657" lon="13.160200">
 <ele>598.56</ele>
 <time>2009-08-06T08:49:29Z</time>
 </trkpt>
 <trkpt lat="47.318672" lon="13.160283">
 <ele>598.56</ele>
 <time>2009-08-06T08:49:34Z</time>
 </trkpt>
 <trkpt lat="47.318672" lon="13.160283">
 <ele>598.08</ele>
 <time>2009-08-06T08:49:39Z</time>
 </trkpt>
 <trkpt lat="47.319065" lon="13.159950">
 <ele>597.12</ele>
 <time>2009-08-06T08:49:41Z</time>
 </trkpt>
 <trkpt lat="47.319160" lon="13.160005">
 <ele>598.08</ele>
 <time>2009-08-06T08:49:44Z</time>
 </trkpt>
 <trkpt lat="47.319180" lon="13.160056">
 <ele>598.08</ele>
 <time>2009-08-06T08:49:45Z</time>
 </trkpt>
 <trkpt lat="47.319294" lon="13.160566">
 <ele>597.60</ele>
 <time>2009-08-06T08:49:53Z</time>
 </trkpt>
 <trkpt lat="47.319443" lon="13.161016">
 <ele>597.60</ele>
 <time>2009-08-06T08:50:00Z</time>
 </trkpt>
 <trkpt lat="47.319469" lon="13.161077">
 <ele>598.08</ele>
 <time>2009-08-06T08:50:01Z</time>
 </trkpt>
 <trkpt lat="47.319626" lon="13.161367">
 <ele>597.60</ele>
 <time>2009-08-06T08:50:06Z</time>
 </trkpt>
 <trkpt lat="47.319973" lon="13.161829">
 <ele>598.08</ele>
 <time>2009-08-06T08:50:15Z</time>
 </trkpt>
 <trkpt lat="47.320309" lon="13.162104">
 <ele>598.08</ele>
 <time>2009-08-06T08:50:22Z</time>
 </trkpt>
 <trkpt lat="47.320629" lon="13.162254">
 <ele>598.08</ele>
 <time>2009-08-06T08:50:28Z</time>
 </trkpt>
 <trkpt lat="47.321060" lon="13.162399">
 <ele>597.60</ele>
 <time>2009-08-06T08:50:36Z</time>
 </trkpt>
 <trkpt lat="47.321392" lon="13.162539">
 <ele>597.12</ele>
 <time>2009-08-06T08:50:43Z</time>
 </trkpt>
 <trkpt lat="47.321648" lon="13.162651">
 <ele>596.64</ele>
 <time>2009-08-06T08:50:50Z</time>
 </trkpt>
 <trkpt lat="47.321941" lon="13.162871">
 <ele>597.12</ele>
 <time>2009-08-06T08:50:57Z</time>
 </trkpt>
 <trkpt lat="47.322262" lon="13.163185">
 <ele>596.64</ele>
 <time>2009-08-06T08:51:05Z</time>
 </trkpt>
 <trkpt lat="47.322613" lon="13.163620">
 <ele>597.60</ele>
 <time>2009-08-06T08:51:14Z</time>
 </trkpt>
 <trkpt lat="47.322933" lon="13.164143">
 <ele>596.64</ele>
 <time>2009-08-06T08:51:23Z</time>
 </trkpt>
 <trkpt lat="47.322998" lon="13.164249">
 <ele>596.15</ele>
 <time>2009-08-06T08:51:25Z</time>
 </trkpt>
 <trkpt lat="47.323254" lon="13.164662">
 <ele>595.67</ele>
 <time>2009-08-06T08:51:33Z</time>
 </trkpt>
 <trkpt lat="47.323299" lon="13.164903">
 <ele>595.67</ele>
 <time>2009-08-06T08:51:38Z</time>
 </trkpt>
 <trkpt lat="47.323299" lon="13.164960">
 <ele>596.15</ele>
 <time>2009-08-06T08:51:43Z</time>
 </trkpt>
 <trkpt lat="47.323456" lon="13.165134">
 <ele>596.15</ele>
 <time>2009-08-06T08:51:49Z</time>
 </trkpt>
 <trkpt lat="47.323517" lon="13.165202">
 <ele>596.15</ele>
 <time>2009-08-06T08:51:52Z</time>
 </trkpt>
 <trkpt lat="47.323509" lon="13.165224">
 <ele>595.67</ele>
 <time>2009-08-06T08:51:55Z</time>
 </trkpt>
 <trkpt lat="47.323578" lon="13.165078">
 <ele>595.19</ele>
 <time>2009-08-06T08:51:59Z</time>
 </trkpt>
 <trkpt lat="47.323673" lon="13.164913">
 <ele>597.12</ele>
 <time>2009-08-06T08:52:03Z</time>
 </trkpt>
 <trkpt lat="47.323692" lon="13.164892">
 <ele>597.12</ele>
 <time>2009-08-06T08:52:04Z</time>
 </trkpt>
 <trkpt lat="47.323742" lon="13.164975">
 <ele>598.08</ele>
 <time>2009-08-06T08:52:08Z</time>
 </trkpt>
 <trkpt lat="47.323788" lon="13.165298">
 <ele>597.12</ele>
 <time>2009-08-06T08:52:14Z</time>
 </trkpt>
 <trkpt lat="47.323833" lon="13.165847">
 <ele>596.15</ele>
 <time>2009-08-06T08:52:21Z</time>
 </trkpt>
 <trkpt lat="47.323795" lon="13.166052">
 <ele>595.19</ele>
 <time>2009-08-06T08:52:25Z</time>
 </trkpt>
 <trkpt lat="47.323711" lon="13.166132">
 <ele>595.19</ele>
 <time>2009-08-06T08:52:28Z</time>
 </trkpt>
 <trkpt lat="47.323616" lon="13.166117">
 <ele>595.67</ele>
 <time>2009-08-06T08:52:31Z</time>
 </trkpt>
 <trkpt lat="47.323555" lon="13.165998">
 <ele>596.15</ele>
 <time>2009-08-06T08:52:34Z</time>
 </trkpt>
 <trkpt lat="47.323460" lon="13.165782">
 <ele>596.64</ele>
 <time>2009-08-06T08:52:39Z</time>
 </trkpt>
 <trkpt lat="47.323364" lon="13.165835">
 <ele>596.64</ele>
 <time>2009-08-06T08:52:43Z</time>
 </trkpt>
 <trkpt lat="47.323349" lon="13.165886">
 <ele>596.64</ele>
 <time>2009-08-06T08:52:44Z</time>
 </trkpt>
 <trkpt lat="47.323215" lon="13.166450">
 <ele>596.64</ele>
 <time>2009-08-06T08:52:53Z</time>
 </trkpt>
 <trkpt lat="47.323090" lon="13.167016">
 <ele>597.12</ele>
 <time>2009-08-06T08:53:01Z</time>
 </trkpt>
 <trkpt lat="47.322910" lon="13.167751">
 <ele>596.64</ele>
 <time>2009-08-06T08:53:11Z</time>
 </trkpt>
 <trkpt lat="47.322758" lon="13.168242">
 <ele>596.64</ele>
 <time>2009-08-06T08:53:18Z</time>
 </trkpt>
 <trkpt lat="47.322594" lon="13.168652">
 <ele>596.64</ele>
 <time>2009-08-06T08:53:24Z</time>
 </trkpt>
 <trkpt lat="47.322525" lon="13.169022">
 <ele>596.64</ele>
 <time>2009-08-06T08:53:29Z</time>
 </trkpt>
 <trkpt lat="47.322411" lon="13.169354">
 <ele>597.12</ele>
 <time>2009-08-06T08:53:34Z</time>
 </trkpt>
 <trkpt lat="47.322277" lon="13.169600">
 <ele>596.64</ele>
 <time>2009-08-06T08:53:38Z</time>
 </trkpt>
 <trkpt lat="47.322208" lon="13.169901">
 <ele>596.64</ele>
 <time>2009-08-06T08:53:42Z</time>
 </trkpt>
 <trkpt lat="47.322216" lon="13.170582">
 <ele>597.60</ele>
 <time>2009-08-06T08:53:51Z</time>
 </trkpt>
 <trkpt lat="47.322216" lon="13.171152">
 <ele>597.12</ele>
 <time>2009-08-06T08:53:58Z</time>
 </trkpt>
 <trkpt lat="47.322174" lon="13.171630">
 <ele>597.12</ele>
 <time>2009-08-06T08:54:04Z</time>
 </trkpt>
 <trkpt lat="47.322182" lon="13.172359">
 <ele>597.12</ele>
 <time>2009-08-06T08:54:13Z</time>
 </trkpt>
 <trkpt lat="47.322201" lon="13.173083">
 <ele>597.60</ele>
 <time>2009-08-06T08:54:22Z</time>
 </trkpt>
 <trkpt lat="47.322212" lon="13.173727">
 <ele>597.12</ele>
 <time>2009-08-06T08:54:30Z</time>
 </trkpt>
 <trkpt lat="47.322205" lon="13.173958">
 <ele>597.12</ele>
 <time>2009-08-06T08:54:33Z</time>
 </trkpt>
 <trkpt lat="47.322163" lon="13.174148">
 <ele>597.12</ele>
 <time>2009-08-06T08:54:36Z</time>
 </trkpt>
 <trkpt lat="47.322071" lon="13.174528">
 <ele>596.64</ele>
 <time>2009-08-06T08:54:42Z</time>
 </trkpt>
 <trkpt lat="47.322044" lon="13.174807">
 <ele>596.64</ele>
 <time>2009-08-06T08:54:46Z</time>
 </trkpt>
 <trkpt lat="47.321957" lon="13.175130">
 <ele>595.19</ele>
 <time>2009-08-06T08:54:50Z</time>
 </trkpt>
 <trkpt lat="47.321835" lon="13.175320">
 <ele>593.75</ele>
 <time>2009-08-06T08:54:53Z</time>
 </trkpt>
 <trkpt lat="47.321781" lon="13.175349">
 <ele>593.27</ele>
 <time>2009-08-06T08:54:54Z</time>
 </trkpt>
 <trkpt lat="47.321617" lon="13.175621">
 <ele>591.83</ele>
 <time>2009-08-06T08:54:58Z</time>
 </trkpt>
 <trkpt lat="47.321583" lon="13.175813">
 <ele>592.31</ele>
 <time>2009-08-06T08:55:00Z</time>
 </trkpt>
 <trkpt lat="47.321434" lon="13.176678">
 <ele>591.35</ele>
 <time>2009-08-06T08:55:09Z</time>
 </trkpt>
 <trkpt lat="47.321289" lon="13.177380">
 <ele>589.43</ele>
 <time>2009-08-06T08:55:16Z</time>
 </trkpt>
 <trkpt lat="47.321117" lon="13.178030">
 <ele>588.95</ele>
 <time>2009-08-06T08:55:23Z</time>
 </trkpt>
 <trkpt lat="47.321087" lon="13.178653">
 <ele>588.95</ele>
 <time>2009-08-06T08:55:30Z</time>
 </trkpt>
 <trkpt lat="47.321136" lon="13.179159">
 <ele>588.95</ele>
 <time>2009-08-06T08:55:36Z</time>
 </trkpt>
 <trkpt lat="47.321278" lon="13.179576">
 <ele>589.91</ele>
 <time>2009-08-06T08:55:42Z</time>
 </trkpt>
 <trkpt lat="47.321354" lon="13.179745">
 <ele>591.35</ele>
 <time>2009-08-06T08:55:45Z</time>
 </trkpt>
 <trkpt lat="47.321423" lon="13.179906">
 <ele>592.79</ele>
 <time>2009-08-06T08:55:48Z</time>
 </trkpt>
 <trkpt lat="47.321442" lon="13.179960">
 <ele>593.27</ele>
 <time>2009-08-06T08:55:49Z</time>
 </trkpt>
 <trkpt lat="47.321518" lon="13.180131">
 <ele>593.27</ele>
 <time>2009-08-06T08:55:52Z</time>
 </trkpt>
 <trkpt lat="47.321724" lon="13.180459">
 <ele>593.27</ele>
 <time>2009-08-06T08:55:58Z</time>
 </trkpt>
 <trkpt lat="47.322083" lon="13.181026">
 <ele>593.27</ele>
 <time>2009-08-06T08:56:08Z</time>
 </trkpt>
 <trkpt lat="47.322342" lon="13.181344">
 <ele>594.23</ele>
 <time>2009-08-06T08:56:15Z</time>
 </trkpt>
 <trkpt lat="47.322678" lon="13.181648">
 <ele>594.71</ele>
 <time>2009-08-06T08:56:23Z</time>
 </trkpt>
 <trkpt lat="47.322865" lon="13.181783">
 <ele>594.71</ele>
 <time>2009-08-06T08:56:27Z</time>
 </trkpt>
 <trkpt lat="47.323151" lon="13.181976">
 <ele>594.23</ele>
 <time>2009-08-06T08:56:33Z</time>
 </trkpt>
 <trkpt lat="47.323345" lon="13.182039">
 <ele>594.23</ele>
 <time>2009-08-06T08:56:37Z</time>
 </trkpt>
 <trkpt lat="47.323677" lon="13.182056">
 <ele>593.75</ele>
 <time>2009-08-06T08:56:43Z</time>
 </trkpt>
 <trkpt lat="47.324032" lon="13.182103">
 <ele>591.35</ele>
 <time>2009-08-06T08:56:48Z</time>
 </trkpt>
 <trkpt lat="47.324432" lon="13.182161">
 <ele>589.91</ele>
 <time>2009-08-06T08:56:53Z</time>
 </trkpt>
 <trkpt lat="47.324818" lon="13.182221">
 <ele>588.95</ele>
 <time>2009-08-06T08:56:58Z</time>
 </trkpt>
 <trkpt lat="47.325115" lon="13.182257">
 <ele>588.46</ele>
 <time>2009-08-06T08:57:03Z</time>
 </trkpt>
 <trkpt lat="47.325459" lon="13.182181">
 <ele>587.98</ele>
 <time>2009-08-06T08:57:09Z</time>
 </trkpt>
 <trkpt lat="47.325874" lon="13.182078">
 <ele>588.95</ele>
 <time>2009-08-06T08:57:16Z</time>
 </trkpt>
 <trkpt lat="47.326183" lon="13.181999">
 <ele>588.46</ele>
 <time>2009-08-06T08:57:21Z</time>
 </trkpt>
 <trkpt lat="47.326538" lon="13.181891">
 <ele>588.95</ele>
 <time>2009-08-06T08:57:27Z</time>
 </trkpt>
 <trkpt lat="47.326878" lon="13.181769">
 <ele>588.46</ele>
 <time>2009-08-06T08:57:33Z</time>
 </trkpt>
 <trkpt lat="47.326984" lon="13.181727">
 <ele>588.95</ele>
 <time>2009-08-06T08:57:35Z</time>
 </trkpt>
 <trkpt lat="47.327332" lon="13.181687">
 <ele>589.43</ele>
 <time>2009-08-06T08:57:41Z</time>
 </trkpt>
 <trkpt lat="47.327606" lon="13.181732">
 <ele>589.91</ele>
 <time>2009-08-06T08:57:46Z</time>
 </trkpt>
 <trkpt lat="47.327923" lon="13.181917">
 <ele>589.43</ele>
 <time>2009-08-06T08:57:52Z</time>
 </trkpt>
 <trkpt lat="47.328072" lon="13.182152">
 <ele>589.43</ele>
 <time>2009-08-06T08:57:56Z</time>
 </trkpt>
 <trkpt lat="47.328247" lon="13.182781">
 <ele>588.95</ele>
 <time>2009-08-06T08:58:04Z</time>
 </trkpt>
 <trkpt lat="47.328388" lon="13.183632">
 <ele>589.91</ele>
 <time>2009-08-06T08:58:15Z</time>
 </trkpt>
 <trkpt lat="47.328560" lon="13.184134">
 <ele>589.43</ele>
 <time>2009-08-06T08:58:22Z</time>
 </trkpt>
 <trkpt lat="47.328705" lon="13.184628">
 <ele>588.95</ele>
 <time>2009-08-06T08:58:29Z</time>
 </trkpt>
 <trkpt lat="47.328785" lon="13.185003">
 <ele>588.46</ele>
 <time>2009-08-06T08:58:34Z</time>
 </trkpt>
 <trkpt lat="47.328739" lon="13.185486">
 <ele>588.95</ele>
 <time>2009-08-06T08:58:40Z</time>
 </trkpt>
 <trkpt lat="47.328590" lon="13.186040">
 <ele>588.95</ele>
 <time>2009-08-06T08:58:47Z</time>
 </trkpt>
 <trkpt lat="47.328487" lon="13.186601">
 <ele>588.46</ele>
 <time>2009-08-06T08:58:54Z</time>
 </trkpt>
 <trkpt lat="47.328430" lon="13.187208">
 <ele>587.50</ele>
 <time>2009-08-06T08:59:01Z</time>
 </trkpt>
 <trkpt lat="47.328423" lon="13.187468">
 <ele>587.50</ele>
 <time>2009-08-06T08:59:04Z</time>
 </trkpt>
 <trkpt lat="47.328541" lon="13.187713">
 <ele>586.06</ele>
 <time>2009-08-06T08:59:08Z</time>
 </trkpt>
 <trkpt lat="47.328728" lon="13.187891">
 <ele>587.02</ele>
 <time>2009-08-06T08:59:13Z</time>
 </trkpt>
 <trkpt lat="47.329014" lon="13.188097">
 <ele>586.06</ele>
 <time>2009-08-06T08:59:19Z</time>
 </trkpt>
 <trkpt lat="47.329269" lon="13.188231">
 <ele>586.54</ele>
 <time>2009-08-06T08:59:24Z</time>
 </trkpt>
 <trkpt lat="47.329624" lon="13.188471">
 <ele>586.54</ele>
 <time>2009-08-06T08:59:31Z</time>
 </trkpt>
 <trkpt lat="47.330029" lon="13.188645">
 <ele>586.54</ele>
 <time>2009-08-06T08:59:38Z</time>
 </trkpt>
 <trkpt lat="47.330334" lon="13.188724">
 <ele>587.50</ele>
 <time>2009-08-06T08:59:44Z</time>
 </trkpt>
 <trkpt lat="47.330757" lon="13.188793">
 <ele>587.02</ele>
 <time>2009-08-06T08:59:52Z</time>
 </trkpt>
 <trkpt lat="47.331245" lon="13.188850">
 <ele>586.54</ele>
 <time>2009-08-06T09:00:01Z</time>
 </trkpt>
 <trkpt lat="47.331558" lon="13.188914">
 <ele>587.50</ele>
 <time>2009-08-06T09:00:07Z</time>
 </trkpt>
 <trkpt lat="47.331867" lon="13.188925">
 <ele>587.02</ele>
 <time>2009-08-06T09:00:13Z</time>
 </trkpt>
 <trkpt lat="47.332237" lon="13.188954">
 <ele>587.02</ele>
 <time>2009-08-06T09:00:20Z</time>
 </trkpt>
 <trkpt lat="47.332626" lon="13.189047">
 <ele>587.02</ele>
 <time>2009-08-06T09:00:27Z</time>
 </trkpt>
 <trkpt lat="47.332897" lon="13.189195">
 <ele>586.54</ele>
 <time>2009-08-06T09:00:32Z</time>
 </trkpt>
 <trkpt lat="47.333153" lon="13.189385">
 <ele>586.06</ele>
 <time>2009-08-06T09:00:37Z</time>
 </trkpt>
 <trkpt lat="47.333511" lon="13.189674">
 <ele>586.06</ele>
 <time>2009-08-06T09:00:44Z</time>
 </trkpt>
 <trkpt lat="47.333744" lon="13.189905">
 <ele>585.10</ele>
 <time>2009-08-06T09:00:49Z</time>
 </trkpt>
 <trkpt lat="47.333885" lon="13.190152">
 <ele>585.58</ele>
 <time>2009-08-06T09:00:53Z</time>
 </trkpt>
 <trkpt lat="47.334000" lon="13.190465">
 <ele>587.02</ele>
 <time>2009-08-06T09:00:58Z</time>
 </trkpt>
 <trkpt lat="47.334064" lon="13.190664">
 <ele>587.02</ele>
 <time>2009-08-06T09:01:02Z</time>
 </trkpt>
 <trkpt lat="47.333939" lon="13.190784">
 <ele>587.02</ele>
 <time>2009-08-06T09:01:07Z</time>
 </trkpt>
 <trkpt lat="47.333656" lon="13.190960">
 <ele>586.54</ele>
 <time>2009-08-06T09:01:14Z</time>
 </trkpt>
 <trkpt lat="47.333431" lon="13.191104">
 <ele>587.02</ele>
 <time>2009-08-06T09:01:20Z</time>
 </trkpt>
 <trkpt lat="47.333427" lon="13.191281">
 <ele>587.02</ele>
 <time>2009-08-06T09:01:24Z</time>
 </trkpt>
 <trkpt lat="47.333542" lon="13.191690">
 <ele>585.58</ele>
 <time>2009-08-06T09:01:30Z</time>
 </trkpt>
 <trkpt lat="47.333668" lon="13.192440">
 <ele>585.10</ele>
 <time>2009-08-06T09:01:39Z</time>
 </trkpt>
 <trkpt lat="47.333725" lon="13.192757">
 <ele>584.62</ele>
 <time>2009-08-06T09:01:43Z</time>
 </trkpt>
 <trkpt lat="47.333733" lon="13.193232">
 <ele>585.10</ele>
 <time>2009-08-06T09:01:49Z</time>
 </trkpt>
 <trkpt lat="47.333748" lon="13.193889">
 <ele>585.58</ele>
 <time>2009-08-06T09:01:58Z</time>
 </trkpt>
 <trkpt lat="47.333858" lon="13.194380">
 <ele>586.06</ele>
 <time>2009-08-06T09:02:05Z</time>
 </trkpt>
 <trkpt lat="47.334049" lon="13.195017">
 <ele>586.06</ele>
 <time>2009-08-06T09:02:14Z</time>
 </trkpt>
 <trkpt lat="47.334274" lon="13.195645">
 <ele>586.06</ele>
 <time>2009-08-06T09:02:23Z</time>
 </trkpt>
 <trkpt lat="47.334534" lon="13.196157">
 <ele>585.58</ele>
 <time>2009-08-06T09:02:31Z</time>
 </trkpt>
 <trkpt lat="47.334743" lon="13.196421">
 <ele>585.58</ele>
 <time>2009-08-06T09:02:36Z</time>
 </trkpt>
 <trkpt lat="47.335026" lon="13.196917">
 <ele>585.10</ele>
 <time>2009-08-06T09:02:44Z</time>
 </trkpt>
 <trkpt lat="47.335396" lon="13.197395">
 <ele>586.06</ele>
 <time>2009-08-06T09:02:53Z</time>
 </trkpt>
 <trkpt lat="47.335735" lon="13.197773">
 <ele>585.58</ele>
 <time>2009-08-06T09:03:01Z</time>
 </trkpt>
 <trkpt lat="47.336033" lon="13.198052">
 <ele>586.06</ele>
 <time>2009-08-06T09:03:08Z</time>
 </trkpt>
 <trkpt lat="47.336437" lon="13.198434">
 <ele>585.58</ele>
 <time>2009-08-06T09:03:17Z</time>
 </trkpt>
 <trkpt lat="47.336720" lon="13.198672">
 <ele>585.58</ele>
 <time>2009-08-06T09:03:23Z</time>
 </trkpt>
 <trkpt lat="47.337082" lon="13.198796">
 <ele>587.02</ele>
 <time>2009-08-06T09:03:30Z</time>
 </trkpt>
 <trkpt lat="47.337337" lon="13.198831">
 <ele>585.58</ele>
 <time>2009-08-06T09:03:35Z</time>
 </trkpt>
 <trkpt lat="47.337742" lon="13.198898">
 <ele>585.58</ele>
 <time>2009-08-06T09:03:43Z</time>
 </trkpt>
 <trkpt lat="47.337898" lon="13.198919">
 <ele>585.10</ele>
 <time>2009-08-06T09:03:47Z</time>
 </trkpt>
 <trkpt lat="47.337990" lon="13.198788">
 <ele>585.10</ele>
 <time>2009-08-06T09:03:51Z</time>
 </trkpt>
 <trkpt lat="47.338009" lon="13.198736">
 <ele>585.58</ele>
 <time>2009-08-06T09:03:52Z</time>
 </trkpt>
 <trkpt lat="47.338234" lon="13.198491">
 <ele>585.58</ele>
 <time>2009-08-06T09:03:58Z</time>
 </trkpt>
 <trkpt lat="47.338642" lon="13.198329">
 <ele>585.10</ele>
 <time>2009-08-06T09:04:06Z</time>
 </trkpt>
 <trkpt lat="47.338852" lon="13.198176">
 <ele>584.14</ele>
 <time>2009-08-06T09:04:10Z</time>
 </trkpt>
 <trkpt lat="47.338947" lon="13.198066">
 <ele>583.66</ele>
 <time>2009-08-06T09:04:12Z</time>
 </trkpt>
 <trkpt lat="47.339157" lon="13.197664">
 <ele>581.73</ele>
 <time>2009-08-06T09:04:17Z</time>
 </trkpt>
 <trkpt lat="47.339165" lon="13.197570">
 <ele>581.25</ele>
 <time>2009-08-06T09:04:18Z</time>
 </trkpt>
 <trkpt lat="47.339161" lon="13.197478">
 <ele>580.77</ele>
 <time>2009-08-06T09:04:19Z</time>
 </trkpt>
 <trkpt lat="47.339241" lon="13.197143">
 <ele>580.29</ele>
 <time>2009-08-06T09:04:24Z</time>
 </trkpt>
 <trkpt lat="47.339375" lon="13.197061">
 <ele>580.29</ele>
 <time>2009-08-06T09:04:27Z</time>
 </trkpt>
 <trkpt lat="47.339481" lon="13.196870">
 <ele>580.77</ele>
 <time>2009-08-06T09:04:30Z</time>
 </trkpt>
 <trkpt lat="47.339668" lon="13.196238">
 <ele>580.29</ele>
 <time>2009-08-06T09:04:38Z</time>
 </trkpt>
 <trkpt lat="47.339745" lon="13.195572">
 <ele>579.81</ele>
 <time>2009-08-06T09:04:46Z</time>
 </trkpt>
 <trkpt lat="47.339787" lon="13.194916">
 <ele>578.85</ele>
 <time>2009-08-06T09:04:54Z</time>
 </trkpt>
 <trkpt lat="47.339813" lon="13.194679">
 <ele>579.33</ele>
 <time>2009-08-06T09:04:57Z</time>
 </trkpt>
 <trkpt lat="47.339897" lon="13.194308">
 <ele>578.37</ele>
 <time>2009-08-06T09:05:02Z</time>
 </trkpt>
 <trkpt lat="47.340000" lon="13.194023">
 <ele>577.89</ele>
 <time>2009-08-06T09:05:07Z</time>
 </trkpt>
 <trkpt lat="47.340031" lon="13.194001">
 <ele>577.89</ele>
 <time>2009-08-06T09:05:08Z</time>
 </trkpt>
 <trkpt lat="47.340305" lon="13.193944">
 <ele>578.85</ele>
 <time>2009-08-06T09:05:14Z</time>
 </trkpt>
 <trkpt lat="47.340561" lon="13.193799">
 <ele>578.85</ele>
 <time>2009-08-06T09:05:19Z</time>
 </trkpt>
 <trkpt lat="47.340782" lon="13.193783">
 <ele>579.33</ele>
 <time>2009-08-06T09:05:23Z</time>
 </trkpt>
 <trkpt lat="47.341103" lon="13.193891">
 <ele>579.33</ele>
 <time>2009-08-06T09:05:29Z</time>
 </trkpt>
 <trkpt lat="47.341572" lon="13.194180">
 <ele>579.81</ele>
 <time>2009-08-06T09:05:38Z</time>
 </trkpt>
 <trkpt lat="47.342060" lon="13.194565">
 <ele>579.33</ele>
 <time>2009-08-06T09:05:48Z</time>
 </trkpt>
 <trkpt lat="47.342587" lon="13.194969">
 <ele>579.33</ele>
 <time>2009-08-06T09:05:59Z</time>
 </trkpt>
 <trkpt lat="47.343033" lon="13.195279">
 <ele>579.33</ele>
 <time>2009-08-06T09:06:08Z</time>
 </trkpt>
 <trkpt lat="47.343311" lon="13.195487">
 <ele>578.37</ele>
 <time>2009-08-06T09:06:14Z</time>
 </trkpt>
 <trkpt lat="47.343670" lon="13.195757">
 <ele>577.89</ele>
 <time>2009-08-06T09:06:21Z</time>
 </trkpt>
 <trkpt lat="47.344124" lon="13.195980">
 <ele>578.37</ele>
 <time>2009-08-06T09:06:29Z</time>
 </trkpt>
 <trkpt lat="47.344566" lon="13.196123">
 <ele>577.89</ele>
 <time>2009-08-06T09:06:37Z</time>
 </trkpt>
 <trkpt lat="47.344936" lon="13.196186">
 <ele>578.37</ele>
 <time>2009-08-06T09:06:44Z</time>
 </trkpt>
 <trkpt lat="47.345097" lon="13.196142">
 <ele>578.37</ele>
 <time>2009-08-06T09:06:49Z</time>
 </trkpt>
 <trkpt lat="47.345272" lon="13.196051">
 <ele>578.37</ele>
 <time>2009-08-06T09:06:55Z</time>
 </trkpt>
 <trkpt lat="47.345295" lon="13.196013">
 <ele>577.89</ele>
 <time>2009-08-06T09:06:56Z</time>
 </trkpt>
 <trkpt lat="47.345539" lon="13.195839">
 <ele>576.93</ele>
 <time>2009-08-06T09:07:02Z</time>
 </trkpt>
 <trkpt lat="47.345867" lon="13.195719">
 <ele>576.45</ele>
 <time>2009-08-06T09:07:09Z</time>
 </trkpt>
 <trkpt lat="47.346142" lon="13.195679">
 <ele>575.97</ele>
 <time>2009-08-06T09:07:16Z</time>
 </trkpt>
 <trkpt lat="47.346325" lon="13.195680">
 <ele>575.01</ele>
 <time>2009-08-06T09:07:21Z</time>
 </trkpt>
 <trkpt lat="47.346420" lon="13.195687">
 <ele>575.01</ele>
 <time>2009-08-06T09:07:23Z</time>
 </trkpt>
 <trkpt lat="47.346527" lon="13.195668">
 <ele>574.53</ele>
 <time>2009-08-06T09:07:25Z</time>
 </trkpt>
 <trkpt lat="47.346745" lon="13.195700">
 <ele>575.49</ele>
 <time>2009-08-06T09:07:30Z</time>
 </trkpt>
 <trkpt lat="47.347038" lon="13.195829">
 <ele>575.97</ele>
 <time>2009-08-06T09:07:38Z</time>
 </trkpt>
 <trkpt lat="47.347233" lon="13.195966">
 <ele>576.45</ele>
 <time>2009-08-06T09:07:44Z</time>
 </trkpt>
 <trkpt lat="47.347290" lon="13.196098">
 <ele>576.93</ele>
 <time>2009-08-06T09:07:48Z</time>
 </trkpt>
 <trkpt lat="47.347309" lon="13.196126">
 <ele>576.93</ele>
 <time>2009-08-06T09:07:49Z</time>
 </trkpt>
 <trkpt lat="47.347546" lon="13.196190">
 <ele>576.93</ele>
 <time>2009-08-06T09:07:55Z</time>
 </trkpt>
 <trkpt lat="47.347824" lon="13.196259">
 <ele>576.93</ele>
 <time>2009-08-06T09:08:01Z</time>
 </trkpt>
 <trkpt lat="47.348244" lon="13.196397">
 <ele>577.41</ele>
 <time>2009-08-06T09:08:10Z</time>
 </trkpt>
 <trkpt lat="47.348469" lon="13.196451">
 <ele>577.41</ele>
 <time>2009-08-06T09:08:15Z</time>
 </trkpt>
 <trkpt lat="47.348885" lon="13.196611">
 <ele>576.93</ele>
 <time>2009-08-06T09:08:23Z</time>
 </trkpt>
 <trkpt lat="47.349415" lon="13.196904">
 <ele>576.45</ele>
 <time>2009-08-06T09:08:33Z</time>
 </trkpt>
 <trkpt lat="47.349876" lon="13.197184">
 <ele>576.45</ele>
 <time>2009-08-06T09:08:41Z</time>
 </trkpt>
 <trkpt lat="47.350193" lon="13.197384">
 <ele>575.97</ele>
 <time>2009-08-06T09:08:47Z</time>
 </trkpt>
 <trkpt lat="47.350239" lon="13.197418">
 <ele>575.97</ele>
 <time>2009-08-06T09:08:48Z</time>
 </trkpt>
 <trkpt lat="47.350571" lon="13.197730">
 <ele>575.97</ele>
 <time>2009-08-06T09:08:55Z</time>
 </trkpt>
 <trkpt lat="47.350918" lon="13.198275">
 <ele>575.01</ele>
 <time>2009-08-06T09:09:04Z</time>
 </trkpt>
 <trkpt lat="47.351215" lon="13.198805">
 <ele>575.49</ele>
 <time>2009-08-06T09:09:12Z</time>
 </trkpt>
 <trkpt lat="47.351566" lon="13.199258">
 <ele>575.49</ele>
 <time>2009-08-06T09:09:20Z</time>
 </trkpt>
 <trkpt lat="47.351822" lon="13.199621">
 <ele>575.97</ele>
 <time>2009-08-06T09:09:27Z</time>
 </trkpt>
 <trkpt lat="47.352127" lon="13.200051">
 <ele>575.49</ele>
 <time>2009-08-06T09:09:35Z</time>
 </trkpt>
 <trkpt lat="47.352386" lon="13.200375">
 <ele>575.49</ele>
 <time>2009-08-06T09:09:41Z</time>
 </trkpt>
 <trkpt lat="47.352730" lon="13.200786">
 <ele>575.49</ele>
 <time>2009-08-06T09:09:49Z</time>
 </trkpt>
 <trkpt lat="47.353203" lon="13.201247">
 <ele>575.01</ele>
 <time>2009-08-06T09:09:59Z</time>
 </trkpt>
 <trkpt lat="47.353767" lon="13.201714">
 <ele>575.49</ele>
 <time>2009-08-06T09:10:10Z</time>
 </trkpt>
 <trkpt lat="47.354202" lon="13.201996">
 <ele>575.01</ele>
 <time>2009-08-06T09:10:18Z</time>
 </trkpt>
 <trkpt lat="47.354656" lon="13.202226">
 <ele>575.49</ele>
 <time>2009-08-06T09:10:26Z</time>
 </trkpt>
 <trkpt lat="47.355064" lon="13.202393">
 <ele>575.49</ele>
 <time>2009-08-06T09:10:33Z</time>
 </trkpt>
 <trkpt lat="47.355408" lon="13.202507">
 <ele>575.01</ele>
 <time>2009-08-06T09:10:39Z</time>
 </trkpt>
 <trkpt lat="47.355751" lon="13.202611">
 <ele>576.45</ele>
 <time>2009-08-06T09:10:46Z</time>
 </trkpt>
 <trkpt lat="47.355812" lon="13.202630">
 <ele>576.45</ele>
 <time>2009-08-06T09:10:50Z</time>
 </trkpt>
 <trkpt lat="47.355927" lon="13.202675">
 <ele>576.93</ele>
 <time>2009-08-06T09:10:56Z</time>
 </trkpt>
 <trkpt lat="47.356144" lon="13.202732">
 <ele>575.49</ele>
 <time>2009-08-06T09:11:01Z</time>
 </trkpt>
 <trkpt lat="47.356197" lon="13.202746">
 <ele>575.97</ele>
 <time>2009-08-06T09:11:02Z</time>
 </trkpt>
 <trkpt lat="47.356533" lon="13.202938">
 <ele>574.53</ele>
 <time>2009-08-06T09:11:08Z</time>
 </trkpt>
 <trkpt lat="47.357010" lon="13.203254">
 <ele>574.04</ele>
 <time>2009-08-06T09:11:17Z</time>
 </trkpt>
 <trkpt lat="47.357395" lon="13.203601">
 <ele>574.04</ele>
 <time>2009-08-06T09:11:25Z</time>
 </trkpt>
 <trkpt lat="47.357811" lon="13.204023">
 <ele>573.56</ele>
 <time>2009-08-06T09:11:34Z</time>
 </trkpt>
 <trkpt lat="47.358173" lon="13.204512">
 <ele>574.04</ele>
 <time>2009-08-06T09:11:43Z</time>
 </trkpt>
 <trkpt lat="47.358509" lon="13.205026">
 <ele>574.04</ele>
 <time>2009-08-06T09:11:52Z</time>
 </trkpt>
 <trkpt lat="47.358841" lon="13.205561">
 <ele>573.56</ele>
 <time>2009-08-06T09:12:01Z</time>
 </trkpt>
 <trkpt lat="47.359207" lon="13.206168">
 <ele>574.04</ele>
 <time>2009-08-06T09:12:11Z</time>
 </trkpt>
 <trkpt lat="47.359493" lon="13.206634">
 <ele>574.04</ele>
 <time>2009-08-06T09:12:19Z</time>
 </trkpt>
 <trkpt lat="47.359711" lon="13.206982">
 <ele>574.04</ele>
 <time>2009-08-06T09:12:25Z</time>
 </trkpt>
 <trkpt lat="47.359989" lon="13.207368">
 <ele>573.56</ele>
 <time>2009-08-06T09:12:32Z</time>
 </trkpt>
 <trkpt lat="47.360104" lon="13.207528">
 <ele>573.08</ele>
 <time>2009-08-06T09:12:36Z</time>
 </trkpt>
 <trkpt lat="47.360107" lon="13.207622">
 <ele>573.08</ele>
 <time>2009-08-06T09:12:39Z</time>
 </trkpt>
 <trkpt lat="47.360226" lon="13.207786">
 <ele>574.04</ele>
 <time>2009-08-06T09:12:44Z</time>
 </trkpt>
 <trkpt lat="47.360538" lon="13.208062">
 <ele>575.01</ele>
 <time>2009-08-06T09:12:53Z</time>
 </trkpt>
 <trkpt lat="47.360889" lon="13.208265">
 <ele>575.01</ele>
 <time>2009-08-06T09:13:01Z</time>
 </trkpt>
 <trkpt lat="47.361259" lon="13.208367">
 <ele>574.04</ele>
 <time>2009-08-06T09:13:08Z</time>
 </trkpt>
 <trkpt lat="47.361740" lon="13.208458">
 <ele>574.04</ele>
 <time>2009-08-06T09:13:16Z</time>
 </trkpt>
 <trkpt lat="47.362366" lon="13.208607">
 <ele>573.56</ele>
 <time>2009-08-06T09:13:26Z</time>
 </trkpt>
 <trkpt lat="47.362755" lon="13.208808">
 <ele>572.60</ele>
 <time>2009-08-06T09:13:32Z</time>
 </trkpt>
 <trkpt lat="47.363365" lon="13.208885">
 <ele>572.12</ele>
 <time>2009-08-06T09:13:41Z</time>
 </trkpt>
 <trkpt lat="47.363892" lon="13.208784">
 <ele>572.12</ele>
 <time>2009-08-06T09:13:48Z</time>
 </trkpt>
 <trkpt lat="47.364465" lon="13.208748">
 <ele>572.60</ele>
 <time>2009-08-06T09:13:54Z</time>
 </trkpt>
 <trkpt lat="47.364961" lon="13.208831">
 <ele>572.60</ele>
 <time>2009-08-06T09:14:02Z</time>
 </trkpt>
 <trkpt lat="47.365422" lon="13.208815">
 <ele>571.64</ele>
 <time>2009-08-06T09:14:10Z</time>
 </trkpt>
 <trkpt lat="47.366022" lon="13.209060">
 <ele>571.64</ele>
 <time>2009-08-06T09:14:17Z</time>
 </trkpt>
 <trkpt lat="47.366314" lon="13.209067">
 <ele>571.64</ele>
 <time>2009-08-06T09:14:21Z</time>
 </trkpt>
 <trkpt lat="47.366576" lon="13.209240">
 <ele>571.64</ele>
 <time>2009-08-06T09:14:26Z</time>
 </trkpt>
 <trkpt lat="47.366904" lon="13.209345">
 <ele>570.68</ele>
 <time>2009-08-06T09:14:34Z</time>
 </trkpt>
 <trkpt lat="47.367224" lon="13.209682">
 <ele>570.68</ele>
 <time>2009-08-06T09:14:41Z</time>
 </trkpt>
 <trkpt lat="47.367566" lon="13.209951">
 <ele>570.68</ele>
 <time>2009-08-06T09:14:49Z</time>
 </trkpt>
 <trkpt lat="47.367905" lon="13.210322">
 <ele>570.20</ele>
 <time>2009-08-06T09:14:55Z</time>
 </trkpt>
 <trkpt lat="47.368454" lon="13.210585">
 <ele>570.68</ele>
 <time>2009-08-06T09:15:04Z</time>
 </trkpt>
 <trkpt lat="47.368912" lon="13.210641">
 <ele>570.20</ele>
 <time>2009-08-06T09:15:11Z</time>
 </trkpt>
 <trkpt lat="47.369289" lon="13.210693">
 <ele>570.20</ele>
 <time>2009-08-06T09:15:17Z</time>
 </trkpt>
 <trkpt lat="47.369572" lon="13.210889">
 <ele>570.68</ele>
 <time>2009-08-06T09:15:22Z</time>
 </trkpt>
 <trkpt lat="47.369728" lon="13.211162">
 <ele>570.68</ele>
 <time>2009-08-06T09:15:26Z</time>
 </trkpt>
 <trkpt lat="47.369849" lon="13.211334">
 <ele>571.16</ele>
 <time>2009-08-06T09:15:27Z</time>
 </trkpt>
 <trkpt lat="47.369999" lon="13.211578">
 <ele>569.72</ele>
 <time>2009-08-06T09:15:33Z</time>
 </trkpt>
 <trkpt lat="47.370296" lon="13.211915">
 <ele>569.24</ele>
 <time>2009-08-06T09:15:38Z</time>
 </trkpt>
 <trkpt lat="47.370838" lon="13.212095">
 <ele>568.76</ele>
 <time>2009-08-06T09:15:46Z</time>
 </trkpt>
 <trkpt lat="47.371201" lon="13.212311">
 <ele>568.28</ele>
 <time>2009-08-06T09:15:52Z</time>
 </trkpt>
 <trkpt lat="47.371601" lon="13.212598">
 <ele>568.76</ele>
 <time>2009-08-06T09:15:59Z</time>
 </trkpt>
 <trkpt lat="47.371880" lon="13.212712">
 <ele>568.76</ele>
 <time>2009-08-06T09:16:04Z</time>
 </trkpt>
 <trkpt lat="47.372242" lon="13.212849">
 <ele>568.28</ele>
 <time>2009-08-06T09:16:10Z</time>
 </trkpt>
 <trkpt lat="47.372749" lon="13.212906">
 <ele>568.76</ele>
 <time>2009-08-06T09:16:18Z</time>
 </trkpt>
 <trkpt lat="47.373322" lon="13.212821">
 <ele>568.28</ele>
 <time>2009-08-06T09:16:27Z</time>
 </trkpt>
 <trkpt lat="47.373894" lon="13.212790">
 <ele>567.80</ele>
 <time>2009-08-06T09:16:36Z</time>
 </trkpt>
 <trkpt lat="47.374397" lon="13.212914">
 <ele>567.80</ele>
 <time>2009-08-06T09:16:44Z</time>
 </trkpt>
 <trkpt lat="47.374954" lon="13.213144">
 <ele>566.83</ele>
 <time>2009-08-06T09:16:53Z</time>
 </trkpt>
 <trkpt lat="47.375484" lon="13.213418">
 <ele>568.28</ele>
 <time>2009-08-06T09:17:02Z</time>
 </trkpt>
 <trkpt lat="47.376015" lon="13.213848">
 <ele>570.20</ele>
 <time>2009-08-06T09:17:12Z</time>
 </trkpt>
 <trkpt lat="47.376350" lon="13.214097">
 <ele>571.64</ele>
 <time>2009-08-06T09:17:19Z</time>
 </trkpt>
 <trkpt lat="47.376659" lon="13.214165">
 <ele>573.08</ele>
 <time>2009-08-06T09:17:25Z</time>
 </trkpt>
 <trkpt lat="47.376842" lon="13.214175">
 <ele>573.08</ele>
 <time>2009-08-06T09:17:29Z</time>
 </trkpt>
 <trkpt lat="47.377132" lon="13.214286">
 <ele>573.08</ele>
 <time>2009-08-06T09:17:35Z</time>
 </trkpt>
 <trkpt lat="47.377399" lon="13.214499">
 <ele>573.56</ele>
 <time>2009-08-06T09:17:41Z</time>
 </trkpt>
 <trkpt lat="47.377819" lon="13.214863">
 <ele>574.04</ele>
 <time>2009-08-06T09:17:50Z</time>
 </trkpt>
 <trkpt lat="47.377865" lon="13.214903">
 <ele>573.56</ele>
 <time>2009-08-06T09:17:51Z</time>
 </trkpt>
 <trkpt lat="47.378292" lon="13.215212">
 <ele>573.08</ele>
 <time>2009-08-06T09:17:59Z</time>
 </trkpt>
 <trkpt lat="47.378742" lon="13.215431">
 <ele>573.08</ele>
 <time>2009-08-06T09:18:07Z</time>
 </trkpt>
 <trkpt lat="47.379101" lon="13.215623">
 <ele>572.12</ele>
 <time>2009-08-06T09:18:13Z</time>
 </trkpt>
 <trkpt lat="47.379581" lon="13.216051">
 <ele>570.68</ele>
 <time>2009-08-06T09:18:21Z</time>
 </trkpt>
 <trkpt lat="47.380001" lon="13.216531">
 <ele>570.20</ele>
 <time>2009-08-06T09:18:28Z</time>
 </trkpt>
 <trkpt lat="47.380405" lon="13.216811">
 <ele>569.24</ele>
 <time>2009-08-06T09:18:34Z</time>
 </trkpt>
 <trkpt lat="47.380478" lon="13.216838">
 <ele>568.28</ele>
 <time>2009-08-06T09:18:35Z</time>
 </trkpt>
 <trkpt lat="47.380928" lon="13.216854">
 <ele>568.76</ele>
 <time>2009-08-06T09:18:41Z</time>
 </trkpt>
 <trkpt lat="47.381351" lon="13.216719">
 <ele>567.32</ele>
 <time>2009-08-06T09:18:47Z</time>
 </trkpt>
 <trkpt lat="47.381882" lon="13.216415">
 <ele>566.35</ele>
 <time>2009-08-06T09:18:55Z</time>
 </trkpt>
 <trkpt lat="47.382481" lon="13.216067">
 <ele>565.39</ele>
 <time>2009-08-06T09:19:04Z</time>
 </trkpt>
 <trkpt lat="47.383194" lon="13.215652">
 <ele>565.39</ele>
 <time>2009-08-06T09:19:15Z</time>
 </trkpt>
 <trkpt lat="47.383835" lon="13.215294">
 <ele>564.43</ele>
 <time>2009-08-06T09:19:25Z</time>
 </trkpt>
 <trkpt lat="47.384411" lon="13.215087">
 <ele>564.43</ele>
 <time>2009-08-06T09:19:34Z</time>
 </trkpt>
 <trkpt lat="47.385048" lon="13.214897">
 <ele>564.43</ele>
 <time>2009-08-06T09:19:44Z</time>
 </trkpt>
 <trkpt lat="47.385704" lon="13.214698">
 <ele>564.43</ele>
 <time>2009-08-06T09:19:54Z</time>
 </trkpt>
 <trkpt lat="47.386330" lon="13.214512">
 <ele>563.47</ele>
 <time>2009-08-06T09:20:04Z</time>
 </trkpt>
 <trkpt lat="47.386703" lon="13.214360">
 <ele>564.91</ele>
 <time>2009-08-06T09:20:11Z</time>
 </trkpt>
 <trkpt lat="47.386864" lon="13.214267">
 <ele>564.91</ele>
 <time>2009-08-06T09:20:14Z</time>
 </trkpt>
 <trkpt lat="47.387108" lon="13.214185">
 <ele>565.87</ele>
 <time>2009-08-06T09:20:19Z</time>
 </trkpt>
 <trkpt lat="47.387245" lon="13.214320">
 <ele>564.43</ele>
 <time>2009-08-06T09:20:22Z</time>
 </trkpt>
 <trkpt lat="47.387596" lon="13.214883">
 <ele>564.43</ele>
 <time>2009-08-06T09:20:30Z</time>
 </trkpt>
 <trkpt lat="47.388000" lon="13.215382">
 <ele>564.43</ele>
 <time>2009-08-06T09:20:38Z</time>
 </trkpt>
 <trkpt lat="47.388153" lon="13.215544">
 <ele>564.43</ele>
 <time>2009-08-06T09:20:41Z</time>
 </trkpt>
 <trkpt lat="47.388485" lon="13.215961">
 <ele>564.43</ele>
 <time>2009-08-06T09:20:48Z</time>
 </trkpt>
 <trkpt lat="47.388962" lon="13.216546">
 <ele>564.43</ele>
 <time>2009-08-06T09:20:58Z</time>
 </trkpt>
 <trkpt lat="47.389263" lon="13.216883">
 <ele>564.43</ele>
 <time>2009-08-06T09:21:04Z</time>
 </trkpt>
 <trkpt lat="47.389553" lon="13.217072">
 <ele>564.43</ele>
 <time>2009-08-06T09:21:09Z</time>
 </trkpt>
 <trkpt lat="47.389679" lon="13.217122">
 <ele>564.91</ele>
 <time>2009-08-06T09:21:11Z</time>
 </trkpt>
 <trkpt lat="47.389950" lon="13.217360">
 <ele>564.91</ele>
 <time>2009-08-06T09:21:16Z</time>
 </trkpt>
 <trkpt lat="47.389999" lon="13.217424">
 <ele>564.91</ele>
 <time>2009-08-06T09:21:17Z</time>
 </trkpt>
 <trkpt lat="47.390354" lon="13.217835">
 <ele>564.91</ele>
 <time>2009-08-06T09:21:24Z</time>
 </trkpt>
 <trkpt lat="47.390739" lon="13.218155">
 <ele>564.91</ele>
 <time>2009-08-06T09:21:31Z</time>
 </trkpt>
 <trkpt lat="47.391209" lon="13.218458">
 <ele>563.95</ele>
 <time>2009-08-06T09:21:39Z</time>
 </trkpt>
 <trkpt lat="47.391605" lon="13.218599">
 <ele>563.47</ele>
 <time>2009-08-06T09:21:45Z</time>
 </trkpt>
 <trkpt lat="47.391819" lon="13.218645">
 <ele>562.51</ele>
 <time>2009-08-06T09:21:48Z</time>
 </trkpt>
 <trkpt lat="47.392262" lon="13.218922">
 <ele>562.99</ele>
 <time>2009-08-06T09:21:55Z</time>
 </trkpt>
 <trkpt lat="47.392426" lon="13.219035">
 <ele>562.99</ele>
 <time>2009-08-06T09:21:58Z</time>
 </trkpt>
 <trkpt lat="47.392769" lon="13.219210">
 <ele>564.43</ele>
 <time>2009-08-06T09:22:05Z</time>
 </trkpt>
 <trkpt lat="47.393055" lon="13.219411">
 <ele>562.99</ele>
 <time>2009-08-06T09:22:11Z</time>
 </trkpt>
 <trkpt lat="47.393120" lon="13.219445">
 <ele>562.51</ele>
 <time>2009-08-06T09:22:12Z</time>
 </trkpt>
 <trkpt lat="47.393539" lon="13.219707">
 <ele>562.03</ele>
 <time>2009-08-06T09:22:19Z</time>
 </trkpt>
 <trkpt lat="47.393600" lon="13.219748">
 <ele>562.03</ele>
 <time>2009-08-06T09:22:20Z</time>
 </trkpt>
 <trkpt lat="47.393894" lon="13.220039">
 <ele>562.03</ele>
 <time>2009-08-06T09:22:26Z</time>
 </trkpt>
 <trkpt lat="47.393997" lon="13.220335">
 <ele>561.55</ele>
 <time>2009-08-06T09:22:30Z</time>
 </trkpt>
 <trkpt lat="47.394043" lon="13.220656">
 <ele>562.03</ele>
 <time>2009-08-06T09:22:34Z</time>
 </trkpt>
 <trkpt lat="47.394146" lon="13.220955">
 <ele>562.51</ele>
 <time>2009-08-06T09:22:38Z</time>
 </trkpt>
 <trkpt lat="47.394218" lon="13.221080">
 <ele>562.03</ele>
 <time>2009-08-06T09:22:40Z</time>
 </trkpt>
 <trkpt lat="47.394310" lon="13.221457">
 <ele>562.03</ele>
 <time>2009-08-06T09:22:45Z</time>
 </trkpt>
 <trkpt lat="47.394249" lon="13.222160">
 <ele>561.55</ele>
 <time>2009-08-06T09:22:54Z</time>
 </trkpt>
 <trkpt lat="47.394218" lon="13.222317">
 <ele>562.03</ele>
 <time>2009-08-06T09:22:56Z</time>
 </trkpt>
 <trkpt lat="47.394123" lon="13.222692">
 <ele>561.55</ele>
 <time>2009-08-06T09:23:01Z</time>
 </trkpt>
 <trkpt lat="47.394108" lon="13.223083">
 <ele>561.55</ele>
 <time>2009-08-06T09:23:06Z</time>
 </trkpt>
 <trkpt lat="47.394138" lon="13.223238">
 <ele>561.55</ele>
 <time>2009-08-06T09:23:08Z</time>
 </trkpt>
 <trkpt lat="47.394329" lon="13.223731">
 <ele>561.07</ele>
 <time>2009-08-06T09:23:15Z</time>
 </trkpt>
 <trkpt lat="47.394615" lon="13.224325">
 <ele>562.03</ele>
 <time>2009-08-06T09:23:24Z</time>
 </trkpt>
 <trkpt lat="47.395004" lon="13.224998">
 <ele>562.03</ele>
 <time>2009-08-06T09:23:35Z</time>
 </trkpt>
 <trkpt lat="47.395359" lon="13.225391">
 <ele>561.55</ele>
 <time>2009-08-06T09:23:43Z</time>
 </trkpt>
 <trkpt lat="47.395771" lon="13.225780">
 <ele>561.55</ele>
 <time>2009-08-06T09:23:52Z</time>
 </trkpt>
 <trkpt lat="47.395844" lon="13.225885">
 <ele>561.55</ele>
 <time>2009-08-06T09:23:54Z</time>
 </trkpt>
 <trkpt lat="47.396011" lon="13.226014">
 <ele>562.99</ele>
 <time>2009-08-06T09:23:58Z</time>
 </trkpt>
 <trkpt lat="47.396221" lon="13.226089">
 <ele>563.47</ele>
 <time>2009-08-06T09:24:03Z</time>
 </trkpt>
 <trkpt lat="47.396408" lon="13.226217">
 <ele>562.51</ele>
 <time>2009-08-06T09:24:07Z</time>
 </trkpt>
 <trkpt lat="47.396690" lon="13.226279">
 <ele>562.03</ele>
 <time>2009-08-06T09:24:12Z</time>
 </trkpt>
 <trkpt lat="47.397083" lon="13.226368">
 <ele>561.55</ele>
 <time>2009-08-06T09:24:19Z</time>
 </trkpt>
 <trkpt lat="47.397484" lon="13.226466">
 <ele>562.03</ele>
 <time>2009-08-06T09:24:27Z</time>
 </trkpt>
 <trkpt lat="47.397800" lon="13.226544">
 <ele>562.51</ele>
 <time>2009-08-06T09:24:34Z</time>
 </trkpt>
 <trkpt lat="47.398087" lon="13.226489">
 <ele>562.99</ele>
 <time>2009-08-06T09:24:40Z</time>
 </trkpt>
 <trkpt lat="47.398380" lon="13.226538">
 <ele>562.51</ele>
 <time>2009-08-06T09:24:46Z</time>
 </trkpt>
 <trkpt lat="47.398434" lon="13.226545">
 <ele>562.51</ele>
 <time>2009-08-06T09:24:47Z</time>
 </trkpt>
 <trkpt lat="47.398716" lon="13.226475">
 <ele>561.07</ele>
 <time>2009-08-06T09:24:52Z</time>
 </trkpt>
 <trkpt lat="47.399052" lon="13.226420">
 <ele>561.07</ele>
 <time>2009-08-06T09:24:58Z</time>
 </trkpt>
 <trkpt lat="47.399597" lon="13.226394">
 <ele>561.07</ele>
 <time>2009-08-06T09:25:08Z</time>
 </trkpt>
 <trkpt lat="47.399986" lon="13.226368">
 <ele>561.55</ele>
 <time>2009-08-06T09:25:16Z</time>
 </trkpt>
 <trkpt lat="47.400246" lon="13.226328">
 <ele>560.59</ele>
 <time>2009-08-06T09:25:21Z</time>
 </trkpt>
 <trkpt lat="47.400799" lon="13.226254">
 <ele>561.07</ele>
 <time>2009-08-06T09:25:31Z</time>
 </trkpt>
 <trkpt lat="47.401173" lon="13.226178">
 <ele>560.59</ele>
 <time>2009-08-06T09:25:38Z</time>
 </trkpt>
 <trkpt lat="47.401543" lon="13.226056">
 <ele>560.59</ele>
 <time>2009-08-06T09:25:45Z</time>
 </trkpt>
 <trkpt lat="47.401848" lon="13.225921">
 <ele>560.59</ele>
 <time>2009-08-06T09:25:51Z</time>
 </trkpt>
 <trkpt lat="47.402126" lon="13.225758">
 <ele>561.07</ele>
 <time>2009-08-06T09:25:57Z</time>
 </trkpt>
 <trkpt lat="47.402210" lon="13.225704">
 <ele>561.07</ele>
 <time>2009-08-06T09:25:59Z</time>
 </trkpt>
 <trkpt lat="47.402561" lon="13.225436">
 <ele>561.07</ele>
 <time>2009-08-06T09:26:07Z</time>
 </trkpt>
 <trkpt lat="47.402836" lon="13.225259">
 <ele>560.59</ele>
 <time>2009-08-06T09:26:14Z</time>
 </trkpt>
 <trkpt lat="47.402950" lon="13.225209">
 <ele>562.03</ele>
 <time>2009-08-06T09:26:17Z</time>
 </trkpt>
 <trkpt lat="47.402988" lon="13.225191">
 <ele>561.55</ele>
 <time>2009-08-06T09:26:18Z</time>
 </trkpt>
 <trkpt lat="47.403164" lon="13.225008">
 <ele>562.03</ele>
 <time>2009-08-06T09:26:23Z</time>
 </trkpt>
 <trkpt lat="47.403477" lon="13.224744">
 <ele>562.03</ele>
 <time>2009-08-06T09:26:31Z</time>
 </trkpt>
 <trkpt lat="47.403618" lon="13.224507">
 <ele>561.55</ele>
 <time>2009-08-06T09:26:35Z</time>
 </trkpt>
 <trkpt lat="47.403763" lon="13.224145">
 <ele>561.07</ele>
 <time>2009-08-06T09:26:40Z</time>
 </trkpt>
 <trkpt lat="47.403805" lon="13.224084">
 <ele>561.07</ele>
 <time>2009-08-06T09:26:41Z</time>
 </trkpt>
 <trkpt lat="47.404114" lon="13.223708">
 <ele>561.07</ele>
 <time>2009-08-06T09:26:48Z</time>
 </trkpt>
 <trkpt lat="47.404305" lon="13.223570">
 <ele>561.55</ele>
 <time>2009-08-06T09:26:52Z</time>
 </trkpt>
 <trkpt lat="47.404667" lon="13.223483">
 <ele>560.59</ele>
 <time>2009-08-06T09:26:59Z</time>
 </trkpt>
 <trkpt lat="47.404816" lon="13.223441">
 <ele>560.59</ele>
 <time>2009-08-06T09:27:02Z</time>
 </trkpt>
 <trkpt lat="47.404972" lon="13.223309">
 <ele>560.59</ele>
 <time>2009-08-06T09:27:06Z</time>
 </trkpt>
 <trkpt lat="47.405003" lon="13.223100">
 <ele>561.07</ele>
 <time>2009-08-06T09:27:09Z</time>
 </trkpt>
 <trkpt lat="47.405098" lon="13.222846">
 <ele>561.07</ele>
 <time>2009-08-06T09:27:13Z</time>
 </trkpt>
 <trkpt lat="47.405167" lon="13.222759">
 <ele>561.07</ele>
 <time>2009-08-06T09:27:15Z</time>
 </trkpt>
 <trkpt lat="47.405239" lon="13.222694">
 <ele>562.03</ele>
 <time>2009-08-06T09:27:17Z</time>
 </trkpt>
 <trkpt lat="47.405563" lon="13.222471">
 <ele>561.07</ele>
 <time>2009-08-06T09:27:24Z</time>
 </trkpt>
 <trkpt lat="47.405956" lon="13.222128">
 <ele>562.51</ele>
 <time>2009-08-06T09:27:33Z</time>
 </trkpt>
 <trkpt lat="47.406269" lon="13.221823">
 <ele>562.51</ele>
 <time>2009-08-06T09:27:40Z</time>
 </trkpt>
 <trkpt lat="47.406597" lon="13.221416">
 <ele>562.03</ele>
 <time>2009-08-06T09:27:48Z</time>
 </trkpt>
 <trkpt lat="47.406754" lon="13.221231">
 <ele>562.03</ele>
 <time>2009-08-06T09:27:53Z</time>
 </trkpt>
 <trkpt lat="47.406879" lon="13.221228">
 <ele>561.55</ele>
 <time>2009-08-06T09:27:57Z</time>
 </trkpt>
 <trkpt lat="47.407166" lon="13.220965">
 <ele>559.14</ele>
 <time>2009-08-06T09:28:03Z</time>
 </trkpt>
 <trkpt lat="47.407421" lon="13.220684">
 <ele>557.70</ele>
 <time>2009-08-06T09:28:07Z</time>
 </trkpt>
 <trkpt lat="47.407745" lon="13.220328">
 <ele>557.22</ele>
 <time>2009-08-06T09:28:12Z</time>
 </trkpt>
 <trkpt lat="47.408115" lon="13.220008">
 <ele>557.22</ele>
 <time>2009-08-06T09:28:18Z</time>
 </trkpt>
 <trkpt lat="47.408409" lon="13.219792">
 <ele>556.74</ele>
 <time>2009-08-06T09:28:23Z</time>
 </trkpt>
 <trkpt lat="47.408970" lon="13.219614">
 <ele>556.74</ele>
 <time>2009-08-06T09:28:32Z</time>
 </trkpt>
 <trkpt lat="47.409416" lon="13.219644">
 <ele>556.26</ele>
 <time>2009-08-06T09:28:39Z</time>
 </trkpt>
 <trkpt lat="47.409794" lon="13.219785">
 <ele>555.78</ele>
 <time>2009-08-06T09:28:45Z</time>
 </trkpt>
 <trkpt lat="47.410133" lon="13.220037">
 <ele>555.78</ele>
 <time>2009-08-06T09:28:51Z</time>
 </trkpt>
 <trkpt lat="47.410553" lon="13.220463">
 <ele>555.78</ele>
 <time>2009-08-06T09:28:59Z</time>
 </trkpt>
 <trkpt lat="47.411026" lon="13.220939">
 <ele>555.30</ele>
 <time>2009-08-06T09:29:08Z</time>
 </trkpt>
 <trkpt lat="47.411514" lon="13.221315">
 <ele>556.26</ele>
 <time>2009-08-06T09:29:17Z</time>
 </trkpt>
 <trkpt lat="47.411900" lon="13.221462">
 <ele>556.74</ele>
 <time>2009-08-06T09:29:24Z</time>
 </trkpt>
 <trkpt lat="47.412170" lon="13.221499">
 <ele>557.22</ele>
 <time>2009-08-06T09:29:29Z</time>
 </trkpt>
 <trkpt lat="47.412224" lon="13.221504">
 <ele>557.22</ele>
 <time>2009-08-06T09:29:30Z</time>
 </trkpt>
 <trkpt lat="47.412529" lon="13.221395">
 <ele>556.74</ele>
 <time>2009-08-06T09:29:36Z</time>
 </trkpt>
 <trkpt lat="47.412670" lon="13.221301">
 <ele>556.74</ele>
 <time>2009-08-06T09:29:39Z</time>
 </trkpt>
 <trkpt lat="47.412853" lon="13.221238">
 <ele>556.74</ele>
 <time>2009-08-06T09:29:43Z</time>
 </trkpt>
 <trkpt lat="47.413246" lon="13.221231">
 <ele>556.26</ele>
 <time>2009-08-06T09:29:50Z</time>
 </trkpt>
 <trkpt lat="47.413834" lon="13.221250">
 <ele>556.26</ele>
 <time>2009-08-06T09:30:00Z</time>
 </trkpt>
 <trkpt lat="47.414295" lon="13.221292">
 <ele>556.26</ele>
 <time>2009-08-06T09:30:09Z</time>
 </trkpt>
 <trkpt lat="47.414600" lon="13.221356">
 <ele>556.26</ele>
 <time>2009-08-06T09:30:16Z</time>
 </trkpt>
 <trkpt lat="47.414673" lon="13.221368">
 <ele>556.26</ele>
 <time>2009-08-06T09:30:18Z</time>
 </trkpt>
 <trkpt lat="47.415047" lon="13.221264">
 <ele>555.78</ele>
 <time>2009-08-06T09:30:26Z</time>
 </trkpt>
 <trkpt lat="47.415092" lon="13.221258">
 <ele>555.78</ele>
 <time>2009-08-06T09:30:27Z</time>
 </trkpt>
 <trkpt lat="47.415302" lon="13.221273">
 <ele>555.78</ele>
 <time>2009-08-06T09:30:31Z</time>
 </trkpt>
 <trkpt lat="47.415543" lon="13.221296">
 <ele>555.30</ele>
 <time>2009-08-06T09:30:36Z</time>
 </trkpt>
 <trkpt lat="47.415958" lon="13.221296">
 <ele>555.30</ele>
 <time>2009-08-06T09:30:45Z</time>
 </trkpt>
 <trkpt lat="47.416206" lon="13.221307">
 <ele>555.78</ele>
 <time>2009-08-06T09:30:50Z</time>
 </trkpt>
 <trkpt lat="47.416676" lon="13.221337">
 <ele>555.30</ele>
 <time>2009-08-06T09:30:59Z</time>
 </trkpt>
 <trkpt lat="47.416924" lon="13.221389">
 <ele>555.30</ele>
 <time>2009-08-06T09:31:04Z</time>
 </trkpt>
 <trkpt lat="47.417271" lon="13.221400">
 <ele>554.82</ele>
 <time>2009-08-06T09:31:11Z</time>
 </trkpt>
 <trkpt lat="47.417637" lon="13.221423">
 <ele>555.30</ele>
 <time>2009-08-06T09:31:18Z</time>
 </trkpt>
 <trkpt lat="47.417999" lon="13.221496">
 <ele>555.30</ele>
 <time>2009-08-06T09:31:25Z</time>
 </trkpt>
 <trkpt lat="47.418144" lon="13.221539">
 <ele>554.82</ele>
 <time>2009-08-06T09:31:28Z</time>
 </trkpt>
 <trkpt lat="47.418259" lon="13.221477">
 <ele>555.30</ele>
 <time>2009-08-06T09:31:32Z</time>
 </trkpt>
 <trkpt lat="47.418266" lon="13.221345">
 <ele>555.30</ele>
 <time>2009-08-06T09:31:35Z</time>
 </trkpt>
 <trkpt lat="47.418327" lon="13.220836">
 <ele>555.78</ele>
 <time>2009-08-06T09:31:45Z</time>
 </trkpt>
 <trkpt lat="47.418343" lon="13.220711">
 <ele>556.26</ele>
 <time>2009-08-06T09:31:48Z</time>
 </trkpt>
 <trkpt lat="47.418419" lon="13.220649">
 <ele>556.26</ele>
 <time>2009-08-06T09:31:52Z</time>
 </trkpt>
 <trkpt lat="47.418461" lon="13.220623">
 <ele>556.26</ele>
 <time>2009-08-06T09:31:58Z</time>
 </trkpt>
 <trkpt lat="47.418507" lon="13.220594">
 <ele>556.74</ele>
 <time>2009-08-06T09:32:03Z</time>
 </trkpt>
 <trkpt lat="47.418560" lon="13.220565">
 <ele>556.74</ele>
 <time>2009-08-06T09:32:06Z</time>
 </trkpt>
 <trkpt lat="47.418602" lon="13.220585">
 <ele>556.26</ele>
 <time>2009-08-06T09:32:10Z</time>
 </trkpt>
 <trkpt lat="47.418686" lon="13.220576">
 <ele>556.74</ele>
 <time>2009-08-06T09:32:15Z</time>
 </trkpt>
 <trkpt lat="47.418880" lon="13.220563">
 <ele>556.74</ele>
 <time>2009-08-06T09:32:21Z</time>
 </trkpt>
 <trkpt lat="47.419106" lon="13.220528">
 <ele>557.22</ele>
 <time>2009-08-06T09:32:27Z</time>
 </trkpt>
 <trkpt lat="47.419212" lon="13.220517">
 <ele>556.74</ele>
 <time>2009-08-06T09:32:30Z</time>
 </trkpt>
 <trkpt lat="47.419334" lon="13.220587">
 <ele>556.26</ele>
 <time>2009-08-06T09:32:34Z</time>
 </trkpt>
 <trkpt lat="47.419510" lon="13.220615">
 <ele>557.22</ele>
 <time>2009-08-06T09:32:39Z</time>
 </trkpt>
 <trkpt lat="47.419853" lon="13.220714">
 <ele>556.74</ele>
 <time>2009-08-06T09:32:46Z</time>
 </trkpt>
 <trkpt lat="47.420238" lon="13.220814">
 <ele>557.22</ele>
 <time>2009-08-06T09:32:54Z</time>
 </trkpt>
 <trkpt lat="47.420372" lon="13.220834">
 <ele>557.22</ele>
 <time>2009-08-06T09:32:57Z</time>
 </trkpt>
 <trkpt lat="47.420540" lon="13.220791">
 <ele>558.18</ele>
 <time>2009-08-06T09:33:01Z</time>
 </trkpt>
 <trkpt lat="47.420753" lon="13.220804">
 <ele>557.70</ele>
 <time>2009-08-06T09:33:06Z</time>
 </trkpt>
 <trkpt lat="47.420799" lon="13.220819">
 <ele>557.22</ele>
 <time>2009-08-06T09:33:07Z</time>
 </trkpt>
 <trkpt lat="47.421066" lon="13.220757">
 <ele>557.22</ele>
 <time>2009-08-06T09:33:13Z</time>
 </trkpt>
 <trkpt lat="47.421143" lon="13.220686">
 <ele>557.22</ele>
 <time>2009-08-06T09:33:15Z</time>
 </trkpt>
 <trkpt lat="47.421307" lon="13.220611">
 <ele>556.26</ele>
 <time>2009-08-06T09:33:18Z</time>
 </trkpt>
 <trkpt lat="47.421333" lon="13.220569">
 <ele>556.26</ele>
 <time>2009-08-06T09:33:19Z</time>
 </trkpt>
 <trkpt lat="47.421383" lon="13.220493">
 <ele>556.26</ele>
 <time>2009-08-06T09:33:21Z</time>
 </trkpt>
 <trkpt lat="47.421406" lon="13.220180">
 <ele>553.86</ele>
 <time>2009-08-06T09:33:25Z</time>
 </trkpt>
 <trkpt lat="47.421383" lon="13.219918">
 <ele>552.41</ele>
 <time>2009-08-06T09:33:28Z</time>
 </trkpt>
 <trkpt lat="47.421391" lon="13.219823">
 <ele>552.41</ele>
 <time>2009-08-06T09:33:29Z</time>
 </trkpt>
 <trkpt lat="47.421341" lon="13.219607">
 <ele>551.93</ele>
 <time>2009-08-06T09:33:31Z</time>
 </trkpt>
 <trkpt lat="47.421444" lon="13.219511">
 <ele>552.41</ele>
 <time>2009-08-06T09:33:34Z</time>
 </trkpt>
 <trkpt lat="47.421593" lon="13.219436">
 <ele>553.38</ele>
 <time>2009-08-06T09:33:40Z</time>
 </trkpt>
 <trkpt lat="47.421654" lon="13.219408">
 <ele>554.82</ele>
 <time>2009-08-06T09:33:42Z</time>
 </trkpt>
 <trkpt lat="47.421844" lon="13.219345">
 <ele>555.30</ele>
 <time>2009-08-06T09:33:49Z</time>
 </trkpt>
 <trkpt lat="47.421894" lon="13.219337">
 <ele>554.34</ele>
 <time>2009-08-06T09:33:51Z</time>
 </trkpt>
 <trkpt lat="47.421917" lon="13.219254">
 <ele>554.82</ele>
 <time>2009-08-06T09:33:56Z</time>
 </trkpt>
 <trkpt lat="47.421913" lon="13.219254">
 <ele>554.34</ele>
 <time>2009-08-06T09:34:00Z</time>
 </trkpt>
 </trkseg>
 </trk>
</gpx>
